<?xml version="1.0" encoding="UTF-8" standalone="no" ?>
<gpx xmlns="http://www.topografix.com/GPX/1/1" xmlns:xsi="http://www.w3.org/2001/XMLSchema-instance" xsi:schemaLocation="http://www.topografix.com/GPX/1/1 http://www.topografix.com/GPX/1/1/gpx.xsd" version="1.1" creator="VisuGPX - https://www.visugpx.com">
  <metadata>
    <name>Sentier des oratoires</name>
    <desc><![CDATA[Randonnée de 19 km en boucle à partir de la gare RER de Saint Germain-en-Laye]]></desc>
  </metadata>
  <trk>
    <name><![CDATA[Sentier des oratoires_R2]]></name>
    <trkseg>
      <trkpt lat="48.89775" lon="2.09469">
        <ele>79.77</ele>
        <time>2020-01-05T08:29:40Z</time>
      </trkpt>
      <trkpt lat="48.89776" lon="2.09469">
        <ele>79.77</ele>
        <time>2020-01-05T08:29:41Z</time>
      </trkpt>
      <trkpt lat="48.89776" lon="2.09469">
        <ele>90.95</ele>
        <time>2020-01-05T08:29:44Z</time>
      </trkpt>
      <trkpt lat="48.89776" lon="2.09469">
        <ele>90.95</ele>
        <time>2020-01-05T08:29:45Z</time>
      </trkpt>
      <trkpt lat="48.89774" lon="2.09468">
        <ele>91.07</ele>
        <time>2020-01-05T08:30:10Z</time>
      </trkpt>
      <trkpt lat="48.89775" lon="2.09467">
        <ele>90.96</ele>
        <time>2020-01-05T08:30:39Z</time>
      </trkpt>
      <trkpt lat="48.89775" lon="2.09468">
        <ele>90.6</ele>
        <time>2020-01-05T08:30:57Z</time>
      </trkpt>
      <trkpt lat="48.89776" lon="2.09469">
        <ele>90.69</ele>
        <time>2020-01-05T08:31:19Z</time>
      </trkpt>
      <trkpt lat="48.89776" lon="2.0947">
        <ele>90.6</ele>
        <time>2020-01-05T08:31:49Z</time>
      </trkpt>
      <trkpt lat="48.89776" lon="2.09471">
        <ele>90.45</ele>
        <time>2020-01-05T08:32:12Z</time>
      </trkpt>
      <trkpt lat="48.89777" lon="2.09472">
        <ele>90.98</ele>
        <time>2020-01-05T08:32:34Z</time>
      </trkpt>
      <trkpt lat="48.89776" lon="2.09473">
        <ele>90.39</ele>
        <time>2020-01-05T08:32:59Z</time>
      </trkpt>
      <trkpt lat="48.89776" lon="2.09473">
        <ele>90.07</ele>
        <time>2020-01-05T08:33:22Z</time>
      </trkpt>
      <trkpt lat="48.89777" lon="2.09471">
        <ele>90.19</ele>
        <time>2020-01-05T08:33:48Z</time>
      </trkpt>
      <trkpt lat="48.89777" lon="2.09473">
        <ele>90.57</ele>
        <time>2020-01-05T08:34:12Z</time>
      </trkpt>
      <trkpt lat="48.89777" lon="2.09471">
        <ele>90.14</ele>
        <time>2020-01-05T08:34:29Z</time>
      </trkpt>
      <trkpt lat="48.8978" lon="2.09473">
        <ele>90.4</ele>
        <time>2020-01-05T08:34:34Z</time>
      </trkpt>
      <trkpt lat="48.89784" lon="2.09477">
        <ele>89.92</ele>
        <time>2020-01-05T08:34:46Z</time>
      </trkpt>
      <trkpt lat="48.89796" lon="2.09497">
        <ele>89.65</ele>
        <time>2020-01-05T08:35:03Z</time>
      </trkpt>
      <trkpt lat="48.89803" lon="2.09508">
        <ele>89.66</ele>
        <time>2020-01-05T08:35:12Z</time>
      </trkpt>
      <trkpt lat="48.89814" lon="2.09517">
        <ele>89.78</ele>
        <time>2020-01-05T08:35:25Z</time>
      </trkpt>
      <trkpt lat="48.8983" lon="2.09526">
        <ele>90.01</ele>
        <time>2020-01-05T08:35:40Z</time>
      </trkpt>
      <trkpt lat="48.89842" lon="2.09547">
        <ele>89.42</ele>
        <time>2020-01-05T08:35:56Z</time>
      </trkpt>
      <trkpt lat="48.89852" lon="2.09564">
        <ele>89.33</ele>
        <time>2020-01-05T08:36:10Z</time>
      </trkpt>
      <trkpt lat="48.89865" lon="2.09582">
        <ele>88.94</ele>
        <time>2020-01-05T08:36:27Z</time>
      </trkpt>
      <trkpt lat="48.89878" lon="2.09585">
        <ele>88.53</ele>
        <time>2020-01-05T08:36:41Z</time>
      </trkpt>
      <trkpt lat="48.8988" lon="2.09585">
        <ele>88.27</ele>
        <time>2020-01-05T08:36:42Z</time>
      </trkpt>
      <trkpt lat="48.89884" lon="2.09588">
        <ele>87.97</ele>
        <time>2020-01-05T08:36:47Z</time>
      </trkpt>
      <trkpt lat="48.89891" lon="2.09587">
        <ele>88.45</ele>
        <time>2020-01-05T08:36:53Z</time>
      </trkpt>
      <trkpt lat="48.89904" lon="2.09584">
        <ele>88.28</ele>
        <time>2020-01-05T08:37:04Z</time>
      </trkpt>
      <trkpt lat="48.89922" lon="2.09578">
        <ele>87.85</ele>
        <time>2020-01-05T08:37:20Z</time>
      </trkpt>
      <trkpt lat="48.8994" lon="2.09572">
        <ele>87.65</ele>
        <time>2020-01-05T08:37:36Z</time>
      </trkpt>
      <trkpt lat="48.89952" lon="2.09567">
        <ele>87.86</ele>
        <time>2020-01-05T08:37:48Z</time>
      </trkpt>
      <trkpt lat="48.89972" lon="2.0956">
        <ele>87.4</ele>
        <time>2020-01-05T08:38:04Z</time>
      </trkpt>
      <trkpt lat="48.89988" lon="2.09554">
        <ele>87.07</ele>
        <time>2020-01-05T08:38:18Z</time>
      </trkpt>
      <trkpt lat="48.8999" lon="2.09553">
        <ele>87.41</ele>
        <time>2020-01-05T08:38:21Z</time>
      </trkpt>
      <trkpt lat="48.89992" lon="2.09552">
        <ele>87.09</ele>
        <time>2020-01-05T08:38:23Z</time>
      </trkpt>
      <trkpt lat="48.90008" lon="2.09552">
        <ele>86.51</ele>
        <time>2020-01-05T08:38:38Z</time>
      </trkpt>
      <trkpt lat="48.90012" lon="2.09554">
        <ele>86.91</ele>
        <time>2020-01-05T08:38:42Z</time>
      </trkpt>
      <trkpt lat="48.90015" lon="2.09556">
        <ele>86.89</ele>
        <time>2020-01-05T08:38:45Z</time>
      </trkpt>
      <trkpt lat="48.90025" lon="2.09562">
        <ele>86.62</ele>
        <time>2020-01-05T08:38:54Z</time>
      </trkpt>
      <trkpt lat="48.90028" lon="2.09566">
        <ele>86.38</ele>
        <time>2020-01-05T08:38:58Z</time>
      </trkpt>
      <trkpt lat="48.90045" lon="2.09575">
        <ele>86.14</ele>
        <time>2020-01-05T08:39:13Z</time>
      </trkpt>
      <trkpt lat="48.90059" lon="2.09583">
        <ele>85.94</ele>
        <time>2020-01-05T08:39:28Z</time>
      </trkpt>
      <trkpt lat="48.90081" lon="2.09602">
        <ele>84.84</ele>
        <time>2020-01-05T08:39:49Z</time>
      </trkpt>
      <trkpt lat="48.90095" lon="2.09615">
        <ele>84.24</ele>
        <time>2020-01-05T08:40:04Z</time>
      </trkpt>
      <trkpt lat="48.90108" lon="2.09628">
        <ele>83.65</ele>
        <time>2020-01-05T08:40:18Z</time>
      </trkpt>
      <trkpt lat="48.90117" lon="2.09636">
        <ele>84.14</ele>
        <time>2020-01-05T08:40:30Z</time>
      </trkpt>
      <trkpt lat="48.90137" lon="2.09651">
        <ele>83.31</ele>
        <time>2020-01-05T08:40:50Z</time>
      </trkpt>
      <trkpt lat="48.90153" lon="2.0967">
        <ele>81.71</ele>
        <time>2020-01-05T08:41:09Z</time>
      </trkpt>
      <trkpt lat="48.90166" lon="2.09687">
        <ele>81.86</ele>
        <time>2020-01-05T08:41:25Z</time>
      </trkpt>
      <trkpt lat="48.90179" lon="2.09703">
        <ele>80.93</ele>
        <time>2020-01-05T08:41:39Z</time>
      </trkpt>
      <trkpt lat="48.90191" lon="2.09727">
        <ele>80.08</ele>
        <time>2020-01-05T08:41:57Z</time>
      </trkpt>
      <trkpt lat="48.90193" lon="2.09735">
        <ele>79.92</ele>
        <time>2020-01-05T08:42:02Z</time>
      </trkpt>
      <trkpt lat="48.90202" lon="2.0975">
        <ele>79.12</ele>
        <time>2020-01-05T08:42:12Z</time>
      </trkpt>
      <trkpt lat="48.90209" lon="2.09777">
        <ele>78.87</ele>
        <time>2020-01-05T08:42:27Z</time>
      </trkpt>
      <trkpt lat="48.90217" lon="2.09803">
        <ele>78.36</ele>
        <time>2020-01-05T08:42:43Z</time>
      </trkpt>
      <trkpt lat="48.90222" lon="2.09826">
        <ele>77.94</ele>
        <time>2020-01-05T08:42:56Z</time>
      </trkpt>
      <trkpt lat="48.90229" lon="2.0985">
        <ele>78.11</ele>
        <time>2020-01-05T08:43:12Z</time>
      </trkpt>
      <trkpt lat="48.9023" lon="2.09852">
        <ele>78.16</ele>
        <time>2020-01-05T08:43:14Z</time>
      </trkpt>
      <trkpt lat="48.90237" lon="2.09868">
        <ele>77.29</ele>
        <time>2020-01-05T08:43:27Z</time>
      </trkpt>
      <trkpt lat="48.90246" lon="2.09884">
        <ele>76.68</ele>
        <time>2020-01-05T08:43:39Z</time>
      </trkpt>
      <trkpt lat="48.90247" lon="2.09887">
        <ele>77.25</ele>
        <time>2020-01-05T08:43:41Z</time>
      </trkpt>
      <trkpt lat="48.90251" lon="2.09898">
        <ele>76.75</ele>
        <time>2020-01-05T08:43:47Z</time>
      </trkpt>
      <trkpt lat="48.90261" lon="2.09918">
        <ele>76.35</ele>
        <time>2020-01-05T08:44:02Z</time>
      </trkpt>
      <trkpt lat="48.90271" lon="2.09936">
        <ele>76.04</ele>
        <time>2020-01-05T08:44:20Z</time>
      </trkpt>
      <trkpt lat="48.90275" lon="2.09946">
        <ele>76.34</ele>
        <time>2020-01-05T08:44:26Z</time>
      </trkpt>
      <trkpt lat="48.90285" lon="2.09964">
        <ele>75.62</ele>
        <time>2020-01-05T08:44:41Z</time>
      </trkpt>
      <trkpt lat="48.90285" lon="2.09965">
        <ele>76.07</ele>
        <time>2020-01-05T08:44:42Z</time>
      </trkpt>
      <trkpt lat="48.90296" lon="2.09986">
        <ele>75.53</ele>
        <time>2020-01-05T08:44:58Z</time>
      </trkpt>
      <trkpt lat="48.90304" lon="2.10011">
        <ele>75.63</ele>
        <time>2020-01-05T08:45:14Z</time>
      </trkpt>
      <trkpt lat="48.90311" lon="2.10036">
        <ele>74.7</ele>
        <time>2020-01-05T08:45:28Z</time>
      </trkpt>
      <trkpt lat="48.90322" lon="2.10052">
        <ele>74.86</ele>
        <time>2020-01-05T08:45:41Z</time>
      </trkpt>
      <trkpt lat="48.90323" lon="2.10054">
        <ele>74.75</ele>
        <time>2020-01-05T08:45:44Z</time>
      </trkpt>
      <trkpt lat="48.90331" lon="2.10062">
        <ele>74.53</ele>
        <time>2020-01-05T08:45:54Z</time>
      </trkpt>
      <trkpt lat="48.90335" lon="2.10067">
        <ele>74.76</ele>
        <time>2020-01-05T08:45:58Z</time>
      </trkpt>
      <trkpt lat="48.90349" lon="2.10076">
        <ele>74.97</ele>
        <time>2020-01-05T08:46:14Z</time>
      </trkpt>
      <trkpt lat="48.90353" lon="2.1007">
        <ele>74.27</ele>
        <time>2020-01-05T08:46:33Z</time>
      </trkpt>
      <trkpt lat="48.90359" lon="2.10061">
        <ele>74.68</ele>
        <time>2020-01-05T08:46:42Z</time>
      </trkpt>
      <trkpt lat="48.9037" lon="2.10044">
        <ele>73.31</ele>
        <time>2020-01-05T08:46:58Z</time>
      </trkpt>
      <trkpt lat="48.9038" lon="2.10031">
        <ele>74.28</ele>
        <time>2020-01-05T08:47:11Z</time>
      </trkpt>
      <trkpt lat="48.9039" lon="2.10008">
        <ele>73.5</ele>
        <time>2020-01-05T08:47:27Z</time>
      </trkpt>
      <trkpt lat="48.90401" lon="2.09992">
        <ele>73.11</ele>
        <time>2020-01-05T08:47:42Z</time>
      </trkpt>
      <trkpt lat="48.90411" lon="2.09969">
        <ele>73</ele>
        <time>2020-01-05T08:47:59Z</time>
      </trkpt>
      <trkpt lat="48.90421" lon="2.09944">
        <ele>72.07</ele>
        <time>2020-01-05T08:48:17Z</time>
      </trkpt>
      <trkpt lat="48.90421" lon="2.09922">
        <ele>71.98</ele>
        <time>2020-01-05T08:48:36Z</time>
      </trkpt>
      <trkpt lat="48.90425" lon="2.09895">
        <ele>71.81</ele>
        <time>2020-01-05T08:48:56Z</time>
      </trkpt>
      <trkpt lat="48.90425" lon="2.09872">
        <ele>70.32</ele>
        <time>2020-01-05T08:49:13Z</time>
      </trkpt>
      <trkpt lat="48.90426" lon="2.09859">
        <ele>69.72</ele>
        <time>2020-01-05T08:49:20Z</time>
      </trkpt>
      <trkpt lat="48.9042" lon="2.09849">
        <ele>70.39</ele>
        <time>2020-01-05T08:49:33Z</time>
      </trkpt>
      <trkpt lat="48.90417" lon="2.0985">
        <ele>70.46</ele>
        <time>2020-01-05T08:49:54Z</time>
      </trkpt>
      <trkpt lat="48.90412" lon="2.09838">
        <ele>70.51</ele>
        <time>2020-01-05T08:50:10Z</time>
      </trkpt>
      <trkpt lat="48.90411" lon="2.09835">
        <ele>70.33</ele>
        <time>2020-01-05T08:50:12Z</time>
      </trkpt>
      <trkpt lat="48.90404" lon="2.09817">
        <ele>70.34</ele>
        <time>2020-01-05T08:50:25Z</time>
      </trkpt>
      <trkpt lat="48.90399" lon="2.09805">
        <ele>70.73</ele>
        <time>2020-01-05T08:50:34Z</time>
      </trkpt>
      <trkpt lat="48.90398" lon="2.09801">
        <ele>70.19</ele>
        <time>2020-01-05T08:50:36Z</time>
      </trkpt>
      <trkpt lat="48.90404" lon="2.09788">
        <ele>69.9</ele>
        <time>2020-01-05T08:50:45Z</time>
      </trkpt>
      <trkpt lat="48.9041" lon="2.09783">
        <ele>69.62</ele>
        <time>2020-01-05T08:51:04Z</time>
      </trkpt>
      <trkpt lat="48.90425" lon="2.0977">
        <ele>69.66</ele>
        <time>2020-01-05T08:51:26Z</time>
      </trkpt>
      <trkpt lat="48.90439" lon="2.09758">
        <ele>69.54</ele>
        <time>2020-01-05T08:51:44Z</time>
      </trkpt>
      <trkpt lat="48.90459" lon="2.09735">
        <ele>69.15</ele>
        <time>2020-01-05T08:52:04Z</time>
      </trkpt>
      <trkpt lat="48.90475" lon="2.09722">
        <ele>69.22</ele>
        <time>2020-01-05T08:52:19Z</time>
      </trkpt>
      <trkpt lat="48.90493" lon="2.09727">
        <ele>68.64</ele>
        <time>2020-01-05T08:52:40Z</time>
      </trkpt>
      <trkpt lat="48.90508" lon="2.09723">
        <ele>68.86</ele>
        <time>2020-01-05T08:52:59Z</time>
      </trkpt>
      <trkpt lat="48.90516" lon="2.09718">
        <ele>68.61</ele>
        <time>2020-01-05T08:53:06Z</time>
      </trkpt>
      <trkpt lat="48.90525" lon="2.09705">
        <ele>68.65</ele>
        <time>2020-01-05T08:53:20Z</time>
      </trkpt>
      <trkpt lat="48.90534" lon="2.09696">
        <ele>67.84</ele>
        <time>2020-01-05T08:53:35Z</time>
      </trkpt>
      <trkpt lat="48.90549" lon="2.09697">
        <ele>67.65</ele>
        <time>2020-01-05T08:53:54Z</time>
      </trkpt>
      <trkpt lat="48.90563" lon="2.09694">
        <ele>66.87</ele>
        <time>2020-01-05T08:54:10Z</time>
      </trkpt>
      <trkpt lat="48.90582" lon="2.0969">
        <ele>66.27</ele>
        <time>2020-01-05T08:54:30Z</time>
      </trkpt>
      <trkpt lat="48.90606" lon="2.09692">
        <ele>65.93</ele>
        <time>2020-01-05T08:54:51Z</time>
      </trkpt>
      <trkpt lat="48.90627" lon="2.09692">
        <ele>64.97</ele>
        <time>2020-01-05T08:55:10Z</time>
      </trkpt>
      <trkpt lat="48.90648" lon="2.09691">
        <ele>65.34</ele>
        <time>2020-01-05T08:55:29Z</time>
      </trkpt>
      <trkpt lat="48.90672" lon="2.09691">
        <ele>64.7</ele>
        <time>2020-01-05T08:55:50Z</time>
      </trkpt>
      <trkpt lat="48.90691" lon="2.0969">
        <ele>63.74</ele>
        <time>2020-01-05T08:56:08Z</time>
      </trkpt>
      <trkpt lat="48.90696" lon="2.09689">
        <ele>64.04</ele>
        <time>2020-01-05T08:56:12Z</time>
      </trkpt>
      <trkpt lat="48.90712" lon="2.09694">
        <ele>63.2</ele>
        <time>2020-01-05T08:56:29Z</time>
      </trkpt>
      <trkpt lat="48.90736" lon="2.09691">
        <ele>62.65</ele>
        <time>2020-01-05T08:56:46Z</time>
      </trkpt>
      <trkpt lat="48.90758" lon="2.09688">
        <ele>62.59</ele>
        <time>2020-01-05T08:57:04Z</time>
      </trkpt>
      <trkpt lat="48.90761" lon="2.09689">
        <ele>62.33</ele>
        <time>2020-01-05T08:57:30Z</time>
      </trkpt>
      <trkpt lat="48.90781" lon="2.09688">
        <ele>61.79</ele>
        <time>2020-01-05T08:57:47Z</time>
      </trkpt>
      <trkpt lat="48.90802" lon="2.09688">
        <ele>61.82</ele>
        <time>2020-01-05T08:58:09Z</time>
      </trkpt>
      <trkpt lat="48.90815" lon="2.09687">
        <ele>61.7</ele>
        <time>2020-01-05T08:58:21Z</time>
      </trkpt>
      <trkpt lat="48.90838" lon="2.09685">
        <ele>61.68</ele>
        <time>2020-01-05T08:58:38Z</time>
      </trkpt>
      <trkpt lat="48.90854" lon="2.09685">
        <ele>60.96</ele>
        <time>2020-01-05T08:58:53Z</time>
      </trkpt>
      <trkpt lat="48.90868" lon="2.09687">
        <ele>61.22</ele>
        <time>2020-01-05T08:59:11Z</time>
      </trkpt>
      <trkpt lat="48.90881" lon="2.09687">
        <ele>61.86</ele>
        <time>2020-01-05T08:59:22Z</time>
      </trkpt>
      <trkpt lat="48.90878" lon="2.09686">
        <ele>61.8</ele>
        <time>2020-01-05T08:59:48Z</time>
      </trkpt>
      <trkpt lat="48.90881" lon="2.09686">
        <ele>61.55</ele>
        <time>2020-01-05T09:00:13Z</time>
      </trkpt>
      <trkpt lat="48.90882" lon="2.09689">
        <ele>61.5</ele>
        <time>2020-01-05T09:00:37Z</time>
      </trkpt>
      <trkpt lat="48.9088" lon="2.09683">
        <ele>61.76</ele>
        <time>2020-01-05T09:00:52Z</time>
      </trkpt>
      <trkpt lat="48.90885" lon="2.09671">
        <ele>61.95</ele>
        <time>2020-01-05T09:01:11Z</time>
      </trkpt>
      <trkpt lat="48.90892" lon="2.09658">
        <ele>61.74</ele>
        <time>2020-01-05T09:01:21Z</time>
      </trkpt>
      <trkpt lat="48.90896" lon="2.09639">
        <ele>62.82</ele>
        <time>2020-01-05T09:01:35Z</time>
      </trkpt>
      <trkpt lat="48.90896" lon="2.0964">
        <ele>62.33</ele>
        <time>2020-01-05T09:01:54Z</time>
      </trkpt>
      <trkpt lat="48.90899" lon="2.09637">
        <ele>63.99</ele>
        <time>2020-01-05T09:02:13Z</time>
      </trkpt>
      <trkpt lat="48.909" lon="2.09635">
        <ele>62.99</ele>
        <time>2020-01-05T09:02:15Z</time>
      </trkpt>
      <trkpt lat="48.90908" lon="2.09622">
        <ele>63.39</ele>
        <time>2020-01-05T09:02:28Z</time>
      </trkpt>
      <trkpt lat="48.90912" lon="2.09607">
        <ele>63.3</ele>
        <time>2020-01-05T09:02:40Z</time>
      </trkpt>
      <trkpt lat="48.90916" lon="2.09589">
        <ele>63.66</ele>
        <time>2020-01-05T09:02:53Z</time>
      </trkpt>
      <trkpt lat="48.90925" lon="2.09574">
        <ele>64.13</ele>
        <time>2020-01-05T09:03:03Z</time>
      </trkpt>
      <trkpt lat="48.90931" lon="2.09555">
        <ele>64.32</ele>
        <time>2020-01-05T09:03:14Z</time>
      </trkpt>
      <trkpt lat="48.90942" lon="2.0953">
        <ele>64.67</ele>
        <time>2020-01-05T09:03:31Z</time>
      </trkpt>
      <trkpt lat="48.90947" lon="2.09512">
        <ele>64.26</ele>
        <time>2020-01-05T09:03:43Z</time>
      </trkpt>
      <trkpt lat="48.9096" lon="2.09485">
        <ele>64.44</ele>
        <time>2020-01-05T09:04:01Z</time>
      </trkpt>
      <trkpt lat="48.9097" lon="2.09462">
        <ele>64.45</ele>
        <time>2020-01-05T09:04:18Z</time>
      </trkpt>
      <trkpt lat="48.9098" lon="2.09437">
        <ele>64.63</ele>
        <time>2020-01-05T09:04:35Z</time>
      </trkpt>
      <trkpt lat="48.90985" lon="2.09427">
        <ele>64.94</ele>
        <time>2020-01-05T09:04:43Z</time>
      </trkpt>
      <trkpt lat="48.90987" lon="2.09421">
        <ele>64.81</ele>
        <time>2020-01-05T09:04:47Z</time>
      </trkpt>
      <trkpt lat="48.90994" lon="2.09399">
        <ele>64.91</ele>
        <time>2020-01-05T09:05:00Z</time>
      </trkpt>
      <trkpt lat="48.91006" lon="2.09373">
        <ele>64.91</ele>
        <time>2020-01-05T09:05:18Z</time>
      </trkpt>
      <trkpt lat="48.91014" lon="2.09347">
        <ele>65.07</ele>
        <time>2020-01-05T09:05:35Z</time>
      </trkpt>
      <trkpt lat="48.91024" lon="2.09328">
        <ele>65.07</ele>
        <time>2020-01-05T09:05:51Z</time>
      </trkpt>
      <trkpt lat="48.91029" lon="2.09313">
        <ele>65.1</ele>
        <time>2020-01-05T09:06:01Z</time>
      </trkpt>
      <trkpt lat="48.91039" lon="2.0929">
        <ele>65.39</ele>
        <time>2020-01-05T09:06:15Z</time>
      </trkpt>
      <trkpt lat="48.91045" lon="2.09278">
        <ele>65.29</ele>
        <time>2020-01-05T09:06:30Z</time>
      </trkpt>
      <trkpt lat="48.91052" lon="2.09254">
        <ele>64.91</ele>
        <time>2020-01-05T09:06:47Z</time>
      </trkpt>
      <trkpt lat="48.91057" lon="2.09244">
        <ele>64.86</ele>
        <time>2020-01-05T09:06:54Z</time>
      </trkpt>
      <trkpt lat="48.91059" lon="2.09235">
        <ele>64.93</ele>
        <time>2020-01-05T09:07:00Z</time>
      </trkpt>
      <trkpt lat="48.91069" lon="2.09208">
        <ele>65.36</ele>
        <time>2020-01-05T09:07:20Z</time>
      </trkpt>
      <trkpt lat="48.91078" lon="2.09181">
        <ele>64.68</ele>
        <time>2020-01-05T09:07:38Z</time>
      </trkpt>
      <trkpt lat="48.91097" lon="2.09153">
        <ele>64.69</ele>
        <time>2020-01-05T09:07:59Z</time>
      </trkpt>
      <trkpt lat="48.91102" lon="2.0913">
        <ele>64.05</ele>
        <time>2020-01-05T09:08:13Z</time>
      </trkpt>
      <trkpt lat="48.91108" lon="2.09108">
        <ele>63.24</ele>
        <time>2020-01-05T09:08:30Z</time>
      </trkpt>
      <trkpt lat="48.91116" lon="2.09096">
        <ele>64.19</ele>
        <time>2020-01-05T09:08:45Z</time>
      </trkpt>
      <trkpt lat="48.9112" lon="2.09086">
        <ele>64.6</ele>
        <time>2020-01-05T09:09:03Z</time>
      </trkpt>
      <trkpt lat="48.91121" lon="2.09082">
        <ele>64.02</ele>
        <time>2020-01-05T09:09:06Z</time>
      </trkpt>
      <trkpt lat="48.91126" lon="2.09073">
        <ele>64.45</ele>
        <time>2020-01-05T09:09:11Z</time>
      </trkpt>
      <trkpt lat="48.91136" lon="2.09045">
        <ele>63.78</ele>
        <time>2020-01-05T09:09:30Z</time>
      </trkpt>
      <trkpt lat="48.91137" lon="2.0904">
        <ele>63.26</ele>
        <time>2020-01-05T09:09:33Z</time>
      </trkpt>
      <trkpt lat="48.91144" lon="2.09029">
        <ele>63.26</ele>
        <time>2020-01-05T09:09:42Z</time>
      </trkpt>
      <trkpt lat="48.91149" lon="2.09027">
        <ele>63.56</ele>
        <time>2020-01-05T09:09:47Z</time>
      </trkpt>
      <trkpt lat="48.91164" lon="2.09018">
        <ele>63.55</ele>
        <time>2020-01-05T09:10:03Z</time>
      </trkpt>
      <trkpt lat="48.91179" lon="2.09012">
        <ele>62.82</ele>
        <time>2020-01-05T09:10:21Z</time>
      </trkpt>
      <trkpt lat="48.91179" lon="2.09012">
        <ele>62.93</ele>
        <time>2020-01-05T09:10:42Z</time>
      </trkpt>
      <trkpt lat="48.91177" lon="2.09012">
        <ele>63</ele>
        <time>2020-01-05T09:11:04Z</time>
      </trkpt>
      <trkpt lat="48.91179" lon="2.0901">
        <ele>62.88</ele>
        <time>2020-01-05T09:11:32Z</time>
      </trkpt>
      <trkpt lat="48.91179" lon="2.09008">
        <ele>62.81</ele>
        <time>2020-01-05T09:11:57Z</time>
      </trkpt>
      <trkpt lat="48.91183" lon="2.09006">
        <ele>63</ele>
        <time>2020-01-05T09:12:20Z</time>
      </trkpt>
      <trkpt lat="48.91185" lon="2.09005">
        <ele>63.18</ele>
        <time>2020-01-05T09:12:22Z</time>
      </trkpt>
      <trkpt lat="48.91194" lon="2.09003">
        <ele>63.06</ele>
        <time>2020-01-05T09:12:37Z</time>
      </trkpt>
      <trkpt lat="48.9121" lon="2.09007">
        <ele>62.13</ele>
        <time>2020-01-05T09:12:54Z</time>
      </trkpt>
      <trkpt lat="48.91222" lon="2.09018">
        <ele>62.58</ele>
        <time>2020-01-05T09:13:07Z</time>
      </trkpt>
      <trkpt lat="48.91232" lon="2.09016">
        <ele>63.04</ele>
        <time>2020-01-05T09:13:24Z</time>
      </trkpt>
      <trkpt lat="48.91232" lon="2.0902">
        <ele>62.59</ele>
        <time>2020-01-05T09:13:43Z</time>
      </trkpt>
      <trkpt lat="48.91239" lon="2.09021">
        <ele>62.4</ele>
        <time>2020-01-05T09:14:01Z</time>
      </trkpt>
      <trkpt lat="48.91259" lon="2.09029">
        <ele>62.07</ele>
        <time>2020-01-05T09:14:23Z</time>
      </trkpt>
      <trkpt lat="48.91275" lon="2.09033">
        <ele>60.64</ele>
        <time>2020-01-05T09:14:40Z</time>
      </trkpt>
      <trkpt lat="48.91291" lon="2.09041">
        <ele>60.26</ele>
        <time>2020-01-05T09:14:57Z</time>
      </trkpt>
      <trkpt lat="48.91314" lon="2.09053">
        <ele>59.46</ele>
        <time>2020-01-05T09:15:16Z</time>
      </trkpt>
      <trkpt lat="48.91333" lon="2.0906">
        <ele>59.3</ele>
        <time>2020-01-05T09:15:33Z</time>
      </trkpt>
      <trkpt lat="48.91355" lon="2.09073">
        <ele>59.18</ele>
        <time>2020-01-05T09:15:53Z</time>
      </trkpt>
      <trkpt lat="48.91372" lon="2.09084">
        <ele>60.02</ele>
        <time>2020-01-05T09:16:12Z</time>
      </trkpt>
      <trkpt lat="48.91375" lon="2.09084">
        <ele>59.97</ele>
        <time>2020-01-05T09:16:14Z</time>
      </trkpt>
      <trkpt lat="48.9139" lon="2.09088">
        <ele>60.1</ele>
        <time>2020-01-05T09:16:26Z</time>
      </trkpt>
      <trkpt lat="48.91404" lon="2.09092">
        <ele>59.9</ele>
        <time>2020-01-05T09:16:51Z</time>
      </trkpt>
      <trkpt lat="48.91427" lon="2.09105">
        <ele>61.12</ele>
        <time>2020-01-05T09:17:12Z</time>
      </trkpt>
      <trkpt lat="48.91443" lon="2.09111">
        <ele>61.32</ele>
        <time>2020-01-05T09:17:28Z</time>
      </trkpt>
      <trkpt lat="48.91447" lon="2.09111">
        <ele>60.62</ele>
        <time>2020-01-05T09:17:53Z</time>
      </trkpt>
      <trkpt lat="48.91448" lon="2.09112">
        <ele>60.8</ele>
        <time>2020-01-05T09:18:15Z</time>
      </trkpt>
      <trkpt lat="48.91454" lon="2.09115">
        <ele>61.1</ele>
        <time>2020-01-05T09:18:35Z</time>
      </trkpt>
      <trkpt lat="48.91468" lon="2.09121">
        <ele>61.45</ele>
        <time>2020-01-05T09:18:55Z</time>
      </trkpt>
      <trkpt lat="48.91489" lon="2.09129">
        <ele>61.22</ele>
        <time>2020-01-05T09:19:17Z</time>
      </trkpt>
      <trkpt lat="48.91503" lon="2.09136">
        <ele>61.48</ele>
        <time>2020-01-05T09:19:36Z</time>
      </trkpt>
      <trkpt lat="48.91508" lon="2.09137">
        <ele>61.5</ele>
        <time>2020-01-05T09:19:41Z</time>
      </trkpt>
      <trkpt lat="48.91527" lon="2.09143">
        <ele>61.64</ele>
        <time>2020-01-05T09:19:58Z</time>
      </trkpt>
      <trkpt lat="48.91529" lon="2.09145">
        <ele>61.72</ele>
        <time>2020-01-05T09:20:00Z</time>
      </trkpt>
      <trkpt lat="48.91526" lon="2.09144">
        <ele>61.45</ele>
        <time>2020-01-05T09:20:15Z</time>
      </trkpt>
      <trkpt lat="48.91527" lon="2.0914">
        <ele>61.99</ele>
        <time>2020-01-05T09:20:42Z</time>
      </trkpt>
      <trkpt lat="48.91526" lon="2.09138">
        <ele>61.66</ele>
        <time>2020-01-05T09:21:11Z</time>
      </trkpt>
      <trkpt lat="48.91526" lon="2.09141">
        <ele>61.92</ele>
        <time>2020-01-05T09:21:36Z</time>
      </trkpt>
      <trkpt lat="48.91526" lon="2.09143">
        <ele>61.13</ele>
        <time>2020-01-05T09:21:57Z</time>
      </trkpt>
      <trkpt lat="48.91525" lon="2.09142">
        <ele>61.83</ele>
        <time>2020-01-05T09:22:24Z</time>
      </trkpt>
      <trkpt lat="48.91521" lon="2.09139">
        <ele>62.55</ele>
        <time>2020-01-05T09:22:46Z</time>
      </trkpt>
      <trkpt lat="48.9152" lon="2.09141">
        <ele>62.41</ele>
        <time>2020-01-05T09:23:04Z</time>
      </trkpt>
      <trkpt lat="48.91518" lon="2.09142">
        <ele>62.29</ele>
        <time>2020-01-05T09:23:22Z</time>
      </trkpt>
      <trkpt lat="48.91523" lon="2.09144">
        <ele>62.23</ele>
        <time>2020-01-05T09:23:44Z</time>
      </trkpt>
      <trkpt lat="48.91526" lon="2.09145">
        <ele>62.17</ele>
        <time>2020-01-05T09:24:00Z</time>
      </trkpt>
      <trkpt lat="48.91526" lon="2.09145">
        <ele>62.25</ele>
        <time>2020-01-05T09:24:25Z</time>
      </trkpt>
      <trkpt lat="48.91525" lon="2.09146">
        <ele>62.67</ele>
        <time>2020-01-05T09:24:56Z</time>
      </trkpt>
      <trkpt lat="48.91525" lon="2.09146">
        <ele>62.93</ele>
        <time>2020-01-05T09:25:17Z</time>
      </trkpt>
      <trkpt lat="48.91525" lon="2.09146">
        <ele>63.13</ele>
        <time>2020-01-05T09:25:41Z</time>
      </trkpt>
      <trkpt lat="48.91526" lon="2.09146">
        <ele>63.03</ele>
        <time>2020-01-05T09:26:03Z</time>
      </trkpt>
      <trkpt lat="48.91526" lon="2.09147">
        <ele>63.1</ele>
        <time>2020-01-05T09:26:15Z</time>
      </trkpt>
      <trkpt lat="48.91526" lon="2.09149">
        <ele>63.78</ele>
        <time>2020-01-05T09:26:42Z</time>
      </trkpt>
      <trkpt lat="48.91527" lon="2.09149">
        <ele>63.99</ele>
        <time>2020-01-05T09:26:55Z</time>
      </trkpt>
      <trkpt lat="48.91531" lon="2.09149">
        <ele>63.49</ele>
        <time>2020-01-05T09:27:09Z</time>
      </trkpt>
      <trkpt lat="48.91531" lon="2.09146">
        <ele>63.87</ele>
        <time>2020-01-05T09:27:29Z</time>
      </trkpt>
      <trkpt lat="48.91531" lon="2.09147">
        <ele>63.59</ele>
        <time>2020-01-05T09:27:50Z</time>
      </trkpt>
      <trkpt lat="48.91532" lon="2.09146">
        <ele>64.01</ele>
        <time>2020-01-05T09:28:16Z</time>
      </trkpt>
      <trkpt lat="48.91534" lon="2.09146">
        <ele>63.59</ele>
        <time>2020-01-05T09:28:28Z</time>
      </trkpt>
      <trkpt lat="48.91542" lon="2.0915">
        <ele>63.68</ele>
        <time>2020-01-05T09:28:40Z</time>
      </trkpt>
      <trkpt lat="48.91553" lon="2.09154">
        <ele>63.59</ele>
        <time>2020-01-05T09:28:55Z</time>
      </trkpt>
      <trkpt lat="48.91566" lon="2.09162">
        <ele>63.76</ele>
        <time>2020-01-05T09:29:13Z</time>
      </trkpt>
      <trkpt lat="48.91569" lon="2.09164">
        <ele>64.28</ele>
        <time>2020-01-05T09:29:15Z</time>
      </trkpt>
      <trkpt lat="48.91582" lon="2.09168">
        <ele>63.09</ele>
        <time>2020-01-05T09:29:28Z</time>
      </trkpt>
      <trkpt lat="48.91597" lon="2.09176">
        <ele>63.12</ele>
        <time>2020-01-05T09:29:43Z</time>
      </trkpt>
      <trkpt lat="48.91613" lon="2.09182">
        <ele>63.06</ele>
        <time>2020-01-05T09:29:59Z</time>
      </trkpt>
      <trkpt lat="48.91627" lon="2.09188">
        <ele>63.15</ele>
        <time>2020-01-05T09:30:09Z</time>
      </trkpt>
      <trkpt lat="48.91641" lon="2.09197">
        <ele>62.69</ele>
        <time>2020-01-05T09:30:20Z</time>
      </trkpt>
      <trkpt lat="48.91656" lon="2.09202">
        <ele>62.51</ele>
        <time>2020-01-05T09:30:36Z</time>
      </trkpt>
      <trkpt lat="48.91678" lon="2.09209">
        <ele>62.58</ele>
        <time>2020-01-05T09:30:53Z</time>
      </trkpt>
      <trkpt lat="48.91692" lon="2.09218">
        <ele>62.99</ele>
        <time>2020-01-05T09:31:06Z</time>
      </trkpt>
      <trkpt lat="48.91709" lon="2.09223">
        <ele>62.75</ele>
        <time>2020-01-05T09:31:21Z</time>
      </trkpt>
      <trkpt lat="48.91713" lon="2.09225">
        <ele>62.82</ele>
        <time>2020-01-05T09:31:25Z</time>
      </trkpt>
      <trkpt lat="48.91722" lon="2.09232">
        <ele>62.89</ele>
        <time>2020-01-05T09:31:33Z</time>
      </trkpt>
      <trkpt lat="48.91734" lon="2.09236">
        <ele>62.5</ele>
        <time>2020-01-05T09:31:44Z</time>
      </trkpt>
      <trkpt lat="48.91749" lon="2.09242">
        <ele>62.34</ele>
        <time>2020-01-05T09:31:58Z</time>
      </trkpt>
      <trkpt lat="48.91753" lon="2.09242">
        <ele>62.65</ele>
        <time>2020-01-05T09:32:01Z</time>
      </trkpt>
      <trkpt lat="48.91764" lon="2.09249">
        <ele>62.95</ele>
        <time>2020-01-05T09:32:15Z</time>
      </trkpt>
      <trkpt lat="48.91765" lon="2.09245">
        <ele>62.77</ele>
        <time>2020-01-05T09:32:34Z</time>
      </trkpt>
      <trkpt lat="48.91763" lon="2.09245">
        <ele>62.82</ele>
        <time>2020-01-05T09:32:49Z</time>
      </trkpt>
      <trkpt lat="48.91763" lon="2.09244">
        <ele>62.57</ele>
        <time>2020-01-05T09:33:10Z</time>
      </trkpt>
      <trkpt lat="48.91766" lon="2.09239">
        <ele>63.46</ele>
        <time>2020-01-05T09:33:21Z</time>
      </trkpt>
      <trkpt lat="48.91772" lon="2.09219">
        <ele>62.9</ele>
        <time>2020-01-05T09:33:35Z</time>
      </trkpt>
      <trkpt lat="48.91778" lon="2.09199">
        <ele>62.95</ele>
        <time>2020-01-05T09:33:51Z</time>
      </trkpt>
      <trkpt lat="48.91785" lon="2.0918">
        <ele>63.25</ele>
        <time>2020-01-05T09:34:04Z</time>
      </trkpt>
      <trkpt lat="48.91786" lon="2.09177">
        <ele>63.37</ele>
        <time>2020-01-05T09:34:06Z</time>
      </trkpt>
      <trkpt lat="48.91793" lon="2.09154">
        <ele>63.66</ele>
        <time>2020-01-05T09:34:22Z</time>
      </trkpt>
      <trkpt lat="48.91799" lon="2.0913">
        <ele>63.19</ele>
        <time>2020-01-05T09:34:38Z</time>
      </trkpt>
      <trkpt lat="48.91805" lon="2.09105">
        <ele>63.38</ele>
        <time>2020-01-05T09:34:55Z</time>
      </trkpt>
      <trkpt lat="48.91812" lon="2.09079">
        <ele>63.29</ele>
        <time>2020-01-05T09:35:12Z</time>
      </trkpt>
      <trkpt lat="48.91817" lon="2.09066">
        <ele>63.59</ele>
        <time>2020-01-05T09:35:18Z</time>
      </trkpt>
      <trkpt lat="48.91819" lon="2.09058">
        <ele>63.57</ele>
        <time>2020-01-05T09:35:23Z</time>
      </trkpt>
      <trkpt lat="48.91819" lon="2.09052">
        <ele>64.32</ele>
        <time>2020-01-05T09:35:35Z</time>
      </trkpt>
      <trkpt lat="48.91818" lon="2.09057">
        <ele>63.91</ele>
        <time>2020-01-05T09:35:41Z</time>
      </trkpt>
      <trkpt lat="48.91817" lon="2.09062">
        <ele>63.69</ele>
        <time>2020-01-05T09:35:44Z</time>
      </trkpt>
      <trkpt lat="48.9181" lon="2.09089">
        <ele>63.63</ele>
        <time>2020-01-05T09:36:00Z</time>
      </trkpt>
      <trkpt lat="48.91811" lon="2.09085">
        <ele>63.54</ele>
        <time>2020-01-05T09:36:05Z</time>
      </trkpt>
      <trkpt lat="48.9181" lon="2.09088">
        <ele>63.83</ele>
        <time>2020-01-05T09:36:08Z</time>
      </trkpt>
      <trkpt lat="48.91806" lon="2.09102">
        <ele>62.46</ele>
        <time>2020-01-05T09:36:16Z</time>
      </trkpt>
      <trkpt lat="48.918" lon="2.09129">
        <ele>63.66</ele>
        <time>2020-01-05T09:36:32Z</time>
      </trkpt>
      <trkpt lat="48.91797" lon="2.0914">
        <ele>63.82</ele>
        <time>2020-01-05T09:36:41Z</time>
      </trkpt>
      <trkpt lat="48.91799" lon="2.09133">
        <ele>62.88</ele>
        <time>2020-01-05T09:36:45Z</time>
      </trkpt>
      <trkpt lat="48.91801" lon="2.09125">
        <ele>63.56</ele>
        <time>2020-01-05T09:36:49Z</time>
      </trkpt>
      <trkpt lat="48.91805" lon="2.09101">
        <ele>63.57</ele>
        <time>2020-01-05T09:37:04Z</time>
      </trkpt>
      <trkpt lat="48.91808" lon="2.09095">
        <ele>63.97</ele>
        <time>2020-01-05T09:37:08Z</time>
      </trkpt>
      <trkpt lat="48.91811" lon="2.09064">
        <ele>63.8</ele>
        <time>2020-01-05T09:37:27Z</time>
      </trkpt>
      <trkpt lat="48.91817" lon="2.09044">
        <ele>63.86</ele>
        <time>2020-01-05T09:37:41Z</time>
      </trkpt>
      <trkpt lat="48.91829" lon="2.09018">
        <ele>63.11</ele>
        <time>2020-01-05T09:37:57Z</time>
      </trkpt>
      <trkpt lat="48.91848" lon="2.0901">
        <ele>63.26</ele>
        <time>2020-01-05T09:38:20Z</time>
      </trkpt>
      <trkpt lat="48.91861" lon="2.09003">
        <ele>62.73</ele>
        <time>2020-01-05T09:38:36Z</time>
      </trkpt>
      <trkpt lat="48.91879" lon="2.08998">
        <ele>62.65</ele>
        <time>2020-01-05T09:38:52Z</time>
      </trkpt>
      <trkpt lat="48.91891" lon="2.08993">
        <ele>62.31</ele>
        <time>2020-01-05T09:39:07Z</time>
      </trkpt>
      <trkpt lat="48.91896" lon="2.08992">
        <ele>62.62</ele>
        <time>2020-01-05T09:39:31Z</time>
      </trkpt>
      <trkpt lat="48.91895" lon="2.08983">
        <ele>61.98</ele>
        <time>2020-01-05T09:39:50Z</time>
      </trkpt>
      <trkpt lat="48.919" lon="2.08949">
        <ele>61.96</ele>
        <time>2020-01-05T09:40:09Z</time>
      </trkpt>
      <trkpt lat="48.91902" lon="2.08946">
        <ele>62.13</ele>
        <time>2020-01-05T09:40:11Z</time>
      </trkpt>
      <trkpt lat="48.91918" lon="2.08936">
        <ele>61.91</ele>
        <time>2020-01-05T09:40:28Z</time>
      </trkpt>
      <trkpt lat="48.91928" lon="2.08933">
        <ele>61.77</ele>
        <time>2020-01-05T09:40:45Z</time>
      </trkpt>
      <trkpt lat="48.91941" lon="2.08942">
        <ele>61.54</ele>
        <time>2020-01-05T09:41:02Z</time>
      </trkpt>
      <trkpt lat="48.91954" lon="2.08944">
        <ele>62.05</ele>
        <time>2020-01-05T09:41:15Z</time>
      </trkpt>
      <trkpt lat="48.91962" lon="2.08954">
        <ele>61.46</ele>
        <time>2020-01-05T09:41:29Z</time>
      </trkpt>
      <trkpt lat="48.91968" lon="2.08962">
        <ele>61.81</ele>
        <time>2020-01-05T09:41:36Z</time>
      </trkpt>
      <trkpt lat="48.91971" lon="2.08971">
        <ele>61.82</ele>
        <time>2020-01-05T09:41:39Z</time>
      </trkpt>
      <trkpt lat="48.91987" lon="2.08981">
        <ele>61.48</ele>
        <time>2020-01-05T09:41:56Z</time>
      </trkpt>
      <trkpt lat="48.91988" lon="2.08981">
        <ele>60.73</ele>
        <time>2020-01-05T09:41:57Z</time>
      </trkpt>
      <trkpt lat="48.92002" lon="2.08981">
        <ele>60.93</ele>
        <time>2020-01-05T09:42:13Z</time>
      </trkpt>
      <trkpt lat="48.92009" lon="2.08982">
        <ele>61.12</ele>
        <time>2020-01-05T09:42:28Z</time>
      </trkpt>
      <trkpt lat="48.92017" lon="2.08966">
        <ele>60.34</ele>
        <time>2020-01-05T09:42:43Z</time>
      </trkpt>
      <trkpt lat="48.92023" lon="2.08944">
        <ele>60.86</ele>
        <time>2020-01-05T09:43:05Z</time>
      </trkpt>
      <trkpt lat="48.92031" lon="2.08931">
        <ele>60.26</ele>
        <time>2020-01-05T09:43:23Z</time>
      </trkpt>
      <trkpt lat="48.92044" lon="2.08909">
        <ele>59.97</ele>
        <time>2020-01-05T09:43:38Z</time>
      </trkpt>
      <trkpt lat="48.92054" lon="2.08885">
        <ele>59.92</ele>
        <time>2020-01-05T09:43:56Z</time>
      </trkpt>
      <trkpt lat="48.92065" lon="2.08858">
        <ele>60.68</ele>
        <time>2020-01-05T09:44:18Z</time>
      </trkpt>
      <trkpt lat="48.92073" lon="2.08832">
        <ele>60.55</ele>
        <time>2020-01-05T09:44:40Z</time>
      </trkpt>
      <trkpt lat="48.92084" lon="2.088">
        <ele>60.27</ele>
        <time>2020-01-05T09:45:01Z</time>
      </trkpt>
      <trkpt lat="48.92092" lon="2.08776">
        <ele>59.76</ele>
        <time>2020-01-05T09:45:20Z</time>
      </trkpt>
      <trkpt lat="48.92104" lon="2.08757">
        <ele>59.32</ele>
        <time>2020-01-05T09:45:36Z</time>
      </trkpt>
      <trkpt lat="48.92112" lon="2.08731">
        <ele>58.75</ele>
        <time>2020-01-05T09:45:50Z</time>
      </trkpt>
      <trkpt lat="48.92123" lon="2.08708">
        <ele>58.35</ele>
        <time>2020-01-05T09:46:06Z</time>
      </trkpt>
      <trkpt lat="48.92132" lon="2.08688">
        <ele>57.61</ele>
        <time>2020-01-05T09:46:23Z</time>
      </trkpt>
      <trkpt lat="48.92139" lon="2.08662">
        <ele>56.87</ele>
        <time>2020-01-05T09:46:40Z</time>
      </trkpt>
      <trkpt lat="48.92151" lon="2.0864">
        <ele>56.09</ele>
        <time>2020-01-05T09:46:57Z</time>
      </trkpt>
      <trkpt lat="48.92166" lon="2.0861">
        <ele>55.69</ele>
        <time>2020-01-05T09:47:17Z</time>
      </trkpt>
      <trkpt lat="48.92173" lon="2.08596">
        <ele>55.37</ele>
        <time>2020-01-05T09:47:29Z</time>
      </trkpt>
      <trkpt lat="48.92175" lon="2.08592">
        <ele>55.31</ele>
        <time>2020-01-05T09:47:31Z</time>
      </trkpt>
      <trkpt lat="48.92184" lon="2.08566">
        <ele>54.22</ele>
        <time>2020-01-05T09:47:46Z</time>
      </trkpt>
      <trkpt lat="48.92193" lon="2.08545">
        <ele>53.81</ele>
        <time>2020-01-05T09:48:05Z</time>
      </trkpt>
      <trkpt lat="48.92196" lon="2.08532">
        <ele>53.94</ele>
        <time>2020-01-05T09:48:11Z</time>
      </trkpt>
      <trkpt lat="48.92196" lon="2.08529">
        <ele>53.52</ele>
        <time>2020-01-05T09:48:13Z</time>
      </trkpt>
      <trkpt lat="48.922" lon="2.08519">
        <ele>54.03</ele>
        <time>2020-01-05T09:48:20Z</time>
      </trkpt>
      <trkpt lat="48.92215" lon="2.08516">
        <ele>52.88</ele>
        <time>2020-01-05T09:48:39Z</time>
      </trkpt>
      <trkpt lat="48.92227" lon="2.08524">
        <ele>53.16</ele>
        <time>2020-01-05T09:48:54Z</time>
      </trkpt>
      <trkpt lat="48.92239" lon="2.08524">
        <ele>53.89</ele>
        <time>2020-01-05T09:49:07Z</time>
      </trkpt>
      <trkpt lat="48.92243" lon="2.08523">
        <ele>53.68</ele>
        <time>2020-01-05T09:49:25Z</time>
      </trkpt>
      <trkpt lat="48.92243" lon="2.08526">
        <ele>53.51</ele>
        <time>2020-01-05T09:49:48Z</time>
      </trkpt>
      <trkpt lat="48.92245" lon="2.08524">
        <ele>53.92</ele>
        <time>2020-01-05T09:49:57Z</time>
      </trkpt>
      <trkpt lat="48.92262" lon="2.08504">
        <ele>54.11</ele>
        <time>2020-01-05T09:50:13Z</time>
      </trkpt>
      <trkpt lat="48.92258" lon="2.08483">
        <ele>53.94</ele>
        <time>2020-01-05T09:50:27Z</time>
      </trkpt>
      <trkpt lat="48.92255" lon="2.08469">
        <ele>54.07</ele>
        <time>2020-01-05T09:50:43Z</time>
      </trkpt>
      <trkpt lat="48.92257" lon="2.08471">
        <ele>54.21</ele>
        <time>2020-01-05T09:51:06Z</time>
      </trkpt>
      <trkpt lat="48.92255" lon="2.08473">
        <ele>54.54</ele>
        <time>2020-01-05T09:51:35Z</time>
      </trkpt>
      <trkpt lat="48.9225" lon="2.08468">
        <ele>54.82</ele>
        <time>2020-01-05T09:51:59Z</time>
      </trkpt>
      <trkpt lat="48.92243" lon="2.08456">
        <ele>54.12</ele>
        <time>2020-01-05T09:52:13Z</time>
      </trkpt>
      <trkpt lat="48.92242" lon="2.08444">
        <ele>54.53</ele>
        <time>2020-01-05T09:52:37Z</time>
      </trkpt>
      <trkpt lat="48.92241" lon="2.08441">
        <ele>54.4</ele>
        <time>2020-01-05T09:52:40Z</time>
      </trkpt>
      <trkpt lat="48.92239" lon="2.08429">
        <ele>54.59</ele>
        <time>2020-01-05T09:53:01Z</time>
      </trkpt>
      <trkpt lat="48.92241" lon="2.08431">
        <ele>54.54</ele>
        <time>2020-01-05T09:53:26Z</time>
      </trkpt>
      <trkpt lat="48.9224" lon="2.08433">
        <ele>54.24</ele>
        <time>2020-01-05T09:53:51Z</time>
      </trkpt>
      <trkpt lat="48.92238" lon="2.08425">
        <ele>54.41</ele>
        <time>2020-01-05T09:54:14Z</time>
      </trkpt>
      <trkpt lat="48.92236" lon="2.08419">
        <ele>54.54</ele>
        <time>2020-01-05T09:54:29Z</time>
      </trkpt>
      <trkpt lat="48.92233" lon="2.08395">
        <ele>54.62</ele>
        <time>2020-01-05T09:54:46Z</time>
      </trkpt>
      <trkpt lat="48.92234" lon="2.0839">
        <ele>54.49</ele>
        <time>2020-01-05T09:54:58Z</time>
      </trkpt>
      <trkpt lat="48.92235" lon="2.08364">
        <ele>54.28</ele>
        <time>2020-01-05T09:55:15Z</time>
      </trkpt>
      <trkpt lat="48.92238" lon="2.0835">
        <ele>53.8</ele>
        <time>2020-01-05T09:55:24Z</time>
      </trkpt>
      <trkpt lat="48.9224" lon="2.08329">
        <ele>54.06</ele>
        <time>2020-01-05T09:55:39Z</time>
      </trkpt>
      <trkpt lat="48.92241" lon="2.08303">
        <ele>53.91</ele>
        <time>2020-01-05T09:55:52Z</time>
      </trkpt>
      <trkpt lat="48.9224" lon="2.08284">
        <ele>53.55</ele>
        <time>2020-01-05T09:56:04Z</time>
      </trkpt>
      <trkpt lat="48.92242" lon="2.08256">
        <ele>53.71</ele>
        <time>2020-01-05T09:56:22Z</time>
      </trkpt>
      <trkpt lat="48.92245" lon="2.08232">
        <ele>53.12</ele>
        <time>2020-01-05T09:56:36Z</time>
      </trkpt>
      <trkpt lat="48.92246" lon="2.08207">
        <ele>53.01</ele>
        <time>2020-01-05T09:56:52Z</time>
      </trkpt>
      <trkpt lat="48.92247" lon="2.08201">
        <ele>52.97</ele>
        <time>2020-01-05T09:56:56Z</time>
      </trkpt>
      <trkpt lat="48.92248" lon="2.08168">
        <ele>52.36</ele>
        <time>2020-01-05T09:57:13Z</time>
      </trkpt>
      <trkpt lat="48.92249" lon="2.08145">
        <ele>51.8</ele>
        <time>2020-01-05T09:57:26Z</time>
      </trkpt>
      <trkpt lat="48.92249" lon="2.08142">
        <ele>52.06</ele>
        <time>2020-01-05T09:57:28Z</time>
      </trkpt>
      <trkpt lat="48.92249" lon="2.08134">
        <ele>51.68</ele>
        <time>2020-01-05T09:57:32Z</time>
      </trkpt>
      <trkpt lat="48.92252" lon="2.0811">
        <ele>51.12</ele>
        <time>2020-01-05T09:57:44Z</time>
      </trkpt>
      <trkpt lat="48.92252" lon="2.08094">
        <ele>50.83</ele>
        <time>2020-01-05T09:57:53Z</time>
      </trkpt>
      <trkpt lat="48.92253" lon="2.08073">
        <ele>49.98</ele>
        <time>2020-01-05T09:58:07Z</time>
      </trkpt>
      <trkpt lat="48.92254" lon="2.08066">
        <ele>50.01</ele>
        <time>2020-01-05T09:58:11Z</time>
      </trkpt>
      <trkpt lat="48.92259" lon="2.08036">
        <ele>51.16</ele>
        <time>2020-01-05T09:58:26Z</time>
      </trkpt>
      <trkpt lat="48.92261" lon="2.08011">
        <ele>49.75</ele>
        <time>2020-01-05T09:58:40Z</time>
      </trkpt>
      <trkpt lat="48.92263" lon="2.07988">
        <ele>50.45</ele>
        <time>2020-01-05T09:58:53Z</time>
      </trkpt>
      <trkpt lat="48.92264" lon="2.0797">
        <ele>50.39</ele>
        <time>2020-01-05T09:59:03Z</time>
      </trkpt>
      <trkpt lat="48.92265" lon="2.07967">
        <ele>50.54</ele>
        <time>2020-01-05T09:59:05Z</time>
      </trkpt>
      <trkpt lat="48.92267" lon="2.07948">
        <ele>50.79</ele>
        <time>2020-01-05T09:59:18Z</time>
      </trkpt>
      <trkpt lat="48.92268" lon="2.07926">
        <ele>51.13</ele>
        <time>2020-01-05T09:59:31Z</time>
      </trkpt>
      <trkpt lat="48.92269" lon="2.07904">
        <ele>51.07</ele>
        <time>2020-01-05T09:59:44Z</time>
      </trkpt>
      <trkpt lat="48.92269" lon="2.07902">
        <ele>51.68</ele>
        <time>2020-01-05T09:59:45Z</time>
      </trkpt>
      <trkpt lat="48.92272" lon="2.07874">
        <ele>51.39</ele>
        <time>2020-01-05T10:00:01Z</time>
      </trkpt>
      <trkpt lat="48.92274" lon="2.07859">
        <ele>51.47</ele>
        <time>2020-01-05T10:00:11Z</time>
      </trkpt>
      <trkpt lat="48.92277" lon="2.07834">
        <ele>51.78</ele>
        <time>2020-01-05T10:00:25Z</time>
      </trkpt>
      <trkpt lat="48.92277" lon="2.07802">
        <ele>51.87</ele>
        <time>2020-01-05T10:00:41Z</time>
      </trkpt>
      <trkpt lat="48.92278" lon="2.07791">
        <ele>52.87</ele>
        <time>2020-01-05T10:00:47Z</time>
      </trkpt>
      <trkpt lat="48.92279" lon="2.07786">
        <ele>52.3</ele>
        <time>2020-01-05T10:00:50Z</time>
      </trkpt>
      <trkpt lat="48.92281" lon="2.07772">
        <ele>52.57</ele>
        <time>2020-01-05T10:00:59Z</time>
      </trkpt>
      <trkpt lat="48.92281" lon="2.07769">
        <ele>52.56</ele>
        <time>2020-01-05T10:01:01Z</time>
      </trkpt>
      <trkpt lat="48.92284" lon="2.07744">
        <ele>53.05</ele>
        <time>2020-01-05T10:01:17Z</time>
      </trkpt>
      <trkpt lat="48.92285" lon="2.07729">
        <ele>53.72</ele>
        <time>2020-01-05T10:01:29Z</time>
      </trkpt>
      <trkpt lat="48.92286" lon="2.07727">
        <ele>53.22</ele>
        <time>2020-01-05T10:01:50Z</time>
      </trkpt>
      <trkpt lat="48.92286" lon="2.07726">
        <ele>53.39</ele>
        <time>2020-01-05T10:02:13Z</time>
      </trkpt>
      <trkpt lat="48.9228" lon="2.07721">
        <ele>53.73</ele>
        <time>2020-01-05T10:02:32Z</time>
      </trkpt>
      <trkpt lat="48.9227" lon="2.07712">
        <ele>53.75</ele>
        <time>2020-01-05T10:02:54Z</time>
      </trkpt>
      <trkpt lat="48.92255" lon="2.07704">
        <ele>53.46</ele>
        <time>2020-01-05T10:03:10Z</time>
      </trkpt>
      <trkpt lat="48.92237" lon="2.07698">
        <ele>54.01</ele>
        <time>2020-01-05T10:03:26Z</time>
      </trkpt>
      <trkpt lat="48.92235" lon="2.07697">
        <ele>53.58</ele>
        <time>2020-01-05T10:03:28Z</time>
      </trkpt>
      <trkpt lat="48.92217" lon="2.07682">
        <ele>53.62</ele>
        <time>2020-01-05T10:03:45Z</time>
      </trkpt>
      <trkpt lat="48.922" lon="2.07673">
        <ele>54.07</ele>
        <time>2020-01-05T10:04:04Z</time>
      </trkpt>
      <trkpt lat="48.92196" lon="2.07657">
        <ele>55.27</ele>
        <time>2020-01-05T10:04:22Z</time>
      </trkpt>
      <trkpt lat="48.92187" lon="2.07636">
        <ele>54.86</ele>
        <time>2020-01-05T10:04:41Z</time>
      </trkpt>
      <trkpt lat="48.92174" lon="2.07622">
        <ele>55.13</ele>
        <time>2020-01-05T10:04:59Z</time>
      </trkpt>
      <trkpt lat="48.92165" lon="2.07601">
        <ele>56.99</ele>
        <time>2020-01-05T10:05:16Z</time>
      </trkpt>
      <trkpt lat="48.92164" lon="2.07599">
        <ele>57.34</ele>
        <time>2020-01-05T10:05:18Z</time>
      </trkpt>
      <trkpt lat="48.92163" lon="2.07597">
        <ele>57.67</ele>
        <time>2020-01-05T10:05:20Z</time>
      </trkpt>
      <trkpt lat="48.92154" lon="2.07575">
        <ele>58.49</ele>
        <time>2020-01-05T10:05:37Z</time>
      </trkpt>
      <trkpt lat="48.92143" lon="2.07549">
        <ele>57.43</ele>
        <time>2020-01-05T10:05:58Z</time>
      </trkpt>
      <trkpt lat="48.92141" lon="2.07548">
        <ele>58.19</ele>
        <time>2020-01-05T10:06:15Z</time>
      </trkpt>
      <trkpt lat="48.9214" lon="2.0755">
        <ele>58.06</ele>
        <time>2020-01-05T10:06:41Z</time>
      </trkpt>
      <trkpt lat="48.92143" lon="2.07546">
        <ele>57.75</ele>
        <time>2020-01-05T10:07:09Z</time>
      </trkpt>
      <trkpt lat="48.92145" lon="2.0754">
        <ele>57.66</ele>
        <time>2020-01-05T10:07:38Z</time>
      </trkpt>
      <trkpt lat="48.92143" lon="2.0754">
        <ele>57.3</ele>
        <time>2020-01-05T10:08:02Z</time>
      </trkpt>
      <trkpt lat="48.92144" lon="2.07548">
        <ele>58.53</ele>
        <time>2020-01-05T10:08:23Z</time>
      </trkpt>
      <trkpt lat="48.92142" lon="2.0755">
        <ele>58.49</ele>
        <time>2020-01-05T10:08:47Z</time>
      </trkpt>
      <trkpt lat="48.92143" lon="2.07554">
        <ele>59.29</ele>
        <time>2020-01-05T10:09:10Z</time>
      </trkpt>
      <trkpt lat="48.92142" lon="2.07548">
        <ele>59.98</ele>
        <time>2020-01-05T10:09:36Z</time>
      </trkpt>
      <trkpt lat="48.92139" lon="2.07548">
        <ele>58.75</ele>
        <time>2020-01-05T10:09:53Z</time>
      </trkpt>
      <trkpt lat="48.92139" lon="2.07549">
        <ele>58.98</ele>
        <time>2020-01-05T10:10:13Z</time>
      </trkpt>
      <trkpt lat="48.92143" lon="2.07548">
        <ele>59.7</ele>
        <time>2020-01-05T10:10:29Z</time>
      </trkpt>
      <trkpt lat="48.92145" lon="2.07544">
        <ele>58.8</ele>
        <time>2020-01-05T10:10:49Z</time>
      </trkpt>
      <trkpt lat="48.92147" lon="2.0754">
        <ele>59.51</ele>
        <time>2020-01-05T10:11:20Z</time>
      </trkpt>
      <trkpt lat="48.92145" lon="2.0754">
        <ele>59.02</ele>
        <time>2020-01-05T10:11:42Z</time>
      </trkpt>
      <trkpt lat="48.92146" lon="2.07552">
        <ele>59.81</ele>
        <time>2020-01-05T10:12:00Z</time>
      </trkpt>
      <trkpt lat="48.92144" lon="2.0755">
        <ele>60.38</ele>
        <time>2020-01-05T10:12:25Z</time>
      </trkpt>
      <trkpt lat="48.92144" lon="2.07556">
        <ele>60.7</ele>
        <time>2020-01-05T10:12:41Z</time>
      </trkpt>
      <trkpt lat="48.9215" lon="2.07567">
        <ele>59.3</ele>
        <time>2020-01-05T10:13:00Z</time>
      </trkpt>
      <trkpt lat="48.92157" lon="2.0759">
        <ele>58.01</ele>
        <time>2020-01-05T10:13:18Z</time>
      </trkpt>
      <trkpt lat="48.92167" lon="2.0761">
        <ele>57.03</ele>
        <time>2020-01-05T10:13:36Z</time>
      </trkpt>
      <trkpt lat="48.92182" lon="2.07635">
        <ele>57.02</ele>
        <time>2020-01-05T10:13:56Z</time>
      </trkpt>
      <trkpt lat="48.92185" lon="2.07646">
        <ele>57.33</ele>
        <time>2020-01-05T10:14:05Z</time>
      </trkpt>
      <trkpt lat="48.92189" lon="2.07659">
        <ele>55.21</ele>
        <time>2020-01-05T10:14:17Z</time>
      </trkpt>
      <trkpt lat="48.92181" lon="2.07667">
        <ele>54.68</ele>
        <time>2020-01-05T10:14:32Z</time>
      </trkpt>
      <trkpt lat="48.92173" lon="2.07664">
        <ele>54.95</ele>
        <time>2020-01-05T10:14:50Z</time>
      </trkpt>
      <trkpt lat="48.92158" lon="2.07655">
        <ele>55.26</ele>
        <time>2020-01-05T10:15:07Z</time>
      </trkpt>
      <trkpt lat="48.92142" lon="2.07649">
        <ele>55.18</ele>
        <time>2020-01-05T10:15:24Z</time>
      </trkpt>
      <trkpt lat="48.92137" lon="2.07648">
        <ele>55.56</ele>
        <time>2020-01-05T10:15:30Z</time>
      </trkpt>
      <trkpt lat="48.92128" lon="2.07644">
        <ele>55.05</ele>
        <time>2020-01-05T10:15:39Z</time>
      </trkpt>
      <trkpt lat="48.92116" lon="2.07637">
        <ele>54.97</ele>
        <time>2020-01-05T10:15:51Z</time>
      </trkpt>
      <trkpt lat="48.92114" lon="2.07632">
        <ele>55.15</ele>
        <time>2020-01-05T10:15:56Z</time>
      </trkpt>
      <trkpt lat="48.92095" lon="2.07626">
        <ele>55.77</ele>
        <time>2020-01-05T10:16:17Z</time>
      </trkpt>
      <trkpt lat="48.92082" lon="2.07623">
        <ele>56.13</ele>
        <time>2020-01-05T10:16:32Z</time>
      </trkpt>
      <trkpt lat="48.92069" lon="2.07614">
        <ele>56.26</ele>
        <time>2020-01-05T10:16:50Z</time>
      </trkpt>
      <trkpt lat="48.92053" lon="2.07609">
        <ele>56.58</ele>
        <time>2020-01-05T10:17:07Z</time>
      </trkpt>
      <trkpt lat="48.92037" lon="2.07598">
        <ele>56.36</ele>
        <time>2020-01-05T10:17:26Z</time>
      </trkpt>
      <trkpt lat="48.92026" lon="2.07591">
        <ele>56.78</ele>
        <time>2020-01-05T10:17:44Z</time>
      </trkpt>
      <trkpt lat="48.92013" lon="2.07587">
        <ele>56.15</ele>
        <time>2020-01-05T10:17:59Z</time>
      </trkpt>
      <trkpt lat="48.92006" lon="2.07583">
        <ele>56.49</ele>
        <time>2020-01-05T10:18:05Z</time>
      </trkpt>
      <trkpt lat="48.9199" lon="2.07579">
        <ele>56.72</ele>
        <time>2020-01-05T10:18:19Z</time>
      </trkpt>
      <trkpt lat="48.9197" lon="2.0757">
        <ele>57.67</ele>
        <time>2020-01-05T10:18:38Z</time>
      </trkpt>
      <trkpt lat="48.91959" lon="2.07563">
        <ele>57</ele>
        <time>2020-01-05T10:18:51Z</time>
      </trkpt>
      <trkpt lat="48.91943" lon="2.07557">
        <ele>56.68</ele>
        <time>2020-01-05T10:19:07Z</time>
      </trkpt>
      <trkpt lat="48.9194" lon="2.07555">
        <ele>57.06</ele>
        <time>2020-01-05T10:19:10Z</time>
      </trkpt>
      <trkpt lat="48.91924" lon="2.07541">
        <ele>56.96</ele>
        <time>2020-01-05T10:19:28Z</time>
      </trkpt>
      <trkpt lat="48.91906" lon="2.07528">
        <ele>56.66</ele>
        <time>2020-01-05T10:19:47Z</time>
      </trkpt>
      <trkpt lat="48.91892" lon="2.0752">
        <ele>57.37</ele>
        <time>2020-01-05T10:20:04Z</time>
      </trkpt>
      <trkpt lat="48.91874" lon="2.0752">
        <ele>57.58</ele>
        <time>2020-01-05T10:20:22Z</time>
      </trkpt>
      <trkpt lat="48.91869" lon="2.07518">
        <ele>57.05</ele>
        <time>2020-01-05T10:20:26Z</time>
      </trkpt>
      <trkpt lat="48.91854" lon="2.07506">
        <ele>57.21</ele>
        <time>2020-01-05T10:20:40Z</time>
      </trkpt>
      <trkpt lat="48.91837" lon="2.0749">
        <ele>57.45</ele>
        <time>2020-01-05T10:20:59Z</time>
      </trkpt>
      <trkpt lat="48.91833" lon="2.07489">
        <ele>57.28</ele>
        <time>2020-01-05T10:21:01Z</time>
      </trkpt>
      <trkpt lat="48.91826" lon="2.07488">
        <ele>57.2</ele>
        <time>2020-01-05T10:21:07Z</time>
      </trkpt>
      <trkpt lat="48.91809" lon="2.07484">
        <ele>57</ele>
        <time>2020-01-05T10:21:19Z</time>
      </trkpt>
      <trkpt lat="48.91796" lon="2.07473">
        <ele>57.63</ele>
        <time>2020-01-05T10:21:33Z</time>
      </trkpt>
      <trkpt lat="48.91783" lon="2.07471">
        <ele>57.24</ele>
        <time>2020-01-05T10:21:46Z</time>
      </trkpt>
      <trkpt lat="48.91771" lon="2.07467">
        <ele>57.95</ele>
        <time>2020-01-05T10:21:58Z</time>
      </trkpt>
      <trkpt lat="48.91769" lon="2.07468">
        <ele>57.66</ele>
        <time>2020-01-05T10:21:59Z</time>
      </trkpt>
      <trkpt lat="48.91758" lon="2.07461">
        <ele>58.14</ele>
        <time>2020-01-05T10:22:15Z</time>
      </trkpt>
      <trkpt lat="48.91759" lon="2.07453">
        <ele>57.65</ele>
        <time>2020-01-05T10:22:24Z</time>
      </trkpt>
      <trkpt lat="48.91769" lon="2.07444">
        <ele>58.01</ele>
        <time>2020-01-05T10:22:39Z</time>
      </trkpt>
      <trkpt lat="48.9177" lon="2.07435">
        <ele>57.68</ele>
        <time>2020-01-05T10:22:48Z</time>
      </trkpt>
      <trkpt lat="48.91765" lon="2.07421">
        <ele>57.44</ele>
        <time>2020-01-05T10:23:00Z</time>
      </trkpt>
      <trkpt lat="48.91766" lon="2.07395">
        <ele>57.58</ele>
        <time>2020-01-05T10:23:18Z</time>
      </trkpt>
      <trkpt lat="48.91767" lon="2.07363">
        <ele>57.38</ele>
        <time>2020-01-05T10:23:37Z</time>
      </trkpt>
      <trkpt lat="48.91767" lon="2.07332">
        <ele>57.42</ele>
        <time>2020-01-05T10:23:53Z</time>
      </trkpt>
      <trkpt lat="48.9177" lon="2.07311">
        <ele>57.29</ele>
        <time>2020-01-05T10:24:08Z</time>
      </trkpt>
      <trkpt lat="48.91771" lon="2.0728">
        <ele>57.25</ele>
        <time>2020-01-05T10:24:30Z</time>
      </trkpt>
      <trkpt lat="48.91771" lon="2.07255">
        <ele>56.8</ele>
        <time>2020-01-05T10:24:47Z</time>
      </trkpt>
      <trkpt lat="48.91773" lon="2.07227">
        <ele>56.47</ele>
        <time>2020-01-05T10:25:05Z</time>
      </trkpt>
      <trkpt lat="48.91773" lon="2.07216">
        <ele>56.12</ele>
        <time>2020-01-05T10:25:12Z</time>
      </trkpt>
      <trkpt lat="48.91773" lon="2.07212">
        <ele>56.7</ele>
        <time>2020-01-05T10:25:14Z</time>
      </trkpt>
      <trkpt lat="48.91774" lon="2.07206">
        <ele>56.48</ele>
        <time>2020-01-05T10:25:18Z</time>
      </trkpt>
      <trkpt lat="48.91773" lon="2.07179">
        <ele>56.54</ele>
        <time>2020-01-05T10:25:35Z</time>
      </trkpt>
      <trkpt lat="48.91774" lon="2.07147">
        <ele>56.29</ele>
        <time>2020-01-05T10:25:55Z</time>
      </trkpt>
      <trkpt lat="48.91774" lon="2.07115">
        <ele>56.74</ele>
        <time>2020-01-05T10:26:13Z</time>
      </trkpt>
      <trkpt lat="48.91777" lon="2.0708">
        <ele>56.38</ele>
        <time>2020-01-05T10:26:33Z</time>
      </trkpt>
      <trkpt lat="48.91776" lon="2.07056">
        <ele>56.3</ele>
        <time>2020-01-05T10:26:45Z</time>
      </trkpt>
      <trkpt lat="48.91776" lon="2.07041">
        <ele>55.2</ele>
        <time>2020-01-05T10:26:55Z</time>
      </trkpt>
      <trkpt lat="48.91774" lon="2.07016">
        <ele>55.38</ele>
        <time>2020-01-05T10:27:11Z</time>
      </trkpt>
      <trkpt lat="48.91776" lon="2.07011">
        <ele>56</ele>
        <time>2020-01-05T10:27:43Z</time>
      </trkpt>
      <trkpt lat="48.91773" lon="2.07007">
        <ele>56.18</ele>
        <time>2020-01-05T10:28:10Z</time>
      </trkpt>
      <trkpt lat="48.91776" lon="2.07">
        <ele>56.24</ele>
        <time>2020-01-05T10:28:27Z</time>
      </trkpt>
      <trkpt lat="48.91778" lon="2.06977">
        <ele>55.91</ele>
        <time>2020-01-05T10:28:48Z</time>
      </trkpt>
      <trkpt lat="48.91781" lon="2.06951">
        <ele>56.15</ele>
        <time>2020-01-05T10:29:06Z</time>
      </trkpt>
      <trkpt lat="48.9178" lon="2.06915">
        <ele>56.56</ele>
        <time>2020-01-05T10:29:26Z</time>
      </trkpt>
      <trkpt lat="48.91779" lon="2.06878">
        <ele>56.33</ele>
        <time>2020-01-05T10:29:49Z</time>
      </trkpt>
      <trkpt lat="48.91782" lon="2.06844">
        <ele>55.62</ele>
        <time>2020-01-05T10:30:10Z</time>
      </trkpt>
      <trkpt lat="48.91786" lon="2.06808">
        <ele>54.89</ele>
        <time>2020-01-05T10:30:32Z</time>
      </trkpt>
      <trkpt lat="48.91786" lon="2.0677">
        <ele>54.76</ele>
        <time>2020-01-05T10:30:55Z</time>
      </trkpt>
      <trkpt lat="48.91791" lon="2.06746">
        <ele>54.5</ele>
        <time>2020-01-05T10:31:14Z</time>
      </trkpt>
      <trkpt lat="48.9179" lon="2.06709">
        <ele>54.42</ele>
        <time>2020-01-05T10:31:34Z</time>
      </trkpt>
      <trkpt lat="48.91792" lon="2.06687">
        <ele>53.7</ele>
        <time>2020-01-05T10:31:51Z</time>
      </trkpt>
      <trkpt lat="48.91793" lon="2.06643">
        <ele>52.93</ele>
        <time>2020-01-05T10:32:12Z</time>
      </trkpt>
      <trkpt lat="48.91788" lon="2.06601">
        <ele>52.26</ele>
        <time>2020-01-05T10:32:35Z</time>
      </trkpt>
      <trkpt lat="48.9179" lon="2.06576">
        <ele>51.33</ele>
        <time>2020-01-05T10:32:55Z</time>
      </trkpt>
      <trkpt lat="48.9179" lon="2.06552">
        <ele>50.38</ele>
        <time>2020-01-05T10:33:11Z</time>
      </trkpt>
      <trkpt lat="48.9179" lon="2.06505">
        <ele>50.22</ele>
        <time>2020-01-05T10:33:32Z</time>
      </trkpt>
      <trkpt lat="48.91791" lon="2.06482">
        <ele>49.74</ele>
        <time>2020-01-05T10:33:46Z</time>
      </trkpt>
      <trkpt lat="48.91791" lon="2.0645">
        <ele>49.65</ele>
        <time>2020-01-05T10:34:04Z</time>
      </trkpt>
      <trkpt lat="48.91792" lon="2.06421">
        <ele>49.8</ele>
        <time>2020-01-05T10:34:22Z</time>
      </trkpt>
      <trkpt lat="48.91792" lon="2.06394">
        <ele>49.66</ele>
        <time>2020-01-05T10:34:40Z</time>
      </trkpt>
      <trkpt lat="48.91792" lon="2.06374">
        <ele>49.44</ele>
        <time>2020-01-05T10:34:55Z</time>
      </trkpt>
      <trkpt lat="48.9179" lon="2.06361">
        <ele>49.14</ele>
        <time>2020-01-05T10:35:03Z</time>
      </trkpt>
      <trkpt lat="48.91789" lon="2.06329">
        <ele>48.76</ele>
        <time>2020-01-05T10:35:22Z</time>
      </trkpt>
      <trkpt lat="48.91788" lon="2.06319">
        <ele>49.28</ele>
        <time>2020-01-05T10:35:39Z</time>
      </trkpt>
      <trkpt lat="48.91796" lon="2.06307">
        <ele>48.98</ele>
        <time>2020-01-05T10:35:56Z</time>
      </trkpt>
      <trkpt lat="48.918" lon="2.06307">
        <ele>48.71</ele>
        <time>2020-01-05T10:36:16Z</time>
      </trkpt>
      <trkpt lat="48.91805" lon="2.06315">
        <ele>49.84</ele>
        <time>2020-01-05T10:36:32Z</time>
      </trkpt>
      <trkpt lat="48.91809" lon="2.06328">
        <ele>50.28</ele>
        <time>2020-01-05T10:36:43Z</time>
      </trkpt>
      <trkpt lat="48.91817" lon="2.06347">
        <ele>50.94</ele>
        <time>2020-01-05T10:36:57Z</time>
      </trkpt>
      <trkpt lat="48.91823" lon="2.06362">
        <ele>51.17</ele>
        <time>2020-01-05T10:37:10Z</time>
      </trkpt>
      <trkpt lat="48.91834" lon="2.06382">
        <ele>51.43</ele>
        <time>2020-01-05T10:37:28Z</time>
      </trkpt>
      <trkpt lat="48.91841" lon="2.06391">
        <ele>52.22</ele>
        <time>2020-01-05T10:37:38Z</time>
      </trkpt>
      <trkpt lat="48.91851" lon="2.06381">
        <ele>52.93</ele>
        <time>2020-01-05T10:37:53Z</time>
      </trkpt>
      <trkpt lat="48.9187" lon="2.06374">
        <ele>53.05</ele>
        <time>2020-01-05T10:38:11Z</time>
      </trkpt>
      <trkpt lat="48.91878" lon="2.06374">
        <ele>53.18</ele>
        <time>2020-01-05T10:38:21Z</time>
      </trkpt>
      <trkpt lat="48.91881" lon="2.06374">
        <ele>53.06</ele>
        <time>2020-01-05T10:38:45Z</time>
      </trkpt>
      <trkpt lat="48.91882" lon="2.06374">
        <ele>53.12</ele>
        <time>2020-01-05T10:39:10Z</time>
      </trkpt>
      <trkpt lat="48.91881" lon="2.06374">
        <ele>53.28</ele>
        <time>2020-01-05T10:39:11Z</time>
      </trkpt>
      <trkpt lat="48.91877" lon="2.06366">
        <ele>53</ele>
        <time>2020-01-05T10:39:39Z</time>
      </trkpt>
      <trkpt lat="48.9188" lon="2.06368">
        <ele>53.43</ele>
        <time>2020-01-05T10:40:04Z</time>
      </trkpt>
      <trkpt lat="48.91877" lon="2.06368">
        <ele>53.14</ele>
        <time>2020-01-05T10:40:28Z</time>
      </trkpt>
      <trkpt lat="48.91876" lon="2.06369">
        <ele>54.05</ele>
        <time>2020-01-05T10:40:52Z</time>
      </trkpt>
      <trkpt lat="48.91874" lon="2.06371">
        <ele>54.46</ele>
        <time>2020-01-05T10:41:08Z</time>
      </trkpt>
      <trkpt lat="48.91872" lon="2.06374">
        <ele>54.4</ele>
        <time>2020-01-05T10:41:31Z</time>
      </trkpt>
      <trkpt lat="48.9187" lon="2.06388">
        <ele>54.51</ele>
        <time>2020-01-05T10:41:49Z</time>
      </trkpt>
      <trkpt lat="48.91869" lon="2.0639">
        <ele>54.98</ele>
        <time>2020-01-05T10:41:52Z</time>
      </trkpt>
      <trkpt lat="48.91862" lon="2.06407">
        <ele>54.09</ele>
        <time>2020-01-05T10:42:06Z</time>
      </trkpt>
      <trkpt lat="48.91858" lon="2.06423">
        <ele>53.85</ele>
        <time>2020-01-05T10:42:17Z</time>
      </trkpt>
      <trkpt lat="48.91859" lon="2.06434">
        <ele>53.79</ele>
        <time>2020-01-05T10:42:31Z</time>
      </trkpt>
      <trkpt lat="48.91868" lon="2.06448">
        <ele>54.79</ele>
        <time>2020-01-05T10:42:53Z</time>
      </trkpt>
      <trkpt lat="48.91882" lon="2.06459">
        <ele>55.09</ele>
        <time>2020-01-05T10:43:13Z</time>
      </trkpt>
      <trkpt lat="48.91897" lon="2.06479">
        <ele>55.08</ele>
        <time>2020-01-05T10:43:33Z</time>
      </trkpt>
      <trkpt lat="48.91906" lon="2.06487">
        <ele>55.48</ele>
        <time>2020-01-05T10:43:42Z</time>
      </trkpt>
      <trkpt lat="48.91912" lon="2.06507">
        <ele>55.33</ele>
        <time>2020-01-05T10:43:53Z</time>
      </trkpt>
      <trkpt lat="48.91923" lon="2.06516">
        <ele>55.92</ele>
        <time>2020-01-05T10:44:04Z</time>
      </trkpt>
      <trkpt lat="48.91934" lon="2.0653">
        <ele>55.73</ele>
        <time>2020-01-05T10:44:18Z</time>
      </trkpt>
      <trkpt lat="48.9195" lon="2.06552">
        <ele>56.55</ele>
        <time>2020-01-05T10:44:36Z</time>
      </trkpt>
      <trkpt lat="48.91964" lon="2.0658">
        <ele>56.29</ele>
        <time>2020-01-05T10:44:55Z</time>
      </trkpt>
      <trkpt lat="48.9198" lon="2.06603">
        <ele>56.67</ele>
        <time>2020-01-05T10:45:15Z</time>
      </trkpt>
      <trkpt lat="48.91982" lon="2.06609">
        <ele>56.84</ele>
        <time>2020-01-05T10:45:18Z</time>
      </trkpt>
      <trkpt lat="48.9199" lon="2.0663">
        <ele>56.28</ele>
        <time>2020-01-05T10:45:36Z</time>
      </trkpt>
      <trkpt lat="48.91994" lon="2.06639">
        <ele>58.61</ele>
        <time>2020-01-05T10:45:41Z</time>
      </trkpt>
      <trkpt lat="48.91998" lon="2.06645">
        <ele>56.91</ele>
        <time>2020-01-05T10:45:46Z</time>
      </trkpt>
      <trkpt lat="48.92009" lon="2.06658">
        <ele>56.77</ele>
        <time>2020-01-05T10:45:56Z</time>
      </trkpt>
      <trkpt lat="48.92022" lon="2.06668">
        <ele>57.06</ele>
        <time>2020-01-05T10:46:12Z</time>
      </trkpt>
      <trkpt lat="48.92032" lon="2.06692">
        <ele>57.46</ele>
        <time>2020-01-05T10:46:31Z</time>
      </trkpt>
      <trkpt lat="48.92048" lon="2.06719">
        <ele>57.23</ele>
        <time>2020-01-05T10:46:50Z</time>
      </trkpt>
      <trkpt lat="48.92059" lon="2.06746">
        <ele>57.51</ele>
        <time>2020-01-05T10:47:11Z</time>
      </trkpt>
      <trkpt lat="48.92066" lon="2.06755">
        <ele>57.55</ele>
        <time>2020-01-05T10:47:18Z</time>
      </trkpt>
      <trkpt lat="48.92085" lon="2.06774">
        <ele>57.7</ele>
        <time>2020-01-05T10:47:37Z</time>
      </trkpt>
      <trkpt lat="48.92086" lon="2.06777">
        <ele>57.94</ele>
        <time>2020-01-05T10:47:38Z</time>
      </trkpt>
      <trkpt lat="48.92096" lon="2.06798">
        <ele>57.68</ele>
        <time>2020-01-05T10:47:53Z</time>
      </trkpt>
      <trkpt lat="48.9211" lon="2.06821">
        <ele>57.41</ele>
        <time>2020-01-05T10:48:12Z</time>
      </trkpt>
      <trkpt lat="48.92118" lon="2.06835">
        <ele>57.63</ele>
        <time>2020-01-05T10:48:22Z</time>
      </trkpt>
      <trkpt lat="48.92129" lon="2.06852">
        <ele>57.86</ele>
        <time>2020-01-05T10:48:37Z</time>
      </trkpt>
      <trkpt lat="48.92144" lon="2.06869">
        <ele>58.11</ele>
        <time>2020-01-05T10:48:57Z</time>
      </trkpt>
      <trkpt lat="48.92156" lon="2.06886">
        <ele>58.09</ele>
        <time>2020-01-05T10:49:15Z</time>
      </trkpt>
      <trkpt lat="48.92169" lon="2.06898">
        <ele>58.18</ele>
        <time>2020-01-05T10:49:33Z</time>
      </trkpt>
      <trkpt lat="48.92183" lon="2.06915">
        <ele>58.17</ele>
        <time>2020-01-05T10:49:50Z</time>
      </trkpt>
      <trkpt lat="48.92191" lon="2.06931">
        <ele>58.71</ele>
        <time>2020-01-05T10:50:07Z</time>
      </trkpt>
      <trkpt lat="48.92205" lon="2.06948">
        <ele>58.65</ele>
        <time>2020-01-05T10:50:26Z</time>
      </trkpt>
      <trkpt lat="48.9222" lon="2.0697">
        <ele>58.2</ele>
        <time>2020-01-05T10:50:46Z</time>
      </trkpt>
      <trkpt lat="48.92231" lon="2.06988">
        <ele>58.65</ele>
        <time>2020-01-05T10:51:05Z</time>
      </trkpt>
      <trkpt lat="48.92247" lon="2.07003">
        <ele>58.25</ele>
        <time>2020-01-05T10:51:23Z</time>
      </trkpt>
      <trkpt lat="48.92257" lon="2.07026">
        <ele>58.62</ele>
        <time>2020-01-05T10:51:38Z</time>
      </trkpt>
      <trkpt lat="48.92272" lon="2.07045">
        <ele>58.45</ele>
        <time>2020-01-05T10:51:58Z</time>
      </trkpt>
      <trkpt lat="48.92282" lon="2.07065">
        <ele>58.13</ele>
        <time>2020-01-05T10:52:15Z</time>
      </trkpt>
      <trkpt lat="48.92283" lon="2.07069">
        <ele>58.42</ele>
        <time>2020-01-05T10:52:17Z</time>
      </trkpt>
      <trkpt lat="48.92287" lon="2.07083">
        <ele>58.18</ele>
        <time>2020-01-05T10:52:33Z</time>
      </trkpt>
      <trkpt lat="48.92303" lon="2.07104">
        <ele>57.37</ele>
        <time>2020-01-05T10:52:49Z</time>
      </trkpt>
      <trkpt lat="48.9232" lon="2.07137">
        <ele>57.41</ele>
        <time>2020-01-05T10:53:09Z</time>
      </trkpt>
      <trkpt lat="48.92322" lon="2.07151">
        <ele>57.89</ele>
        <time>2020-01-05T10:53:25Z</time>
      </trkpt>
      <trkpt lat="48.92324" lon="2.07147">
        <ele>57.46</ele>
        <time>2020-01-05T10:53:52Z</time>
      </trkpt>
      <trkpt lat="48.9232" lon="2.07141">
        <ele>58.12</ele>
        <time>2020-01-05T10:54:11Z</time>
      </trkpt>
      <trkpt lat="48.92323" lon="2.07145">
        <ele>57.61</ele>
        <time>2020-01-05T10:54:18Z</time>
      </trkpt>
      <trkpt lat="48.92328" lon="2.07146">
        <ele>58.45</ele>
        <time>2020-01-05T10:54:46Z</time>
      </trkpt>
      <trkpt lat="48.92328" lon="2.07147">
        <ele>57.99</ele>
        <time>2020-01-05T10:55:12Z</time>
      </trkpt>
      <trkpt lat="48.92329" lon="2.07149">
        <ele>58.29</ele>
        <time>2020-01-05T10:55:45Z</time>
      </trkpt>
      <trkpt lat="48.92328" lon="2.07147">
        <ele>58.09</ele>
        <time>2020-01-05T10:56:12Z</time>
      </trkpt>
      <trkpt lat="48.92323" lon="2.07145">
        <ele>58.65</ele>
        <time>2020-01-05T10:56:38Z</time>
      </trkpt>
      <trkpt lat="48.92323" lon="2.07146">
        <ele>58.82</ele>
        <time>2020-01-05T10:57:06Z</time>
      </trkpt>
      <trkpt lat="48.92322" lon="2.07147">
        <ele>58.94</ele>
        <time>2020-01-05T10:57:36Z</time>
      </trkpt>
      <trkpt lat="48.92323" lon="2.07147">
        <ele>59.85</ele>
        <time>2020-01-05T10:58:06Z</time>
      </trkpt>
      <trkpt lat="48.92319" lon="2.07146">
        <ele>59.58</ele>
        <time>2020-01-05T10:58:31Z</time>
      </trkpt>
      <trkpt lat="48.9232" lon="2.07153">
        <ele>59.73</ele>
        <time>2020-01-05T10:58:48Z</time>
      </trkpt>
      <trkpt lat="48.92321" lon="2.07167">
        <ele>59.63</ele>
        <time>2020-01-05T10:59:05Z</time>
      </trkpt>
      <trkpt lat="48.92322" lon="2.07179">
        <ele>60.29</ele>
        <time>2020-01-05T10:59:28Z</time>
      </trkpt>
      <trkpt lat="48.92322" lon="2.07194">
        <ele>60.36</ele>
        <time>2020-01-05T10:59:37Z</time>
      </trkpt>
      <trkpt lat="48.92322" lon="2.07205">
        <ele>60.73</ele>
        <time>2020-01-05T10:59:44Z</time>
      </trkpt>
      <trkpt lat="48.92322" lon="2.07213">
        <ele>60.75</ele>
        <time>2020-01-05T10:59:48Z</time>
      </trkpt>
      <trkpt lat="48.92324" lon="2.07226">
        <ele>59.81</ele>
        <time>2020-01-05T11:00:01Z</time>
      </trkpt>
      <trkpt lat="48.92325" lon="2.07253">
        <ele>59.78</ele>
        <time>2020-01-05T11:00:22Z</time>
      </trkpt>
      <trkpt lat="48.92323" lon="2.07273">
        <ele>60.39</ele>
        <time>2020-01-05T11:00:34Z</time>
      </trkpt>
      <trkpt lat="48.92322" lon="2.07299">
        <ele>59.92</ele>
        <time>2020-01-05T11:00:51Z</time>
      </trkpt>
      <trkpt lat="48.92321" lon="2.07332">
        <ele>59.85</ele>
        <time>2020-01-05T11:01:09Z</time>
      </trkpt>
      <trkpt lat="48.92321" lon="2.07351">
        <ele>59.88</ele>
        <time>2020-01-05T11:01:27Z</time>
      </trkpt>
      <trkpt lat="48.92317" lon="2.07377">
        <ele>59.71</ele>
        <time>2020-01-05T11:01:48Z</time>
      </trkpt>
      <trkpt lat="48.92315" lon="2.07406">
        <ele>58.9</ele>
        <time>2020-01-05T11:02:07Z</time>
      </trkpt>
      <trkpt lat="48.92315" lon="2.07423">
        <ele>58.07</ele>
        <time>2020-01-05T11:02:17Z</time>
      </trkpt>
      <trkpt lat="48.92312" lon="2.07455">
        <ele>58.91</ele>
        <time>2020-01-05T11:02:33Z</time>
      </trkpt>
      <trkpt lat="48.92307" lon="2.07483">
        <ele>58.27</ele>
        <time>2020-01-05T11:02:48Z</time>
      </trkpt>
      <trkpt lat="48.92303" lon="2.07515">
        <ele>58.11</ele>
        <time>2020-01-05T11:03:05Z</time>
      </trkpt>
      <trkpt lat="48.923" lon="2.0754">
        <ele>57.25</ele>
        <time>2020-01-05T11:03:24Z</time>
      </trkpt>
      <trkpt lat="48.92302" lon="2.07578">
        <ele>57</ele>
        <time>2020-01-05T11:03:47Z</time>
      </trkpt>
      <trkpt lat="48.92298" lon="2.07617">
        <ele>56.75</ele>
        <time>2020-01-05T11:04:07Z</time>
      </trkpt>
      <trkpt lat="48.92293" lon="2.07653">
        <ele>56.71</ele>
        <time>2020-01-05T11:04:25Z</time>
      </trkpt>
      <trkpt lat="48.92289" lon="2.07694">
        <ele>56.98</ele>
        <time>2020-01-05T11:04:41Z</time>
      </trkpt>
      <trkpt lat="48.92289" lon="2.07707">
        <ele>56.72</ele>
        <time>2020-01-05T11:04:46Z</time>
      </trkpt>
      <trkpt lat="48.92291" lon="2.07713">
        <ele>56.39</ele>
        <time>2020-01-05T11:04:49Z</time>
      </trkpt>
      <trkpt lat="48.92293" lon="2.07726">
        <ele>57.02</ele>
        <time>2020-01-05T11:04:56Z</time>
      </trkpt>
      <trkpt lat="48.92301" lon="2.07728">
        <ele>56.26</ele>
        <time>2020-01-05T11:05:11Z</time>
      </trkpt>
      <trkpt lat="48.92318" lon="2.07737">
        <ele>57.25</ele>
        <time>2020-01-05T11:05:28Z</time>
      </trkpt>
      <trkpt lat="48.92329" lon="2.07744">
        <ele>57.13</ele>
        <time>2020-01-05T11:05:43Z</time>
      </trkpt>
      <trkpt lat="48.9234" lon="2.0775">
        <ele>57.04</ele>
        <time>2020-01-05T11:05:57Z</time>
      </trkpt>
      <trkpt lat="48.92345" lon="2.07752">
        <ele>56.93</ele>
        <time>2020-01-05T11:06:02Z</time>
      </trkpt>
      <trkpt lat="48.92357" lon="2.07759">
        <ele>56.65</ele>
        <time>2020-01-05T11:06:16Z</time>
      </trkpt>
      <trkpt lat="48.92371" lon="2.07766">
        <ele>57.14</ele>
        <time>2020-01-05T11:06:32Z</time>
      </trkpt>
      <trkpt lat="48.92389" lon="2.07774">
        <ele>57.59</ele>
        <time>2020-01-05T11:06:47Z</time>
      </trkpt>
      <trkpt lat="48.92405" lon="2.07781">
        <ele>57.39</ele>
        <time>2020-01-05T11:07:01Z</time>
      </trkpt>
      <trkpt lat="48.92427" lon="2.07791">
        <ele>58.03</ele>
        <time>2020-01-05T11:07:21Z</time>
      </trkpt>
      <trkpt lat="48.92436" lon="2.07796">
        <ele>57.77</ele>
        <time>2020-01-05T11:07:29Z</time>
      </trkpt>
      <trkpt lat="48.92456" lon="2.07804">
        <ele>58.58</ele>
        <time>2020-01-05T11:07:47Z</time>
      </trkpt>
      <trkpt lat="48.92468" lon="2.07812">
        <ele>59.17</ele>
        <time>2020-01-05T11:07:58Z</time>
      </trkpt>
      <trkpt lat="48.92481" lon="2.07819">
        <ele>58.9</ele>
        <time>2020-01-05T11:08:14Z</time>
      </trkpt>
      <trkpt lat="48.92501" lon="2.07832">
        <ele>58.74</ele>
        <time>2020-01-05T11:08:31Z</time>
      </trkpt>
      <trkpt lat="48.92519" lon="2.0784">
        <ele>59.44</ele>
        <time>2020-01-05T11:08:50Z</time>
      </trkpt>
      <trkpt lat="48.92539" lon="2.0785">
        <ele>59.63</ele>
        <time>2020-01-05T11:09:07Z</time>
      </trkpt>
      <trkpt lat="48.92552" lon="2.07857">
        <ele>59.3</ele>
        <time>2020-01-05T11:09:18Z</time>
      </trkpt>
      <trkpt lat="48.92557" lon="2.07858">
        <ele>59.17</ele>
        <time>2020-01-05T11:09:22Z</time>
      </trkpt>
      <trkpt lat="48.92576" lon="2.07865">
        <ele>59.2</ele>
        <time>2020-01-05T11:09:40Z</time>
      </trkpt>
      <trkpt lat="48.92591" lon="2.07873">
        <ele>59.23</ele>
        <time>2020-01-05T11:09:52Z</time>
      </trkpt>
      <trkpt lat="48.92602" lon="2.07878">
        <ele>59.72</ele>
        <time>2020-01-05T11:10:03Z</time>
      </trkpt>
      <trkpt lat="48.9261" lon="2.07882">
        <ele>59.47</ele>
        <time>2020-01-05T11:10:09Z</time>
      </trkpt>
      <trkpt lat="48.92617" lon="2.07886">
        <ele>59.74</ele>
        <time>2020-01-05T11:10:29Z</time>
      </trkpt>
      <trkpt lat="48.9262" lon="2.07886">
        <ele>60.15</ele>
        <time>2020-01-05T11:10:49Z</time>
      </trkpt>
      <trkpt lat="48.92618" lon="2.07883">
        <ele>59.94</ele>
        <time>2020-01-05T11:11:11Z</time>
      </trkpt>
      <trkpt lat="48.9261" lon="2.07879">
        <ele>60.18</ele>
        <time>2020-01-05T11:11:36Z</time>
      </trkpt>
      <trkpt lat="48.92612" lon="2.0788">
        <ele>60.62</ele>
        <time>2020-01-05T11:12:08Z</time>
      </trkpt>
      <trkpt lat="48.92614" lon="2.07882">
        <ele>60.45</ele>
        <time>2020-01-05T11:12:31Z</time>
      </trkpt>
      <trkpt lat="48.92616" lon="2.07882">
        <ele>60.4</ele>
        <time>2020-01-05T11:12:59Z</time>
      </trkpt>
      <trkpt lat="48.92615" lon="2.0788">
        <ele>60.65</ele>
        <time>2020-01-05T11:13:31Z</time>
      </trkpt>
      <trkpt lat="48.92616" lon="2.07882">
        <ele>61.37</ele>
        <time>2020-01-05T11:13:57Z</time>
      </trkpt>
      <trkpt lat="48.92613" lon="2.07881">
        <ele>61.17</ele>
        <time>2020-01-05T11:14:19Z</time>
      </trkpt>
      <trkpt lat="48.92617" lon="2.0788">
        <ele>61.27</ele>
        <time>2020-01-05T11:14:43Z</time>
      </trkpt>
      <trkpt lat="48.92616" lon="2.07878">
        <ele>61.34</ele>
        <time>2020-01-05T11:15:07Z</time>
      </trkpt>
      <trkpt lat="48.92621" lon="2.07882">
        <ele>60.9</ele>
        <time>2020-01-05T11:15:33Z</time>
      </trkpt>
      <trkpt lat="48.92635" lon="2.07891">
        <ele>61.41</ele>
        <time>2020-01-05T11:15:51Z</time>
      </trkpt>
      <trkpt lat="48.92658" lon="2.079">
        <ele>61.72</ele>
        <time>2020-01-05T11:16:12Z</time>
      </trkpt>
      <trkpt lat="48.92675" lon="2.07905">
        <ele>61.81</ele>
        <time>2020-01-05T11:16:27Z</time>
      </trkpt>
      <trkpt lat="48.92693" lon="2.07912">
        <ele>61.37</ele>
        <time>2020-01-05T11:16:43Z</time>
      </trkpt>
      <trkpt lat="48.92712" lon="2.0792">
        <ele>61.32</ele>
        <time>2020-01-05T11:16:59Z</time>
      </trkpt>
      <trkpt lat="48.92713" lon="2.0792">
        <ele>60.87</ele>
        <time>2020-01-05T11:17:00Z</time>
      </trkpt>
      <trkpt lat="48.92727" lon="2.07927">
        <ele>61.15</ele>
        <time>2020-01-05T11:17:14Z</time>
      </trkpt>
      <trkpt lat="48.9273" lon="2.0793">
        <ele>60.82</ele>
        <time>2020-01-05T11:17:17Z</time>
      </trkpt>
      <trkpt lat="48.92745" lon="2.07943">
        <ele>60.69</ele>
        <time>2020-01-05T11:17:31Z</time>
      </trkpt>
      <trkpt lat="48.92747" lon="2.07943">
        <ele>60.99</ele>
        <time>2020-01-05T11:17:33Z</time>
      </trkpt>
      <trkpt lat="48.92751" lon="2.07945">
        <ele>60.84</ele>
        <time>2020-01-05T11:17:36Z</time>
      </trkpt>
      <trkpt lat="48.9277" lon="2.07951">
        <ele>61.04</ele>
        <time>2020-01-05T11:17:53Z</time>
      </trkpt>
      <trkpt lat="48.92787" lon="2.07961">
        <ele>59.98</ele>
        <time>2020-01-05T11:18:09Z</time>
      </trkpt>
      <trkpt lat="48.92805" lon="2.07974">
        <ele>60.19</ele>
        <time>2020-01-05T11:18:28Z</time>
      </trkpt>
      <trkpt lat="48.92815" lon="2.07978">
        <ele>60.03</ele>
        <time>2020-01-05T11:18:35Z</time>
      </trkpt>
      <trkpt lat="48.92832" lon="2.07985">
        <ele>59.52</ele>
        <time>2020-01-05T11:18:47Z</time>
      </trkpt>
      <trkpt lat="48.92845" lon="2.07992">
        <ele>60.04</ele>
        <time>2020-01-05T11:18:59Z</time>
      </trkpt>
      <trkpt lat="48.92857" lon="2.08001">
        <ele>59.53</ele>
        <time>2020-01-05T11:19:12Z</time>
      </trkpt>
      <trkpt lat="48.92859" lon="2.08002">
        <ele>59.88</ele>
        <time>2020-01-05T11:19:14Z</time>
      </trkpt>
      <trkpt lat="48.92875" lon="2.08009">
        <ele>59.74</ele>
        <time>2020-01-05T11:19:31Z</time>
      </trkpt>
      <trkpt lat="48.92876" lon="2.0801">
        <ele>59.3</ele>
        <time>2020-01-05T11:19:32Z</time>
      </trkpt>
      <trkpt lat="48.92884" lon="2.08011">
        <ele>59.89</ele>
        <time>2020-01-05T11:19:38Z</time>
      </trkpt>
      <trkpt lat="48.92895" lon="2.08019">
        <ele>59.13</ele>
        <time>2020-01-05T11:19:51Z</time>
      </trkpt>
      <trkpt lat="48.92897" lon="2.08018">
        <ele>60.42</ele>
        <time>2020-01-05T11:19:54Z</time>
      </trkpt>
      <trkpt lat="48.929" lon="2.08018">
        <ele>59.68</ele>
        <time>2020-01-05T11:19:56Z</time>
      </trkpt>
      <trkpt lat="48.92903" lon="2.08018">
        <ele>60.35</ele>
        <time>2020-01-05T11:19:59Z</time>
      </trkpt>
      <trkpt lat="48.92908" lon="2.08017">
        <ele>59.83</ele>
        <time>2020-01-05T11:20:03Z</time>
      </trkpt>
      <trkpt lat="48.92913" lon="2.08016">
        <ele>59.67</ele>
        <time>2020-01-05T11:20:21Z</time>
      </trkpt>
      <trkpt lat="48.92915" lon="2.08019">
        <ele>60.44</ele>
        <time>2020-01-05T11:20:41Z</time>
      </trkpt>
      <trkpt lat="48.92915" lon="2.08021">
        <ele>59.98</ele>
        <time>2020-01-05T11:20:43Z</time>
      </trkpt>
      <trkpt lat="48.9292" lon="2.08039">
        <ele>59.62</ele>
        <time>2020-01-05T11:21:00Z</time>
      </trkpt>
      <trkpt lat="48.92922" lon="2.08043">
        <ele>59.48</ele>
        <time>2020-01-05T11:21:04Z</time>
      </trkpt>
      <trkpt lat="48.92934" lon="2.0806">
        <ele>59.09</ele>
        <time>2020-01-05T11:21:18Z</time>
      </trkpt>
      <trkpt lat="48.92938" lon="2.08065">
        <ele>59.16</ele>
        <time>2020-01-05T11:21:23Z</time>
      </trkpt>
      <trkpt lat="48.92942" lon="2.08074">
        <ele>59.45</ele>
        <time>2020-01-05T11:21:38Z</time>
      </trkpt>
      <trkpt lat="48.92937" lon="2.08077">
        <ele>59.62</ele>
        <time>2020-01-05T11:21:56Z</time>
      </trkpt>
      <trkpt lat="48.92933" lon="2.08082">
        <ele>59.27</ele>
        <time>2020-01-05T11:22:23Z</time>
      </trkpt>
      <trkpt lat="48.92929" lon="2.08077">
        <ele>59.05</ele>
        <time>2020-01-05T11:22:37Z</time>
      </trkpt>
      <trkpt lat="48.92929" lon="2.08074">
        <ele>59.28</ele>
        <time>2020-01-05T11:22:39Z</time>
      </trkpt>
      <trkpt lat="48.92926" lon="2.0807">
        <ele>59.81</ele>
        <time>2020-01-05T11:22:43Z</time>
      </trkpt>
      <trkpt lat="48.92919" lon="2.0806">
        <ele>59.28</ele>
        <time>2020-01-05T11:22:57Z</time>
      </trkpt>
      <trkpt lat="48.92918" lon="2.08055">
        <ele>59.58</ele>
        <time>2020-01-05T11:23:03Z</time>
      </trkpt>
      <trkpt lat="48.92899" lon="2.08038">
        <ele>60.24</ele>
        <time>2020-01-05T11:23:23Z</time>
      </trkpt>
      <trkpt lat="48.92894" lon="2.08048">
        <ele>59.98</ele>
        <time>2020-01-05T11:23:31Z</time>
      </trkpt>
      <trkpt lat="48.92893" lon="2.0806">
        <ele>59.98</ele>
        <time>2020-01-05T11:23:38Z</time>
      </trkpt>
      <trkpt lat="48.92894" lon="2.08084">
        <ele>58.99</ele>
        <time>2020-01-05T11:23:56Z</time>
      </trkpt>
      <trkpt lat="48.92893" lon="2.08114">
        <ele>57.55</ele>
        <time>2020-01-05T11:24:14Z</time>
      </trkpt>
      <trkpt lat="48.92891" lon="2.08139">
        <ele>56.31</ele>
        <time>2020-01-05T11:24:30Z</time>
      </trkpt>
      <trkpt lat="48.9289" lon="2.08157">
        <ele>54.66</ele>
        <time>2020-01-05T11:24:40Z</time>
      </trkpt>
      <trkpt lat="48.92889" lon="2.0817">
        <ele>55.85</ele>
        <time>2020-01-05T11:24:47Z</time>
      </trkpt>
      <trkpt lat="48.92886" lon="2.08176">
        <ele>55.32</ele>
        <time>2020-01-05T11:24:51Z</time>
      </trkpt>
      <trkpt lat="48.92883" lon="2.08188">
        <ele>54.79</ele>
        <time>2020-01-05T11:24:59Z</time>
      </trkpt>
      <trkpt lat="48.92883" lon="2.08202">
        <ele>53.73</ele>
        <time>2020-01-05T11:25:09Z</time>
      </trkpt>
      <trkpt lat="48.92881" lon="2.08232">
        <ele>53.34</ele>
        <time>2020-01-05T11:25:24Z</time>
      </trkpt>
      <trkpt lat="48.92878" lon="2.0827">
        <ele>53.6</ele>
        <time>2020-01-05T11:25:46Z</time>
      </trkpt>
      <trkpt lat="48.92877" lon="2.08297">
        <ele>52.56</ele>
        <time>2020-01-05T11:26:05Z</time>
      </trkpt>
      <trkpt lat="48.92874" lon="2.08328">
        <ele>52.76</ele>
        <time>2020-01-05T11:26:23Z</time>
      </trkpt>
      <trkpt lat="48.92874" lon="2.0833">
        <ele>52.26</ele>
        <time>2020-01-05T11:26:25Z</time>
      </trkpt>
      <trkpt lat="48.92872" lon="2.0836">
        <ele>52.44</ele>
        <time>2020-01-05T11:26:42Z</time>
      </trkpt>
      <trkpt lat="48.9287" lon="2.08389">
        <ele>52.36</ele>
        <time>2020-01-05T11:27:01Z</time>
      </trkpt>
      <trkpt lat="48.92864" lon="2.08425">
        <ele>51.93</ele>
        <time>2020-01-05T11:27:20Z</time>
      </trkpt>
      <trkpt lat="48.9286" lon="2.08463">
        <ele>51.52</ele>
        <time>2020-01-05T11:27:36Z</time>
      </trkpt>
      <trkpt lat="48.92855" lon="2.08494">
        <ele>51.63</ele>
        <time>2020-01-05T11:27:52Z</time>
      </trkpt>
      <trkpt lat="48.92854" lon="2.08505">
        <ele>51.24</ele>
        <time>2020-01-05T11:27:58Z</time>
      </trkpt>
      <trkpt lat="48.9285" lon="2.0853">
        <ele>51.4</ele>
        <time>2020-01-05T11:28:11Z</time>
      </trkpt>
      <trkpt lat="48.9285" lon="2.08531">
        <ele>51.4</ele>
        <time>2020-01-05T11:28:12Z</time>
      </trkpt>
      <trkpt lat="48.92846" lon="2.0856">
        <ele>51.06</ele>
        <time>2020-01-05T11:28:27Z</time>
      </trkpt>
      <trkpt lat="48.92843" lon="2.08588">
        <ele>50.99</ele>
        <time>2020-01-05T11:28:44Z</time>
      </trkpt>
      <trkpt lat="48.92841" lon="2.08609">
        <ele>51.32</ele>
        <time>2020-01-05T11:28:57Z</time>
      </trkpt>
      <trkpt lat="48.9284" lon="2.08628">
        <ele>51.38</ele>
        <time>2020-01-05T11:29:08Z</time>
      </trkpt>
      <trkpt lat="48.92842" lon="2.08666">
        <ele>50.91</ele>
        <time>2020-01-05T11:29:28Z</time>
      </trkpt>
      <trkpt lat="48.9284" lon="2.08688">
        <ele>50.77</ele>
        <time>2020-01-05T11:29:40Z</time>
      </trkpt>
      <trkpt lat="48.92838" lon="2.08696">
        <ele>51.07</ele>
        <time>2020-01-05T11:29:45Z</time>
      </trkpt>
      <trkpt lat="48.92835" lon="2.08721">
        <ele>50.62</ele>
        <time>2020-01-05T11:29:57Z</time>
      </trkpt>
      <trkpt lat="48.92845" lon="2.0873">
        <ele>49.57</ele>
        <time>2020-01-05T11:30:12Z</time>
      </trkpt>
      <trkpt lat="48.92847" lon="2.08731">
        <ele>50.18</ele>
        <time>2020-01-05T11:30:34Z</time>
      </trkpt>
      <trkpt lat="48.92846" lon="2.08726">
        <ele>50.49</ele>
        <time>2020-01-05T11:30:57Z</time>
      </trkpt>
      <trkpt lat="48.92856" lon="2.08726">
        <ele>49.61</ele>
        <time>2020-01-05T11:31:18Z</time>
      </trkpt>
      <trkpt lat="48.92859" lon="2.0873">
        <ele>49.59</ele>
        <time>2020-01-05T11:31:21Z</time>
      </trkpt>
      <trkpt lat="48.92875" lon="2.08736">
        <ele>49.37</ele>
        <time>2020-01-05T11:31:35Z</time>
      </trkpt>
      <trkpt lat="48.92885" lon="2.08742">
        <ele>49.18</ele>
        <time>2020-01-05T11:31:49Z</time>
      </trkpt>
      <trkpt lat="48.92888" lon="2.08742">
        <ele>49.13</ele>
        <time>2020-01-05T11:31:51Z</time>
      </trkpt>
      <trkpt lat="48.92902" lon="2.08748">
        <ele>49</ele>
        <time>2020-01-05T11:32:05Z</time>
      </trkpt>
      <trkpt lat="48.9292" lon="2.08757">
        <ele>50.09</ele>
        <time>2020-01-05T11:32:21Z</time>
      </trkpt>
      <trkpt lat="48.92936" lon="2.08763">
        <ele>50.76</ele>
        <time>2020-01-05T11:32:37Z</time>
      </trkpt>
      <trkpt lat="48.92957" lon="2.08773">
        <ele>53.09</ele>
        <time>2020-01-05T11:32:56Z</time>
      </trkpt>
      <trkpt lat="48.92964" lon="2.08775">
        <ele>53.83</ele>
        <time>2020-01-05T11:33:02Z</time>
      </trkpt>
      <trkpt lat="48.92983" lon="2.08781">
        <ele>55.19</ele>
        <time>2020-01-05T11:33:20Z</time>
      </trkpt>
      <trkpt lat="48.93002" lon="2.0879">
        <ele>56.09</ele>
        <time>2020-01-05T11:33:40Z</time>
      </trkpt>
      <trkpt lat="48.93015" lon="2.08795">
        <ele>56.12</ele>
        <time>2020-01-05T11:33:51Z</time>
      </trkpt>
      <trkpt lat="48.93027" lon="2.08803">
        <ele>56.16</ele>
        <time>2020-01-05T11:34:03Z</time>
      </trkpt>
      <trkpt lat="48.93032" lon="2.08804">
        <ele>56.7</ele>
        <time>2020-01-05T11:34:08Z</time>
      </trkpt>
      <trkpt lat="48.93037" lon="2.08804">
        <ele>56.63</ele>
        <time>2020-01-05T11:34:12Z</time>
      </trkpt>
      <trkpt lat="48.9306" lon="2.08813">
        <ele>56.28</ele>
        <time>2020-01-05T11:34:32Z</time>
      </trkpt>
      <trkpt lat="48.93077" lon="2.08821">
        <ele>55.81</ele>
        <time>2020-01-05T11:34:46Z</time>
      </trkpt>
      <trkpt lat="48.93094" lon="2.08826">
        <ele>56.25</ele>
        <time>2020-01-05T11:35:00Z</time>
      </trkpt>
      <trkpt lat="48.93097" lon="2.08827">
        <ele>55.91</ele>
        <time>2020-01-05T11:35:03Z</time>
      </trkpt>
      <trkpt lat="48.93106" lon="2.08827">
        <ele>55.75</ele>
        <time>2020-01-05T11:35:11Z</time>
      </trkpt>
      <trkpt lat="48.9312" lon="2.08834">
        <ele>56.1</ele>
        <time>2020-01-05T11:35:27Z</time>
      </trkpt>
      <trkpt lat="48.93144" lon="2.08848">
        <ele>55.25</ele>
        <time>2020-01-05T11:35:49Z</time>
      </trkpt>
      <trkpt lat="48.93161" lon="2.08856">
        <ele>55.11</ele>
        <time>2020-01-05T11:36:04Z</time>
      </trkpt>
      <trkpt lat="48.93182" lon="2.08867">
        <ele>54.55</ele>
        <time>2020-01-05T11:36:24Z</time>
      </trkpt>
      <trkpt lat="48.93195" lon="2.08874">
        <ele>54.09</ele>
        <time>2020-01-05T11:36:40Z</time>
      </trkpt>
      <trkpt lat="48.93212" lon="2.08881">
        <ele>53.87</ele>
        <time>2020-01-05T11:36:56Z</time>
      </trkpt>
      <trkpt lat="48.93231" lon="2.08889">
        <ele>53.98</ele>
        <time>2020-01-05T11:37:12Z</time>
      </trkpt>
      <trkpt lat="48.93246" lon="2.08897">
        <ele>53.68</ele>
        <time>2020-01-05T11:37:28Z</time>
      </trkpt>
      <trkpt lat="48.93268" lon="2.08907">
        <ele>53.9</ele>
        <time>2020-01-05T11:37:48Z</time>
      </trkpt>
      <trkpt lat="48.93275" lon="2.08909">
        <ele>53.28</ele>
        <time>2020-01-05T11:37:54Z</time>
      </trkpt>
      <trkpt lat="48.93297" lon="2.08919">
        <ele>53.64</ele>
        <time>2020-01-05T11:38:15Z</time>
      </trkpt>
      <trkpt lat="48.93319" lon="2.08929">
        <ele>52.8</ele>
        <time>2020-01-05T11:38:31Z</time>
      </trkpt>
      <trkpt lat="48.93333" lon="2.08933">
        <ele>52.79</ele>
        <time>2020-01-05T11:38:43Z</time>
      </trkpt>
      <trkpt lat="48.93346" lon="2.08939">
        <ele>52.17</ele>
        <time>2020-01-05T11:38:56Z</time>
      </trkpt>
      <trkpt lat="48.93349" lon="2.08941">
        <ele>52.21</ele>
        <time>2020-01-05T11:38:58Z</time>
      </trkpt>
      <trkpt lat="48.93364" lon="2.08943">
        <ele>52.01</ele>
        <time>2020-01-05T11:39:10Z</time>
      </trkpt>
      <trkpt lat="48.93378" lon="2.08951">
        <ele>51.39</ele>
        <time>2020-01-05T11:39:24Z</time>
      </trkpt>
      <trkpt lat="48.93399" lon="2.08961">
        <ele>51.14</ele>
        <time>2020-01-05T11:39:43Z</time>
      </trkpt>
      <trkpt lat="48.93422" lon="2.08976">
        <ele>50.04</ele>
        <time>2020-01-05T11:40:02Z</time>
      </trkpt>
      <trkpt lat="48.93444" lon="2.08983">
        <ele>49.37</ele>
        <time>2020-01-05T11:40:21Z</time>
      </trkpt>
      <trkpt lat="48.93466" lon="2.0899">
        <ele>49.04</ele>
        <time>2020-01-05T11:40:38Z</time>
      </trkpt>
      <trkpt lat="48.93483" lon="2.08999">
        <ele>48.54</ele>
        <time>2020-01-05T11:40:54Z</time>
      </trkpt>
      <trkpt lat="48.93501" lon="2.09007">
        <ele>47.99</ele>
        <time>2020-01-05T11:41:09Z</time>
      </trkpt>
      <trkpt lat="48.93518" lon="2.09017">
        <ele>48.37</ele>
        <time>2020-01-05T11:41:24Z</time>
      </trkpt>
      <trkpt lat="48.9354" lon="2.09026">
        <ele>49.36</ele>
        <time>2020-01-05T11:41:43Z</time>
      </trkpt>
      <trkpt lat="48.93552" lon="2.0903">
        <ele>50.54</ele>
        <time>2020-01-05T11:41:56Z</time>
      </trkpt>
      <trkpt lat="48.93551" lon="2.09022">
        <ele>50.32</ele>
        <time>2020-01-05T11:42:17Z</time>
      </trkpt>
      <trkpt lat="48.93549" lon="2.09024">
        <ele>50.07</ele>
        <time>2020-01-05T11:42:40Z</time>
      </trkpt>
      <trkpt lat="48.93557" lon="2.0903">
        <ele>51.55</ele>
        <time>2020-01-05T11:42:55Z</time>
      </trkpt>
      <trkpt lat="48.93553" lon="2.09034">
        <ele>51.18</ele>
        <time>2020-01-05T11:43:10Z</time>
      </trkpt>
      <trkpt lat="48.93559" lon="2.09035">
        <ele>51.8</ele>
        <time>2020-01-05T11:43:16Z</time>
      </trkpt>
      <trkpt lat="48.93572" lon="2.09053">
        <ele>53.38</ele>
        <time>2020-01-05T11:43:33Z</time>
      </trkpt>
      <trkpt lat="48.93585" lon="2.09073">
        <ele>53.88</ele>
        <time>2020-01-05T11:43:50Z</time>
      </trkpt>
      <trkpt lat="48.93596" lon="2.09091">
        <ele>53.25</ele>
        <time>2020-01-05T11:44:05Z</time>
      </trkpt>
      <trkpt lat="48.936" lon="2.09098">
        <ele>53.38</ele>
        <time>2020-01-05T11:44:10Z</time>
      </trkpt>
      <trkpt lat="48.93609" lon="2.09107">
        <ele>53.83</ele>
        <time>2020-01-05T11:44:19Z</time>
      </trkpt>
      <trkpt lat="48.93612" lon="2.09117">
        <ele>53.22</ele>
        <time>2020-01-05T11:44:25Z</time>
      </trkpt>
      <trkpt lat="48.93626" lon="2.09131">
        <ele>53.95</ele>
        <time>2020-01-05T11:44:38Z</time>
      </trkpt>
      <trkpt lat="48.93633" lon="2.0914">
        <ele>53.89</ele>
        <time>2020-01-05T11:44:48Z</time>
      </trkpt>
      <trkpt lat="48.93644" lon="2.09153">
        <ele>53.6</ele>
        <time>2020-01-05T11:45:01Z</time>
      </trkpt>
      <trkpt lat="48.93654" lon="2.09165">
        <ele>53.5</ele>
        <time>2020-01-05T11:45:13Z</time>
      </trkpt>
      <trkpt lat="48.93667" lon="2.09191">
        <ele>52.66</ele>
        <time>2020-01-05T11:45:32Z</time>
      </trkpt>
      <trkpt lat="48.93685" lon="2.09222">
        <ele>52.34</ele>
        <time>2020-01-05T11:45:54Z</time>
      </trkpt>
      <trkpt lat="48.93693" lon="2.09243">
        <ele>51.82</ele>
        <time>2020-01-05T11:46:07Z</time>
      </trkpt>
      <trkpt lat="48.93702" lon="2.09257">
        <ele>51.45</ele>
        <time>2020-01-05T11:46:21Z</time>
      </trkpt>
      <trkpt lat="48.93704" lon="2.09257">
        <ele>51.44</ele>
        <time>2020-01-05T11:46:23Z</time>
      </trkpt>
      <trkpt lat="48.93713" lon="2.09268">
        <ele>50.98</ele>
        <time>2020-01-05T11:46:36Z</time>
      </trkpt>
      <trkpt lat="48.93723" lon="2.09277">
        <ele>50.38</ele>
        <time>2020-01-05T11:46:45Z</time>
      </trkpt>
      <trkpt lat="48.93728" lon="2.09287">
        <ele>50</ele>
        <time>2020-01-05T11:46:50Z</time>
      </trkpt>
      <trkpt lat="48.93734" lon="2.09305">
        <ele>49.8</ele>
        <time>2020-01-05T11:46:57Z</time>
      </trkpt>
      <trkpt lat="48.93743" lon="2.09323">
        <ele>49.36</ele>
        <time>2020-01-05T11:47:09Z</time>
      </trkpt>
      <trkpt lat="48.93745" lon="2.09324">
        <ele>48.74</ele>
        <time>2020-01-05T11:47:11Z</time>
      </trkpt>
      <trkpt lat="48.93747" lon="2.09327">
        <ele>49.46</ele>
        <time>2020-01-05T11:47:13Z</time>
      </trkpt>
      <trkpt lat="48.93758" lon="2.09341">
        <ele>49.21</ele>
        <time>2020-01-05T11:47:24Z</time>
      </trkpt>
      <trkpt lat="48.93768" lon="2.09367">
        <ele>47.66</ele>
        <time>2020-01-05T11:47:39Z</time>
      </trkpt>
      <trkpt lat="48.93779" lon="2.09388">
        <ele>47.48</ele>
        <time>2020-01-05T11:47:54Z</time>
      </trkpt>
      <trkpt lat="48.93791" lon="2.09414">
        <ele>46.84</ele>
        <time>2020-01-05T11:48:12Z</time>
      </trkpt>
      <trkpt lat="48.93801" lon="2.09427">
        <ele>46.1</ele>
        <time>2020-01-05T11:48:22Z</time>
      </trkpt>
      <trkpt lat="48.93812" lon="2.09443">
        <ele>45.85</ele>
        <time>2020-01-05T11:48:34Z</time>
      </trkpt>
      <trkpt lat="48.93818" lon="2.09451">
        <ele>45.82</ele>
        <time>2020-01-05T11:48:41Z</time>
      </trkpt>
      <trkpt lat="48.93833" lon="2.09484">
        <ele>45.44</ele>
        <time>2020-01-05T11:49:04Z</time>
      </trkpt>
      <trkpt lat="48.93846" lon="2.09505">
        <ele>44.89</ele>
        <time>2020-01-05T11:49:20Z</time>
      </trkpt>
      <trkpt lat="48.93848" lon="2.09507">
        <ele>45.13</ele>
        <time>2020-01-05T11:49:22Z</time>
      </trkpt>
      <trkpt lat="48.93864" lon="2.09522">
        <ele>44.6</ele>
        <time>2020-01-05T11:49:36Z</time>
      </trkpt>
      <trkpt lat="48.93875" lon="2.09535">
        <ele>44.03</ele>
        <time>2020-01-05T11:49:48Z</time>
      </trkpt>
      <trkpt lat="48.9388" lon="2.09545">
        <ele>44.36</ele>
        <time>2020-01-05T11:49:55Z</time>
      </trkpt>
      <trkpt lat="48.93892" lon="2.0956">
        <ele>44.13</ele>
        <time>2020-01-05T11:50:09Z</time>
      </trkpt>
      <trkpt lat="48.93893" lon="2.09561">
        <ele>43.85</ele>
        <time>2020-01-05T11:50:11Z</time>
      </trkpt>
      <trkpt lat="48.93899" lon="2.09565">
        <ele>44.1</ele>
        <time>2020-01-05T11:50:16Z</time>
      </trkpt>
      <trkpt lat="48.93918" lon="2.09565">
        <ele>42.91</ele>
        <time>2020-01-05T11:50:29Z</time>
      </trkpt>
      <trkpt lat="48.93919" lon="2.09565">
        <ele>43.42</ele>
        <time>2020-01-05T11:50:30Z</time>
      </trkpt>
      <trkpt lat="48.93933" lon="2.09556">
        <ele>43.57</ele>
        <time>2020-01-05T11:50:45Z</time>
      </trkpt>
      <trkpt lat="48.93936" lon="2.09559">
        <ele>43.77</ele>
        <time>2020-01-05T11:51:02Z</time>
      </trkpt>
      <trkpt lat="48.93937" lon="2.09559">
        <ele>44.05</ele>
        <time>2020-01-05T11:51:19Z</time>
      </trkpt>
      <trkpt lat="48.93935" lon="2.09559">
        <ele>44.04</ele>
        <time>2020-01-05T11:51:38Z</time>
      </trkpt>
      <trkpt lat="48.93935" lon="2.09554">
        <ele>43.81</ele>
        <time>2020-01-05T11:51:52Z</time>
      </trkpt>
      <trkpt lat="48.93934" lon="2.0955">
        <ele>44.07</ele>
        <time>2020-01-05T11:52:08Z</time>
      </trkpt>
      <trkpt lat="48.93938" lon="2.09554">
        <ele>44.46</ele>
        <time>2020-01-05T11:52:21Z</time>
      </trkpt>
      <trkpt lat="48.93942" lon="2.09553">
        <ele>44.19</ele>
        <time>2020-01-05T11:52:25Z</time>
      </trkpt>
      <trkpt lat="48.93948" lon="2.09551">
        <ele>44.24</ele>
        <time>2020-01-05T11:52:29Z</time>
      </trkpt>
      <trkpt lat="48.93956" lon="2.0955">
        <ele>43.51</ele>
        <time>2020-01-05T11:52:35Z</time>
      </trkpt>
      <trkpt lat="48.93965" lon="2.09556">
        <ele>44.11</ele>
        <time>2020-01-05T11:52:46Z</time>
      </trkpt>
      <trkpt lat="48.93967" lon="2.09572">
        <ele>44.3</ele>
        <time>2020-01-05T11:52:59Z</time>
      </trkpt>
      <trkpt lat="48.93963" lon="2.09575">
        <ele>44.33</ele>
        <time>2020-01-05T11:53:16Z</time>
      </trkpt>
      <trkpt lat="48.93962" lon="2.09582">
        <ele>44.55</ele>
        <time>2020-01-05T11:53:21Z</time>
      </trkpt>
      <trkpt lat="48.93967" lon="2.09613">
        <ele>45.04</ele>
        <time>2020-01-05T11:53:37Z</time>
      </trkpt>
      <trkpt lat="48.93968" lon="2.09622">
        <ele>44.76</ele>
        <time>2020-01-05T11:53:50Z</time>
      </trkpt>
      <trkpt lat="48.93968" lon="2.09624">
        <ele>45.15</ele>
        <time>2020-01-05T11:53:51Z</time>
      </trkpt>
      <trkpt lat="48.93968" lon="2.09628">
        <ele>45.32</ele>
        <time>2020-01-05T11:53:53Z</time>
      </trkpt>
      <trkpt lat="48.93969" lon="2.09648">
        <ele>44.9</ele>
        <time>2020-01-05T11:54:06Z</time>
      </trkpt>
      <trkpt lat="48.93974" lon="2.09673">
        <ele>44.25</ele>
        <time>2020-01-05T11:54:24Z</time>
      </trkpt>
      <trkpt lat="48.93976" lon="2.09671">
        <ele>44.7</ele>
        <time>2020-01-05T11:54:43Z</time>
      </trkpt>
      <trkpt lat="48.93975" lon="2.0967">
        <ele>44.76</ele>
        <time>2020-01-05T11:55:06Z</time>
      </trkpt>
      <trkpt lat="48.93973" lon="2.09668">
        <ele>44.75</ele>
        <time>2020-01-05T11:55:38Z</time>
      </trkpt>
      <trkpt lat="48.93972" lon="2.0967">
        <ele>44.29</ele>
        <time>2020-01-05T11:56:06Z</time>
      </trkpt>
      <trkpt lat="48.93972" lon="2.09672">
        <ele>44.56</ele>
        <time>2020-01-05T11:56:23Z</time>
      </trkpt>
      <trkpt lat="48.93974" lon="2.09684">
        <ele>44.54</ele>
        <time>2020-01-05T11:56:33Z</time>
      </trkpt>
      <trkpt lat="48.93979" lon="2.09692">
        <ele>44.29</ele>
        <time>2020-01-05T11:56:39Z</time>
      </trkpt>
      <trkpt lat="48.93988" lon="2.09696">
        <ele>44.13</ele>
        <time>2020-01-05T11:56:50Z</time>
      </trkpt>
      <trkpt lat="48.93996" lon="2.09715">
        <ele>44.5</ele>
        <time>2020-01-05T11:57:05Z</time>
      </trkpt>
      <trkpt lat="48.93997" lon="2.09718">
        <ele>43.7</ele>
        <time>2020-01-05T11:57:07Z</time>
      </trkpt>
      <trkpt lat="48.93999" lon="2.0972">
        <ele>44.04</ele>
        <time>2020-01-05T11:57:09Z</time>
      </trkpt>
      <trkpt lat="48.94011" lon="2.09735">
        <ele>44.43</ele>
        <time>2020-01-05T11:57:23Z</time>
      </trkpt>
      <trkpt lat="48.94025" lon="2.09757">
        <ele>44.24</ele>
        <time>2020-01-05T11:57:39Z</time>
      </trkpt>
      <trkpt lat="48.94038" lon="2.09772">
        <ele>44.28</ele>
        <time>2020-01-05T11:57:52Z</time>
      </trkpt>
      <trkpt lat="48.94041" lon="2.09778">
        <ele>44.27</ele>
        <time>2020-01-05T11:57:56Z</time>
      </trkpt>
      <trkpt lat="48.94051" lon="2.0979">
        <ele>43.7</ele>
        <time>2020-01-05T11:58:07Z</time>
      </trkpt>
      <trkpt lat="48.94062" lon="2.09807">
        <ele>43.9</ele>
        <time>2020-01-05T11:58:21Z</time>
      </trkpt>
      <trkpt lat="48.94063" lon="2.09808">
        <ele>43.47</ele>
        <time>2020-01-05T11:58:22Z</time>
      </trkpt>
      <trkpt lat="48.94073" lon="2.09831">
        <ele>43.17</ele>
        <time>2020-01-05T11:58:36Z</time>
      </trkpt>
      <trkpt lat="48.94077" lon="2.09855">
        <ele>42.54</ele>
        <time>2020-01-05T11:58:49Z</time>
      </trkpt>
      <trkpt lat="48.94098" lon="2.0988">
        <ele>42.24</ele>
        <time>2020-01-05T11:59:10Z</time>
      </trkpt>
      <trkpt lat="48.94107" lon="2.09915">
        <ele>41.5</ele>
        <time>2020-01-05T11:59:30Z</time>
      </trkpt>
      <trkpt lat="48.94123" lon="2.09929">
        <ele>41.25</ele>
        <time>2020-01-05T11:59:44Z</time>
      </trkpt>
      <trkpt lat="48.94133" lon="2.09945">
        <ele>40.81</ele>
        <time>2020-01-05T11:59:55Z</time>
      </trkpt>
      <trkpt lat="48.94136" lon="2.09952">
        <ele>41.26</ele>
        <time>2020-01-05T12:00:00Z</time>
      </trkpt>
      <trkpt lat="48.94137" lon="2.09958">
        <ele>41.36</ele>
        <time>2020-01-05T12:00:03Z</time>
      </trkpt>
      <trkpt lat="48.94144" lon="2.09969">
        <ele>40.93</ele>
        <time>2020-01-05T12:00:10Z</time>
      </trkpt>
      <trkpt lat="48.94157" lon="2.09982">
        <ele>40.13</ele>
        <time>2020-01-05T12:00:23Z</time>
      </trkpt>
      <trkpt lat="48.94171" lon="2.10011">
        <ele>40.09</ele>
        <time>2020-01-05T12:00:42Z</time>
      </trkpt>
      <trkpt lat="48.94192" lon="2.10021">
        <ele>39.85</ele>
        <time>2020-01-05T12:00:56Z</time>
      </trkpt>
      <trkpt lat="48.94205" lon="2.10044">
        <ele>39.38</ele>
        <time>2020-01-05T12:01:15Z</time>
      </trkpt>
      <trkpt lat="48.94214" lon="2.10062">
        <ele>39.21</ele>
        <time>2020-01-05T12:01:27Z</time>
      </trkpt>
      <trkpt lat="48.94221" lon="2.10079">
        <ele>39.5</ele>
        <time>2020-01-05T12:01:39Z</time>
      </trkpt>
      <trkpt lat="48.94223" lon="2.10084">
        <ele>39.36</ele>
        <time>2020-01-05T12:01:42Z</time>
      </trkpt>
      <trkpt lat="48.94233" lon="2.10099">
        <ele>39.08</ele>
        <time>2020-01-05T12:01:53Z</time>
      </trkpt>
      <trkpt lat="48.94241" lon="2.1012">
        <ele>38.91</ele>
        <time>2020-01-05T12:02:07Z</time>
      </trkpt>
      <trkpt lat="48.94243" lon="2.10123">
        <ele>38.9</ele>
        <time>2020-01-05T12:02:09Z</time>
      </trkpt>
      <trkpt lat="48.94253" lon="2.10138">
        <ele>38.6</ele>
        <time>2020-01-05T12:02:21Z</time>
      </trkpt>
      <trkpt lat="48.94262" lon="2.10159">
        <ele>38.18</ele>
        <time>2020-01-05T12:02:34Z</time>
      </trkpt>
      <trkpt lat="48.94271" lon="2.10172">
        <ele>37.9</ele>
        <time>2020-01-05T12:02:43Z</time>
      </trkpt>
      <trkpt lat="48.94275" lon="2.10178">
        <ele>38.42</ele>
        <time>2020-01-05T12:02:47Z</time>
      </trkpt>
      <trkpt lat="48.94285" lon="2.10189">
        <ele>38.43</ele>
        <time>2020-01-05T12:02:59Z</time>
      </trkpt>
      <trkpt lat="48.94303" lon="2.1021">
        <ele>38.04</ele>
        <time>2020-01-05T12:03:18Z</time>
      </trkpt>
      <trkpt lat="48.94314" lon="2.10236">
        <ele>37.02</ele>
        <time>2020-01-05T12:03:36Z</time>
      </trkpt>
      <trkpt lat="48.94343" lon="2.10248">
        <ele>36.77</ele>
        <time>2020-01-05T12:03:55Z</time>
      </trkpt>
      <trkpt lat="48.94356" lon="2.10277">
        <ele>36.27</ele>
        <time>2020-01-05T12:04:14Z</time>
      </trkpt>
      <trkpt lat="48.94372" lon="2.10299">
        <ele>35.1</ele>
        <time>2020-01-05T12:04:32Z</time>
      </trkpt>
      <trkpt lat="48.94387" lon="2.10319">
        <ele>35.53</ele>
        <time>2020-01-05T12:04:50Z</time>
      </trkpt>
      <trkpt lat="48.94405" lon="2.10347">
        <ele>34.78</ele>
        <time>2020-01-05T12:05:07Z</time>
      </trkpt>
      <trkpt lat="48.94417" lon="2.10362">
        <ele>34.57</ele>
        <time>2020-01-05T12:05:18Z</time>
      </trkpt>
      <trkpt lat="48.94425" lon="2.10372">
        <ele>34.67</ele>
        <time>2020-01-05T12:05:26Z</time>
      </trkpt>
      <trkpt lat="48.9444" lon="2.10385">
        <ele>34.04</ele>
        <time>2020-01-05T12:05:40Z</time>
      </trkpt>
      <trkpt lat="48.94442" lon="2.10386">
        <ele>34.57</ele>
        <time>2020-01-05T12:05:42Z</time>
      </trkpt>
      <trkpt lat="48.94451" lon="2.10386">
        <ele>34.46</ele>
        <time>2020-01-05T12:05:58Z</time>
      </trkpt>
      <trkpt lat="48.94449" lon="2.10391">
        <ele>47.03</ele>
        <time>2020-01-05T12:46:51Z</time>
      </trkpt>
      <trkpt lat="48.94446" lon="2.10405">
        <ele>47.9</ele>
        <time>2020-01-05T12:49:21Z</time>
      </trkpt>
      <trkpt lat="48.9445" lon="2.10422">
        <ele>47.59</ele>
        <time>2020-01-05T12:49:39Z</time>
      </trkpt>
      <trkpt lat="48.94456" lon="2.10432">
        <ele>47.31</ele>
        <time>2020-01-05T12:49:56Z</time>
      </trkpt>
      <trkpt lat="48.94454" lon="2.10441">
        <ele>47.61</ele>
        <time>2020-01-05T12:50:11Z</time>
      </trkpt>
      <trkpt lat="48.94438" lon="2.10439">
        <ele>47.65</ele>
        <time>2020-01-05T12:50:32Z</time>
      </trkpt>
      <trkpt lat="48.94422" lon="2.10426">
        <ele>47.77</ele>
        <time>2020-01-05T12:50:52Z</time>
      </trkpt>
      <trkpt lat="48.94403" lon="2.1042">
        <ele>48.27</ele>
        <time>2020-01-05T12:51:12Z</time>
      </trkpt>
      <trkpt lat="48.94383" lon="2.10414">
        <ele>48.67</ele>
        <time>2020-01-05T12:51:35Z</time>
      </trkpt>
      <trkpt lat="48.94366" lon="2.10405">
        <ele>48.47</ele>
        <time>2020-01-05T12:51:59Z</time>
      </trkpt>
      <trkpt lat="48.94352" lon="2.10399">
        <ele>48.51</ele>
        <time>2020-01-05T12:52:17Z</time>
      </trkpt>
      <trkpt lat="48.94333" lon="2.10393">
        <ele>48.04</ele>
        <time>2020-01-05T12:52:39Z</time>
      </trkpt>
      <trkpt lat="48.94318" lon="2.10387">
        <ele>48.09</ele>
        <time>2020-01-05T12:52:56Z</time>
      </trkpt>
      <trkpt lat="48.94299" lon="2.10378">
        <ele>47.91</ele>
        <time>2020-01-05T12:53:16Z</time>
      </trkpt>
      <trkpt lat="48.9428" lon="2.10374">
        <ele>48.23</ele>
        <time>2020-01-05T12:53:35Z</time>
      </trkpt>
      <trkpt lat="48.94257" lon="2.10366">
        <ele>47.46</ele>
        <time>2020-01-05T12:53:56Z</time>
      </trkpt>
      <trkpt lat="48.94242" lon="2.10357">
        <ele>47.1</ele>
        <time>2020-01-05T12:54:16Z</time>
      </trkpt>
      <trkpt lat="48.9422" lon="2.10352">
        <ele>46.9</ele>
        <time>2020-01-05T12:54:38Z</time>
      </trkpt>
      <trkpt lat="48.94204" lon="2.10344">
        <ele>47.16</ele>
        <time>2020-01-05T12:55:00Z</time>
      </trkpt>
      <trkpt lat="48.9419" lon="2.1034">
        <ele>46.4</ele>
        <time>2020-01-05T12:55:15Z</time>
      </trkpt>
      <trkpt lat="48.94182" lon="2.10337">
        <ele>46.37</ele>
        <time>2020-01-05T12:55:35Z</time>
      </trkpt>
      <trkpt lat="48.94165" lon="2.10332">
        <ele>45.37</ele>
        <time>2020-01-05T12:55:54Z</time>
      </trkpt>
      <trkpt lat="48.94148" lon="2.10326">
        <ele>45.9</ele>
        <time>2020-01-05T12:56:14Z</time>
      </trkpt>
      <trkpt lat="48.94126" lon="2.10314">
        <ele>45.74</ele>
        <time>2020-01-05T12:56:35Z</time>
      </trkpt>
      <trkpt lat="48.94111" lon="2.10308">
        <ele>45.84</ele>
        <time>2020-01-05T12:56:52Z</time>
      </trkpt>
      <trkpt lat="48.94092" lon="2.10302">
        <ele>45.75</ele>
        <time>2020-01-05T12:57:13Z</time>
      </trkpt>
      <trkpt lat="48.94075" lon="2.10298">
        <ele>45.04</ele>
        <time>2020-01-05T12:57:32Z</time>
      </trkpt>
      <trkpt lat="48.94059" lon="2.1029">
        <ele>44.77</ele>
        <time>2020-01-05T12:57:51Z</time>
      </trkpt>
      <trkpt lat="48.94043" lon="2.10285">
        <ele>44.28</ele>
        <time>2020-01-05T12:58:11Z</time>
      </trkpt>
      <trkpt lat="48.94025" lon="2.10281">
        <ele>43.61</ele>
        <time>2020-01-05T12:58:30Z</time>
      </trkpt>
      <trkpt lat="48.9402" lon="2.10274">
        <ele>44.49</ele>
        <time>2020-01-05T12:58:43Z</time>
      </trkpt>
      <trkpt lat="48.94017" lon="2.10274">
        <ele>44.18</ele>
        <time>2020-01-05T12:59:03Z</time>
      </trkpt>
      <trkpt lat="48.94017" lon="2.10273">
        <ele>43.37</ele>
        <time>2020-01-05T12:59:21Z</time>
      </trkpt>
      <trkpt lat="48.94015" lon="2.10274">
        <ele>43.44</ele>
        <time>2020-01-05T12:59:41Z</time>
      </trkpt>
      <trkpt lat="48.94015" lon="2.10272">
        <ele>43.42</ele>
        <time>2020-01-05T12:59:59Z</time>
      </trkpt>
      <trkpt lat="48.94015" lon="2.10272">
        <ele>43.61</ele>
        <time>2020-01-05T13:00:11Z</time>
      </trkpt>
      <trkpt lat="48.94015" lon="2.10268">
        <ele>43.88</ele>
        <time>2020-01-05T13:00:25Z</time>
      </trkpt>
      <trkpt lat="48.94015" lon="2.10267">
        <ele>43.67</ele>
        <time>2020-01-05T13:00:41Z</time>
      </trkpt>
      <trkpt lat="48.94013" lon="2.10269">
        <ele>44.36</ele>
        <time>2020-01-05T13:00:59Z</time>
      </trkpt>
      <trkpt lat="48.94009" lon="2.1027">
        <ele>44.05</ele>
        <time>2020-01-05T13:01:03Z</time>
      </trkpt>
      <trkpt lat="48.94" lon="2.10277">
        <ele>43.76</ele>
        <time>2020-01-05T13:01:17Z</time>
      </trkpt>
      <trkpt lat="48.93996" lon="2.10275">
        <ele>44.09</ele>
        <time>2020-01-05T13:01:22Z</time>
      </trkpt>
      <trkpt lat="48.93983" lon="2.1027">
        <ele>44.27</ele>
        <time>2020-01-05T13:01:36Z</time>
      </trkpt>
      <trkpt lat="48.93968" lon="2.10266">
        <ele>44.24</ele>
        <time>2020-01-05T13:01:51Z</time>
      </trkpt>
      <trkpt lat="48.93949" lon="2.10258">
        <ele>44.22</ele>
        <time>2020-01-05T13:02:08Z</time>
      </trkpt>
      <trkpt lat="48.93948" lon="2.10258">
        <ele>44.41</ele>
        <time>2020-01-05T13:02:09Z</time>
      </trkpt>
      <trkpt lat="48.93945" lon="2.10256">
        <ele>44.67</ele>
        <time>2020-01-05T13:02:12Z</time>
      </trkpt>
      <trkpt lat="48.93937" lon="2.10252">
        <ele>44.7</ele>
        <time>2020-01-05T13:02:18Z</time>
      </trkpt>
      <trkpt lat="48.93933" lon="2.10251">
        <ele>44.45</ele>
        <time>2020-01-05T13:02:22Z</time>
      </trkpt>
      <trkpt lat="48.93914" lon="2.10246">
        <ele>44.69</ele>
        <time>2020-01-05T13:02:39Z</time>
      </trkpt>
      <trkpt lat="48.93908" lon="2.10243">
        <ele>44.67</ele>
        <time>2020-01-05T13:02:45Z</time>
      </trkpt>
      <trkpt lat="48.9389" lon="2.10235">
        <ele>44.71</ele>
        <time>2020-01-05T13:03:00Z</time>
      </trkpt>
      <trkpt lat="48.93886" lon="2.10235">
        <ele>45.47</ele>
        <time>2020-01-05T13:03:04Z</time>
      </trkpt>
      <trkpt lat="48.93884" lon="2.10234">
        <ele>45.37</ele>
        <time>2020-01-05T13:03:06Z</time>
      </trkpt>
      <trkpt lat="48.93873" lon="2.10232">
        <ele>45.37</ele>
        <time>2020-01-05T13:03:17Z</time>
      </trkpt>
      <trkpt lat="48.93856" lon="2.10222">
        <ele>45.92</ele>
        <time>2020-01-05T13:03:34Z</time>
      </trkpt>
      <trkpt lat="48.93853" lon="2.1022">
        <ele>45.95</ele>
        <time>2020-01-05T13:03:36Z</time>
      </trkpt>
      <trkpt lat="48.9384" lon="2.10214">
        <ele>45.66</ele>
        <time>2020-01-05T13:03:49Z</time>
      </trkpt>
      <trkpt lat="48.93836" lon="2.10214">
        <ele>46.09</ele>
        <time>2020-01-05T13:03:53Z</time>
      </trkpt>
      <trkpt lat="48.93823" lon="2.10206">
        <ele>46.38</ele>
        <time>2020-01-05T13:04:05Z</time>
      </trkpt>
      <trkpt lat="48.93805" lon="2.10201">
        <ele>46.67</ele>
        <time>2020-01-05T13:04:21Z</time>
      </trkpt>
      <trkpt lat="48.93789" lon="2.10197">
        <ele>47.41</ele>
        <time>2020-01-05T13:04:36Z</time>
      </trkpt>
      <trkpt lat="48.93784" lon="2.10195">
        <ele>47.65</ele>
        <time>2020-01-05T13:04:41Z</time>
      </trkpt>
      <trkpt lat="48.9377" lon="2.10186">
        <ele>47.77</ele>
        <time>2020-01-05T13:04:57Z</time>
      </trkpt>
      <trkpt lat="48.93769" lon="2.10185">
        <ele>47.98</ele>
        <time>2020-01-05T13:04:58Z</time>
      </trkpt>
      <trkpt lat="48.93751" lon="2.1018">
        <ele>48.1</ele>
        <time>2020-01-05T13:05:14Z</time>
      </trkpt>
      <trkpt lat="48.9373" lon="2.1017">
        <ele>49.35</ele>
        <time>2020-01-05T13:05:32Z</time>
      </trkpt>
      <trkpt lat="48.93711" lon="2.10167">
        <ele>49.37</ele>
        <time>2020-01-05T13:05:50Z</time>
      </trkpt>
      <trkpt lat="48.93694" lon="2.10162">
        <ele>50.41</ele>
        <time>2020-01-05T13:06:08Z</time>
      </trkpt>
      <trkpt lat="48.93671" lon="2.1015">
        <ele>50.65</ele>
        <time>2020-01-05T13:06:28Z</time>
      </trkpt>
      <trkpt lat="48.93658" lon="2.10144">
        <ele>51.15</ele>
        <time>2020-01-05T13:06:41Z</time>
      </trkpt>
      <trkpt lat="48.93652" lon="2.10142">
        <ele>50.92</ele>
        <time>2020-01-05T13:06:47Z</time>
      </trkpt>
      <trkpt lat="48.93649" lon="2.10142">
        <ele>51.42</ele>
        <time>2020-01-05T13:06:49Z</time>
      </trkpt>
      <trkpt lat="48.93633" lon="2.10133">
        <ele>51.32</ele>
        <time>2020-01-05T13:07:03Z</time>
      </trkpt>
      <trkpt lat="48.93621" lon="2.10126">
        <ele>51.66</ele>
        <time>2020-01-05T13:07:21Z</time>
      </trkpt>
      <trkpt lat="48.93621" lon="2.10125">
        <ele>52.14</ele>
        <time>2020-01-05T13:07:49Z</time>
      </trkpt>
      <trkpt lat="48.93621" lon="2.10125">
        <ele>52.22</ele>
        <time>2020-01-05T13:08:15Z</time>
      </trkpt>
      <trkpt lat="48.93612" lon="2.10124">
        <ele>51.96</ele>
        <time>2020-01-05T13:08:39Z</time>
      </trkpt>
      <trkpt lat="48.936" lon="2.10121">
        <ele>52.09</ele>
        <time>2020-01-05T13:08:52Z</time>
      </trkpt>
      <trkpt lat="48.9358" lon="2.10119">
        <ele>52.9</ele>
        <time>2020-01-05T13:09:12Z</time>
      </trkpt>
      <trkpt lat="48.93561" lon="2.10116">
        <ele>53.07</ele>
        <time>2020-01-05T13:09:29Z</time>
      </trkpt>
      <trkpt lat="48.93536" lon="2.10109">
        <ele>52.84</ele>
        <time>2020-01-05T13:09:50Z</time>
      </trkpt>
      <trkpt lat="48.93515" lon="2.10102">
        <ele>52.5</ele>
        <time>2020-01-05T13:10:08Z</time>
      </trkpt>
      <trkpt lat="48.935" lon="2.10097">
        <ele>52.66</ele>
        <time>2020-01-05T13:10:23Z</time>
      </trkpt>
      <trkpt lat="48.93486" lon="2.10095">
        <ele>52.46</ele>
        <time>2020-01-05T13:10:38Z</time>
      </trkpt>
      <trkpt lat="48.93474" lon="2.10091">
        <ele>52.56</ele>
        <time>2020-01-05T13:10:57Z</time>
      </trkpt>
      <trkpt lat="48.9347" lon="2.10092">
        <ele>52.09</ele>
        <time>2020-01-05T13:11:21Z</time>
      </trkpt>
      <trkpt lat="48.93469" lon="2.10093">
        <ele>52.29</ele>
        <time>2020-01-05T13:11:45Z</time>
      </trkpt>
      <trkpt lat="48.93468" lon="2.10095">
        <ele>52.08</ele>
        <time>2020-01-05T13:12:10Z</time>
      </trkpt>
      <trkpt lat="48.93469" lon="2.10095">
        <ele>52.52</ele>
        <time>2020-01-05T13:12:37Z</time>
      </trkpt>
      <trkpt lat="48.93469" lon="2.10097">
        <ele>52.75</ele>
        <time>2020-01-05T13:13:08Z</time>
      </trkpt>
      <trkpt lat="48.9347" lon="2.10096">
        <ele>52.77</ele>
        <time>2020-01-05T13:13:35Z</time>
      </trkpt>
      <trkpt lat="48.93467" lon="2.10097">
        <ele>52.81</ele>
        <time>2020-01-05T13:14:00Z</time>
      </trkpt>
      <trkpt lat="48.93457" lon="2.101">
        <ele>53.29</ele>
        <time>2020-01-05T13:14:17Z</time>
      </trkpt>
      <trkpt lat="48.93446" lon="2.10093">
        <ele>53.3</ele>
        <time>2020-01-05T13:14:31Z</time>
      </trkpt>
      <trkpt lat="48.93428" lon="2.10085">
        <ele>52.36</ele>
        <time>2020-01-05T13:14:51Z</time>
      </trkpt>
      <trkpt lat="48.93404" lon="2.10079">
        <ele>53.12</ele>
        <time>2020-01-05T13:15:11Z</time>
      </trkpt>
      <trkpt lat="48.93398" lon="2.10076">
        <ele>52.77</ele>
        <time>2020-01-05T13:15:16Z</time>
      </trkpt>
      <trkpt lat="48.93386" lon="2.10074">
        <ele>53.44</ele>
        <time>2020-01-05T13:15:29Z</time>
      </trkpt>
      <trkpt lat="48.93368" lon="2.10069">
        <ele>52.64</ele>
        <time>2020-01-05T13:15:47Z</time>
      </trkpt>
      <trkpt lat="48.93362" lon="2.1007">
        <ele>52.65</ele>
        <time>2020-01-05T13:15:52Z</time>
      </trkpt>
      <trkpt lat="48.93358" lon="2.10068">
        <ele>52.75</ele>
        <time>2020-01-05T13:15:55Z</time>
      </trkpt>
      <trkpt lat="48.93337" lon="2.10062">
        <ele>52.99</ele>
        <time>2020-01-05T13:16:13Z</time>
      </trkpt>
      <trkpt lat="48.93321" lon="2.10058">
        <ele>53.02</ele>
        <time>2020-01-05T13:16:27Z</time>
      </trkpt>
      <trkpt lat="48.93306" lon="2.10056">
        <ele>52.84</ele>
        <time>2020-01-05T13:16:40Z</time>
      </trkpt>
      <trkpt lat="48.93291" lon="2.10049">
        <ele>52.42</ele>
        <time>2020-01-05T13:16:54Z</time>
      </trkpt>
      <trkpt lat="48.93275" lon="2.10037">
        <ele>52.61</ele>
        <time>2020-01-05T13:17:06Z</time>
      </trkpt>
      <trkpt lat="48.93261" lon="2.10031">
        <ele>52.16</ele>
        <time>2020-01-05T13:17:19Z</time>
      </trkpt>
      <trkpt lat="48.93238" lon="2.10023">
        <ele>51.79</ele>
        <time>2020-01-05T13:17:39Z</time>
      </trkpt>
      <trkpt lat="48.93234" lon="2.10026">
        <ele>51.7</ele>
        <time>2020-01-05T13:17:43Z</time>
      </trkpt>
      <trkpt lat="48.9323" lon="2.10024">
        <ele>51.63</ele>
        <time>2020-01-05T13:17:47Z</time>
      </trkpt>
      <trkpt lat="48.93223" lon="2.10021">
        <ele>51.49</ele>
        <time>2020-01-05T13:17:52Z</time>
      </trkpt>
      <trkpt lat="48.93219" lon="2.10019">
        <ele>51.5</ele>
        <time>2020-01-05T13:17:55Z</time>
      </trkpt>
      <trkpt lat="48.93214" lon="2.10013">
        <ele>51.45</ele>
        <time>2020-01-05T13:17:59Z</time>
      </trkpt>
      <trkpt lat="48.93199" lon="2.10004">
        <ele>51.45</ele>
        <time>2020-01-05T13:18:11Z</time>
      </trkpt>
      <trkpt lat="48.93183" lon="2.09996">
        <ele>51.94</ele>
        <time>2020-01-05T13:18:25Z</time>
      </trkpt>
      <trkpt lat="48.93173" lon="2.09995">
        <ele>51.71</ele>
        <time>2020-01-05T13:18:33Z</time>
      </trkpt>
      <trkpt lat="48.93157" lon="2.09988">
        <ele>51.57</ele>
        <time>2020-01-05T13:18:45Z</time>
      </trkpt>
      <trkpt lat="48.93147" lon="2.0998">
        <ele>51.17</ele>
        <time>2020-01-05T13:18:54Z</time>
      </trkpt>
      <trkpt lat="48.93131" lon="2.09974">
        <ele>51.2</ele>
        <time>2020-01-05T13:19:06Z</time>
      </trkpt>
      <trkpt lat="48.93129" lon="2.09973">
        <ele>51.09</ele>
        <time>2020-01-05T13:19:08Z</time>
      </trkpt>
      <trkpt lat="48.93112" lon="2.09963">
        <ele>50.88</ele>
        <time>2020-01-05T13:19:22Z</time>
      </trkpt>
      <trkpt lat="48.93093" lon="2.09955">
        <ele>51.12</ele>
        <time>2020-01-05T13:19:37Z</time>
      </trkpt>
      <trkpt lat="48.93076" lon="2.09946">
        <ele>51.84</ele>
        <time>2020-01-05T13:19:52Z</time>
      </trkpt>
      <trkpt lat="48.93067" lon="2.09937">
        <ele>51.08</ele>
        <time>2020-01-05T13:20:02Z</time>
      </trkpt>
      <trkpt lat="48.93061" lon="2.09933">
        <ele>51.36</ele>
        <time>2020-01-05T13:20:07Z</time>
      </trkpt>
      <trkpt lat="48.93057" lon="2.09931">
        <ele>51.21</ele>
        <time>2020-01-05T13:20:10Z</time>
      </trkpt>
      <trkpt lat="48.93052" lon="2.09929">
        <ele>51.14</ele>
        <time>2020-01-05T13:20:14Z</time>
      </trkpt>
      <trkpt lat="48.93036" lon="2.09923">
        <ele>51.32</ele>
        <time>2020-01-05T13:20:27Z</time>
      </trkpt>
      <trkpt lat="48.93028" lon="2.09918">
        <ele>51.96</ele>
        <time>2020-01-05T13:20:34Z</time>
      </trkpt>
      <trkpt lat="48.93019" lon="2.09914">
        <ele>52.19</ele>
        <time>2020-01-05T13:20:41Z</time>
      </trkpt>
      <trkpt lat="48.93015" lon="2.09913">
        <ele>52.2</ele>
        <time>2020-01-05T13:20:44Z</time>
      </trkpt>
      <trkpt lat="48.93011" lon="2.0991">
        <ele>52.1</ele>
        <time>2020-01-05T13:20:47Z</time>
      </trkpt>
      <trkpt lat="48.93003" lon="2.09909">
        <ele>51.91</ele>
        <time>2020-01-05T13:20:54Z</time>
      </trkpt>
      <trkpt lat="48.92987" lon="2.09902">
        <ele>52.47</ele>
        <time>2020-01-05T13:21:07Z</time>
      </trkpt>
      <trkpt lat="48.92973" lon="2.09894">
        <ele>52.61</ele>
        <time>2020-01-05T13:21:18Z</time>
      </trkpt>
      <trkpt lat="48.9296" lon="2.09885">
        <ele>52.52</ele>
        <time>2020-01-05T13:21:30Z</time>
      </trkpt>
      <trkpt lat="48.92959" lon="2.09884">
        <ele>52.86</ele>
        <time>2020-01-05T13:21:31Z</time>
      </trkpt>
      <trkpt lat="48.92956" lon="2.09882">
        <ele>52.48</ele>
        <time>2020-01-05T13:21:34Z</time>
      </trkpt>
      <trkpt lat="48.92944" lon="2.09876">
        <ele>52.89</ele>
        <time>2020-01-05T13:21:44Z</time>
      </trkpt>
      <trkpt lat="48.92932" lon="2.09872">
        <ele>52.8</ele>
        <time>2020-01-05T13:21:53Z</time>
      </trkpt>
      <trkpt lat="48.92918" lon="2.09866">
        <ele>53.11</ele>
        <time>2020-01-05T13:22:05Z</time>
      </trkpt>
      <trkpt lat="48.92916" lon="2.09865">
        <ele>52.96</ele>
        <time>2020-01-05T13:22:07Z</time>
      </trkpt>
      <trkpt lat="48.92905" lon="2.09859">
        <ele>53.66</ele>
        <time>2020-01-05T13:22:16Z</time>
      </trkpt>
      <trkpt lat="48.92898" lon="2.09856">
        <ele>53.35</ele>
        <time>2020-01-05T13:22:22Z</time>
      </trkpt>
      <trkpt lat="48.92884" lon="2.09847">
        <ele>53.81</ele>
        <time>2020-01-05T13:22:35Z</time>
      </trkpt>
      <trkpt lat="48.92878" lon="2.09842">
        <ele>53.96</ele>
        <time>2020-01-05T13:22:51Z</time>
      </trkpt>
      <trkpt lat="48.92878" lon="2.09841">
        <ele>54.3</ele>
        <time>2020-01-05T13:23:19Z</time>
      </trkpt>
      <trkpt lat="48.92878" lon="2.09841">
        <ele>54.74</ele>
        <time>2020-01-05T13:23:45Z</time>
      </trkpt>
      <trkpt lat="48.92867" lon="2.09836">
        <ele>54.92</ele>
        <time>2020-01-05T13:24:00Z</time>
      </trkpt>
      <trkpt lat="48.9285" lon="2.09824">
        <ele>54.92</ele>
        <time>2020-01-05T13:24:20Z</time>
      </trkpt>
      <trkpt lat="48.92836" lon="2.09811">
        <ele>54.67</ele>
        <time>2020-01-05T13:24:38Z</time>
      </trkpt>
      <trkpt lat="48.92814" lon="2.09795">
        <ele>55.42</ele>
        <time>2020-01-05T13:24:57Z</time>
      </trkpt>
      <trkpt lat="48.928" lon="2.09783">
        <ele>55.11</ele>
        <time>2020-01-05T13:25:12Z</time>
      </trkpt>
      <trkpt lat="48.92779" lon="2.09764">
        <ele>55.57</ele>
        <time>2020-01-05T13:25:34Z</time>
      </trkpt>
      <trkpt lat="48.92757" lon="2.09751">
        <ele>55.3</ele>
        <time>2020-01-05T13:25:53Z</time>
      </trkpt>
      <trkpt lat="48.9275" lon="2.09746">
        <ele>55.86</ele>
        <time>2020-01-05T13:25:59Z</time>
      </trkpt>
      <trkpt lat="48.92746" lon="2.09743">
        <ele>54.5</ele>
        <time>2020-01-05T13:26:02Z</time>
      </trkpt>
      <trkpt lat="48.9274" lon="2.09737">
        <ele>54.8</ele>
        <time>2020-01-05T13:26:07Z</time>
      </trkpt>
      <trkpt lat="48.92721" lon="2.09727">
        <ele>55.1</ele>
        <time>2020-01-05T13:26:23Z</time>
      </trkpt>
      <trkpt lat="48.92704" lon="2.09711">
        <ele>54.72</ele>
        <time>2020-01-05T13:26:39Z</time>
      </trkpt>
      <trkpt lat="48.92698" lon="2.09702">
        <ele>55.55</ele>
        <time>2020-01-05T13:26:45Z</time>
      </trkpt>
      <trkpt lat="48.92676" lon="2.09681">
        <ele>55.04</ele>
        <time>2020-01-05T13:27:06Z</time>
      </trkpt>
      <trkpt lat="48.92661" lon="2.09674">
        <ele>55.46</ele>
        <time>2020-01-05T13:27:23Z</time>
      </trkpt>
      <trkpt lat="48.92632" lon="2.09658">
        <ele>54.99</ele>
        <time>2020-01-05T13:27:45Z</time>
      </trkpt>
      <trkpt lat="48.92612" lon="2.09641">
        <ele>55.76</ele>
        <time>2020-01-05T13:28:03Z</time>
      </trkpt>
      <trkpt lat="48.92587" lon="2.09623">
        <ele>55.86</ele>
        <time>2020-01-05T13:28:24Z</time>
      </trkpt>
      <trkpt lat="48.92567" lon="2.09612">
        <ele>55.89</ele>
        <time>2020-01-05T13:28:43Z</time>
      </trkpt>
      <trkpt lat="48.92545" lon="2.096">
        <ele>55.7</ele>
        <time>2020-01-05T13:29:00Z</time>
      </trkpt>
      <trkpt lat="48.92533" lon="2.09594">
        <ele>55.41</ele>
        <time>2020-01-05T13:29:21Z</time>
      </trkpt>
      <trkpt lat="48.9253" lon="2.096">
        <ele>54.87</ele>
        <time>2020-01-05T13:29:48Z</time>
      </trkpt>
      <trkpt lat="48.92531" lon="2.09606">
        <ele>55.38</ele>
        <time>2020-01-05T13:30:12Z</time>
      </trkpt>
      <trkpt lat="48.92533" lon="2.09607">
        <ele>55.62</ele>
        <time>2020-01-05T13:30:38Z</time>
      </trkpt>
      <trkpt lat="48.92536" lon="2.09606">
        <ele>55.53</ele>
        <time>2020-01-05T13:31:04Z</time>
      </trkpt>
      <trkpt lat="48.92537" lon="2.09604">
        <ele>55.68</ele>
        <time>2020-01-05T13:31:29Z</time>
      </trkpt>
      <trkpt lat="48.92535" lon="2.09606">
        <ele>56.26</ele>
        <time>2020-01-05T13:31:53Z</time>
      </trkpt>
      <trkpt lat="48.92536" lon="2.09605">
        <ele>56.89</ele>
        <time>2020-01-05T13:32:16Z</time>
      </trkpt>
      <trkpt lat="48.92536" lon="2.09606">
        <ele>56.91</ele>
        <time>2020-01-05T13:32:38Z</time>
      </trkpt>
      <trkpt lat="48.92534" lon="2.09605">
        <ele>57.26</ele>
        <time>2020-01-05T13:33:01Z</time>
      </trkpt>
      <trkpt lat="48.92523" lon="2.09605">
        <ele>56.84</ele>
        <time>2020-01-05T13:33:16Z</time>
      </trkpt>
      <trkpt lat="48.92522" lon="2.09606">
        <ele>56.85</ele>
        <time>2020-01-05T13:33:17Z</time>
      </trkpt>
      <trkpt lat="48.9251" lon="2.0961">
        <ele>56.91</ele>
        <time>2020-01-05T13:33:34Z</time>
      </trkpt>
      <trkpt lat="48.92495" lon="2.09614">
        <ele>57.61</ele>
        <time>2020-01-05T13:33:51Z</time>
      </trkpt>
      <trkpt lat="48.92472" lon="2.09614">
        <ele>57.4</ele>
        <time>2020-01-05T13:34:12Z</time>
      </trkpt>
      <trkpt lat="48.92451" lon="2.09611">
        <ele>57.82</ele>
        <time>2020-01-05T13:34:32Z</time>
      </trkpt>
      <trkpt lat="48.92432" lon="2.09614">
        <ele>58.28</ele>
        <time>2020-01-05T13:34:52Z</time>
      </trkpt>
      <trkpt lat="48.92415" lon="2.09616">
        <ele>58.05</ele>
        <time>2020-01-05T13:35:11Z</time>
      </trkpt>
      <trkpt lat="48.924" lon="2.09619">
        <ele>57.88</ele>
        <time>2020-01-05T13:35:30Z</time>
      </trkpt>
      <trkpt lat="48.92376" lon="2.09619">
        <ele>58.28</ele>
        <time>2020-01-05T13:35:50Z</time>
      </trkpt>
      <trkpt lat="48.92368" lon="2.09623">
        <ele>58.02</ele>
        <time>2020-01-05T13:36:01Z</time>
      </trkpt>
      <trkpt lat="48.92349" lon="2.09621">
        <ele>58.14</ele>
        <time>2020-01-05T13:36:16Z</time>
      </trkpt>
      <trkpt lat="48.92326" lon="2.09624">
        <ele>58.2</ele>
        <time>2020-01-05T13:36:37Z</time>
      </trkpt>
      <trkpt lat="48.92307" lon="2.09623">
        <ele>58.13</ele>
        <time>2020-01-05T13:36:52Z</time>
      </trkpt>
      <trkpt lat="48.92291" lon="2.09626">
        <ele>58.02</ele>
        <time>2020-01-05T13:37:10Z</time>
      </trkpt>
      <trkpt lat="48.92276" lon="2.09631">
        <ele>58.44</ele>
        <time>2020-01-05T13:37:31Z</time>
      </trkpt>
      <trkpt lat="48.92249" lon="2.09622">
        <ele>58.88</ele>
        <time>2020-01-05T13:37:53Z</time>
      </trkpt>
      <trkpt lat="48.92244" lon="2.09618">
        <ele>59.04</ele>
        <time>2020-01-05T13:37:58Z</time>
      </trkpt>
      <trkpt lat="48.9222" lon="2.0962">
        <ele>58.5</ele>
        <time>2020-01-05T13:38:21Z</time>
      </trkpt>
      <trkpt lat="48.92196" lon="2.09619">
        <ele>58.98</ele>
        <time>2020-01-05T13:38:40Z</time>
      </trkpt>
      <trkpt lat="48.92171" lon="2.09623">
        <ele>58.78</ele>
        <time>2020-01-05T13:39:03Z</time>
      </trkpt>
      <trkpt lat="48.92147" lon="2.09635">
        <ele>58.81</ele>
        <time>2020-01-05T13:39:26Z</time>
      </trkpt>
      <trkpt lat="48.92125" lon="2.09636">
        <ele>59.06</ele>
        <time>2020-01-05T13:39:48Z</time>
      </trkpt>
      <trkpt lat="48.92106" lon="2.09636">
        <ele>58.48</ele>
        <time>2020-01-05T13:40:10Z</time>
      </trkpt>
      <trkpt lat="48.92078" lon="2.09623">
        <ele>58.18</ele>
        <time>2020-01-05T13:40:33Z</time>
      </trkpt>
      <trkpt lat="48.92056" lon="2.09614">
        <ele>58.12</ele>
        <time>2020-01-05T13:40:54Z</time>
      </trkpt>
      <trkpt lat="48.92027" lon="2.09633">
        <ele>57.53</ele>
        <time>2020-01-05T13:41:15Z</time>
      </trkpt>
      <trkpt lat="48.92015" lon="2.09633">
        <ele>57.48</ele>
        <time>2020-01-05T13:41:28Z</time>
      </trkpt>
      <trkpt lat="48.92013" lon="2.09634">
        <ele>57.14</ele>
        <time>2020-01-05T13:41:30Z</time>
      </trkpt>
      <trkpt lat="48.9201" lon="2.09636">
        <ele>57.34</ele>
        <time>2020-01-05T13:41:43Z</time>
      </trkpt>
      <trkpt lat="48.91992" lon="2.09641">
        <ele>56.92</ele>
        <time>2020-01-05T13:42:03Z</time>
      </trkpt>
      <trkpt lat="48.91991" lon="2.09646">
        <ele>56.92</ele>
        <time>2020-01-05T13:42:18Z</time>
      </trkpt>
      <trkpt lat="48.9199" lon="2.09641">
        <ele>56.41</ele>
        <time>2020-01-05T13:42:41Z</time>
      </trkpt>
      <trkpt lat="48.91992" lon="2.09636">
        <ele>57.37</ele>
        <time>2020-01-05T13:43:07Z</time>
      </trkpt>
      <trkpt lat="48.91988" lon="2.09637">
        <ele>56.98</ele>
        <time>2020-01-05T13:43:29Z</time>
      </trkpt>
      <trkpt lat="48.91974" lon="2.09654">
        <ele>56.84</ele>
        <time>2020-01-05T13:43:46Z</time>
      </trkpt>
      <trkpt lat="48.91964" lon="2.09673">
        <ele>56.83</ele>
        <time>2020-01-05T13:44:06Z</time>
      </trkpt>
      <trkpt lat="48.91959" lon="2.09691">
        <ele>56.95</ele>
        <time>2020-01-05T13:44:27Z</time>
      </trkpt>
      <trkpt lat="48.91946" lon="2.09718">
        <ele>55.94</ele>
        <time>2020-01-05T13:44:45Z</time>
      </trkpt>
      <trkpt lat="48.91934" lon="2.09742">
        <ele>54.84</ele>
        <time>2020-01-05T13:45:06Z</time>
      </trkpt>
      <trkpt lat="48.91932" lon="2.09747">
        <ele>54.92</ele>
        <time>2020-01-05T13:45:10Z</time>
      </trkpt>
      <trkpt lat="48.9192" lon="2.09767">
        <ele>53.46</ele>
        <time>2020-01-05T13:45:24Z</time>
      </trkpt>
      <trkpt lat="48.9191" lon="2.09787">
        <ele>52.56</ele>
        <time>2020-01-05T13:45:41Z</time>
      </trkpt>
      <trkpt lat="48.91908" lon="2.0979">
        <ele>52.36</ele>
        <time>2020-01-05T13:45:43Z</time>
      </trkpt>
      <trkpt lat="48.91893" lon="2.09815">
        <ele>51.62</ele>
        <time>2020-01-05T13:46:00Z</time>
      </trkpt>
      <trkpt lat="48.91884" lon="2.09833">
        <ele>50.72</ele>
        <time>2020-01-05T13:46:17Z</time>
      </trkpt>
      <trkpt lat="48.91875" lon="2.09851">
        <ele>50.9</ele>
        <time>2020-01-05T13:46:30Z</time>
      </trkpt>
      <trkpt lat="48.91872" lon="2.09856">
        <ele>50.91</ele>
        <time>2020-01-05T13:46:33Z</time>
      </trkpt>
      <trkpt lat="48.91864" lon="2.09871">
        <ele>49.99</ele>
        <time>2020-01-05T13:46:43Z</time>
      </trkpt>
      <trkpt lat="48.91851" lon="2.09897">
        <ele>49.32</ele>
        <time>2020-01-05T13:47:02Z</time>
      </trkpt>
      <trkpt lat="48.91838" lon="2.09919">
        <ele>48.27</ele>
        <time>2020-01-05T13:47:19Z</time>
      </trkpt>
      <trkpt lat="48.91826" lon="2.09944">
        <ele>45.45</ele>
        <time>2020-01-05T13:47:35Z</time>
      </trkpt>
      <trkpt lat="48.91822" lon="2.0996">
        <ele>47.04</ele>
        <time>2020-01-05T13:47:50Z</time>
      </trkpt>
      <trkpt lat="48.91825" lon="2.09985">
        <ele>47.1</ele>
        <time>2020-01-05T13:48:08Z</time>
      </trkpt>
      <trkpt lat="48.91837" lon="2.1001">
        <ele>47.39</ele>
        <time>2020-01-05T13:48:26Z</time>
      </trkpt>
      <trkpt lat="48.91848" lon="2.10041">
        <ele>47.54</ele>
        <time>2020-01-05T13:48:46Z</time>
      </trkpt>
      <trkpt lat="48.91857" lon="2.10065">
        <ele>47.48</ele>
        <time>2020-01-05T13:49:06Z</time>
      </trkpt>
      <trkpt lat="48.91865" lon="2.10076">
        <ele>47.38</ele>
        <time>2020-01-05T13:49:16Z</time>
      </trkpt>
      <trkpt lat="48.91873" lon="2.1011">
        <ele>47.34</ele>
        <time>2020-01-05T13:49:40Z</time>
      </trkpt>
      <trkpt lat="48.919" lon="2.1014">
        <ele>47.01</ele>
        <time>2020-01-05T13:50:00Z</time>
      </trkpt>
      <trkpt lat="48.91902" lon="2.10143">
        <ele>46.32</ele>
        <time>2020-01-05T13:50:02Z</time>
      </trkpt>
      <trkpt lat="48.91909" lon="2.10149">
        <ele>46.83</ele>
        <time>2020-01-05T13:50:08Z</time>
      </trkpt>
      <trkpt lat="48.91916" lon="2.10162">
        <ele>46.67</ele>
        <time>2020-01-05T13:50:15Z</time>
      </trkpt>
      <trkpt lat="48.91926" lon="2.1018">
        <ele>46.65</ele>
        <time>2020-01-05T13:50:27Z</time>
      </trkpt>
      <trkpt lat="48.91935" lon="2.10199">
        <ele>46.75</ele>
        <time>2020-01-05T13:50:39Z</time>
      </trkpt>
      <trkpt lat="48.91935" lon="2.10201">
        <ele>46.45</ele>
        <time>2020-01-05T13:50:40Z</time>
      </trkpt>
      <trkpt lat="48.91937" lon="2.10206">
        <ele>46.36</ele>
        <time>2020-01-05T13:50:43Z</time>
      </trkpt>
      <trkpt lat="48.9194" lon="2.1021">
        <ele>46.82</ele>
        <time>2020-01-05T13:50:46Z</time>
      </trkpt>
      <trkpt lat="48.91942" lon="2.10224">
        <ele>46.19</ele>
        <time>2020-01-05T13:50:54Z</time>
      </trkpt>
      <trkpt lat="48.91945" lon="2.10228">
        <ele>46.01</ele>
        <time>2020-01-05T13:50:57Z</time>
      </trkpt>
      <trkpt lat="48.91949" lon="2.10241">
        <ele>46.5</ele>
        <time>2020-01-05T13:51:05Z</time>
      </trkpt>
      <trkpt lat="48.91961" lon="2.1028">
        <ele>46.43</ele>
        <time>2020-01-05T13:51:26Z</time>
      </trkpt>
      <trkpt lat="48.91969" lon="2.10301">
        <ele>45.63</ele>
        <time>2020-01-05T13:51:39Z</time>
      </trkpt>
      <trkpt lat="48.91969" lon="2.10308">
        <ele>46.41</ele>
        <time>2020-01-05T13:51:43Z</time>
      </trkpt>
      <trkpt lat="48.9197" lon="2.10311">
        <ele>46.2</ele>
        <time>2020-01-05T13:51:45Z</time>
      </trkpt>
      <trkpt lat="48.91975" lon="2.1032">
        <ele>45.84</ele>
        <time>2020-01-05T13:51:52Z</time>
      </trkpt>
      <trkpt lat="48.91976" lon="2.10331">
        <ele>46.69</ele>
        <time>2020-01-05T13:51:58Z</time>
      </trkpt>
      <trkpt lat="48.91978" lon="2.10343">
        <ele>46.21</ele>
        <time>2020-01-05T13:52:06Z</time>
      </trkpt>
      <trkpt lat="48.91985" lon="2.10361">
        <ele>46.05</ele>
        <time>2020-01-05T13:52:19Z</time>
      </trkpt>
      <trkpt lat="48.91995" lon="2.10381">
        <ele>46.44</ele>
        <time>2020-01-05T13:52:32Z</time>
      </trkpt>
      <trkpt lat="48.92001" lon="2.10393">
        <ele>46.54</ele>
        <time>2020-01-05T13:52:39Z</time>
      </trkpt>
      <trkpt lat="48.92002" lon="2.10398">
        <ele>45.74</ele>
        <time>2020-01-05T13:52:42Z</time>
      </trkpt>
      <trkpt lat="48.92005" lon="2.10412">
        <ele>45.97</ele>
        <time>2020-01-05T13:52:57Z</time>
      </trkpt>
      <trkpt lat="48.92005" lon="2.10413">
        <ele>46.08</ele>
        <time>2020-01-05T13:52:58Z</time>
      </trkpt>
      <trkpt lat="48.92006" lon="2.10417">
        <ele>46.17</ele>
        <time>2020-01-05T13:53:03Z</time>
      </trkpt>
      <trkpt lat="48.92006" lon="2.10418">
        <ele>46.1</ele>
        <time>2020-01-05T13:53:25Z</time>
      </trkpt>
      <trkpt lat="48.92008" lon="2.10422">
        <ele>45.6</ele>
        <time>2020-01-05T13:53:42Z</time>
      </trkpt>
      <trkpt lat="48.9201" lon="2.10425">
        <ele>45.97</ele>
        <time>2020-01-05T13:53:45Z</time>
      </trkpt>
      <trkpt lat="48.92017" lon="2.10439">
        <ele>46.05</ele>
        <time>2020-01-05T13:53:56Z</time>
      </trkpt>
      <trkpt lat="48.9202" lon="2.10448">
        <ele>46.19</ele>
        <time>2020-01-05T13:54:02Z</time>
      </trkpt>
      <trkpt lat="48.92024" lon="2.10456">
        <ele>45.74</ele>
        <time>2020-01-05T13:54:08Z</time>
      </trkpt>
      <trkpt lat="48.92025" lon="2.10465">
        <ele>46.06</ele>
        <time>2020-01-05T13:54:14Z</time>
      </trkpt>
      <trkpt lat="48.92034" lon="2.10485">
        <ele>45.98</ele>
        <time>2020-01-05T13:54:28Z</time>
      </trkpt>
      <trkpt lat="48.92038" lon="2.10499">
        <ele>45.9</ele>
        <time>2020-01-05T13:54:37Z</time>
      </trkpt>
      <trkpt lat="48.92039" lon="2.10504">
        <ele>45.94</ele>
        <time>2020-01-05T13:54:40Z</time>
      </trkpt>
      <trkpt lat="48.92046" lon="2.10523">
        <ele>45.61</ele>
        <time>2020-01-05T13:54:54Z</time>
      </trkpt>
      <trkpt lat="48.92057" lon="2.10546">
        <ele>45.5</ele>
        <time>2020-01-05T13:55:09Z</time>
      </trkpt>
      <trkpt lat="48.92064" lon="2.10563">
        <ele>45.79</ele>
        <time>2020-01-05T13:55:21Z</time>
      </trkpt>
      <trkpt lat="48.92066" lon="2.10567">
        <ele>45.48</ele>
        <time>2020-01-05T13:55:26Z</time>
      </trkpt>
      <trkpt lat="48.92074" lon="2.10585">
        <ele>46.16</ele>
        <time>2020-01-05T13:55:42Z</time>
      </trkpt>
      <trkpt lat="48.92076" lon="2.10589">
        <ele>45.85</ele>
        <time>2020-01-05T13:55:45Z</time>
      </trkpt>
      <trkpt lat="48.92077" lon="2.10596">
        <ele>45.45</ele>
        <time>2020-01-05T13:56:01Z</time>
      </trkpt>
      <trkpt lat="48.92079" lon="2.10602">
        <ele>45.86</ele>
        <time>2020-01-05T13:56:21Z</time>
      </trkpt>
      <trkpt lat="48.92079" lon="2.10601">
        <ele>45.73</ele>
        <time>2020-01-05T13:56:45Z</time>
      </trkpt>
      <trkpt lat="48.9208" lon="2.10602">
        <ele>45.97</ele>
        <time>2020-01-05T13:57:11Z</time>
      </trkpt>
      <trkpt lat="48.92077" lon="2.10605">
        <ele>46.46</ele>
        <time>2020-01-05T13:57:37Z</time>
      </trkpt>
      <trkpt lat="48.92078" lon="2.10606">
        <ele>46.93</ele>
        <time>2020-01-05T13:58:04Z</time>
      </trkpt>
      <trkpt lat="48.92077" lon="2.10609">
        <ele>47.11</ele>
        <time>2020-01-05T13:58:27Z</time>
      </trkpt>
      <trkpt lat="48.92076" lon="2.10608">
        <ele>47.6</ele>
        <time>2020-01-05T13:58:55Z</time>
      </trkpt>
      <trkpt lat="48.92075" lon="2.10609">
        <ele>47.22</ele>
        <time>2020-01-05T13:59:31Z</time>
      </trkpt>
      <trkpt lat="48.92075" lon="2.10607">
        <ele>47.28</ele>
        <time>2020-01-05T13:59:56Z</time>
      </trkpt>
      <trkpt lat="48.92076" lon="2.10606">
        <ele>47.96</ele>
        <time>2020-01-05T14:00:23Z</time>
      </trkpt>
      <trkpt lat="48.92077" lon="2.10608">
        <ele>47.36</ele>
        <time>2020-01-05T14:00:47Z</time>
      </trkpt>
      <trkpt lat="48.92076" lon="2.10607">
        <ele>48.23</ele>
        <time>2020-01-05T14:01:23Z</time>
      </trkpt>
      <trkpt lat="48.92078" lon="2.10607">
        <ele>47.95</ele>
        <time>2020-01-05T14:01:41Z</time>
      </trkpt>
      <trkpt lat="48.92078" lon="2.10607">
        <ele>48.45</ele>
        <time>2020-01-05T14:01:58Z</time>
      </trkpt>
      <trkpt lat="48.92073" lon="2.1061">
        <ele>48.62</ele>
        <time>2020-01-05T14:02:19Z</time>
      </trkpt>
      <trkpt lat="48.9207" lon="2.10611">
        <ele>48.72</ele>
        <time>2020-01-05T14:02:22Z</time>
      </trkpt>
      <trkpt lat="48.92062" lon="2.10618">
        <ele>47.25</ele>
        <time>2020-01-05T14:02:36Z</time>
      </trkpt>
      <trkpt lat="48.92058" lon="2.10624">
        <ele>47.24</ele>
        <time>2020-01-05T14:02:58Z</time>
      </trkpt>
      <trkpt lat="48.92044" lon="2.10634">
        <ele>45.71</ele>
        <time>2020-01-05T14:03:13Z</time>
      </trkpt>
      <trkpt lat="48.92042" lon="2.10637">
        <ele>45.74</ele>
        <time>2020-01-05T14:03:15Z</time>
      </trkpt>
      <trkpt lat="48.92039" lon="2.10639">
        <ele>44.46</ele>
        <time>2020-01-05T14:03:18Z</time>
      </trkpt>
      <trkpt lat="48.92029" lon="2.1065">
        <ele>41.16</ele>
        <time>2020-01-05T14:03:38Z</time>
      </trkpt>
      <trkpt lat="48.92021" lon="2.10672">
        <ele>37.77</ele>
        <time>2020-01-05T14:03:54Z</time>
      </trkpt>
      <trkpt lat="48.92017" lon="2.107">
        <ele>34.76</ele>
        <time>2020-01-05T14:04:12Z</time>
      </trkpt>
      <trkpt lat="48.92015" lon="2.10714">
        <ele>33.23</ele>
        <time>2020-01-05T14:04:21Z</time>
      </trkpt>
      <trkpt lat="48.92012" lon="2.10734">
        <ele>32.21</ele>
        <time>2020-01-05T14:04:39Z</time>
      </trkpt>
      <trkpt lat="48.92013" lon="2.10735">
        <ele>32.26</ele>
        <time>2020-01-05T14:04:53Z</time>
      </trkpt>
      <trkpt lat="48.92013" lon="2.10739">
        <ele>32.6</ele>
        <time>2020-01-05T14:05:09Z</time>
      </trkpt>
      <trkpt lat="48.92013" lon="2.10739">
        <ele>32.52</ele>
        <time>2020-01-05T14:05:29Z</time>
      </trkpt>
      <trkpt lat="48.92014" lon="2.10742">
        <ele>32.93</ele>
        <time>2020-01-05T14:05:53Z</time>
      </trkpt>
      <trkpt lat="48.92011" lon="2.10743">
        <ele>33.03</ele>
        <time>2020-01-05T14:06:08Z</time>
      </trkpt>
      <trkpt lat="48.92002" lon="2.10747">
        <ele>33.91</ele>
        <time>2020-01-05T14:06:23Z</time>
      </trkpt>
      <trkpt lat="48.92002" lon="2.10744">
        <ele>34.04</ele>
        <time>2020-01-05T14:06:37Z</time>
      </trkpt>
      <trkpt lat="48.92" lon="2.10747">
        <ele>34.17</ele>
        <time>2020-01-05T14:06:55Z</time>
      </trkpt>
      <trkpt lat="48.91996" lon="2.1075">
        <ele>34.64</ele>
        <time>2020-01-05T14:07:02Z</time>
      </trkpt>
      <trkpt lat="48.9199" lon="2.10754">
        <ele>38.06</ele>
        <time>2020-01-05T14:07:18Z</time>
      </trkpt>
      <trkpt lat="48.91985" lon="2.10759">
        <ele>40.5</ele>
        <time>2020-01-05T14:07:32Z</time>
      </trkpt>
      <trkpt lat="48.91978" lon="2.10764">
        <ele>43.84</ele>
        <time>2020-01-05T14:07:51Z</time>
      </trkpt>
      <trkpt lat="48.91974" lon="2.10766">
        <ele>44.98</ele>
        <time>2020-01-05T14:08:08Z</time>
      </trkpt>
      <trkpt lat="48.91971" lon="2.10774">
        <ele>45.95</ele>
        <time>2020-01-05T14:08:28Z</time>
      </trkpt>
      <trkpt lat="48.91957" lon="2.10781">
        <ele>48.9</ele>
        <time>2020-01-05T14:08:51Z</time>
      </trkpt>
      <trkpt lat="48.91944" lon="2.10788">
        <ele>50.8</ele>
        <time>2020-01-05T14:09:07Z</time>
      </trkpt>
      <trkpt lat="48.91931" lon="2.10798">
        <ele>52.75</ele>
        <time>2020-01-05T14:09:23Z</time>
      </trkpt>
      <trkpt lat="48.91924" lon="2.10811">
        <ele>53.23</ele>
        <time>2020-01-05T14:09:37Z</time>
      </trkpt>
      <trkpt lat="48.91915" lon="2.10825">
        <ele>54.33</ele>
        <time>2020-01-05T14:09:54Z</time>
      </trkpt>
      <trkpt lat="48.9191" lon="2.10835">
        <ele>54.53</ele>
        <time>2020-01-05T14:10:03Z</time>
      </trkpt>
      <trkpt lat="48.91899" lon="2.10845">
        <ele>55.56</ele>
        <time>2020-01-05T14:10:18Z</time>
      </trkpt>
      <trkpt lat="48.91887" lon="2.10835">
        <ele>55.65</ele>
        <time>2020-01-05T14:10:33Z</time>
      </trkpt>
      <trkpt lat="48.91876" lon="2.10815">
        <ele>56.42</ele>
        <time>2020-01-05T14:10:49Z</time>
      </trkpt>
      <trkpt lat="48.91869" lon="2.10798">
        <ele>55.6</ele>
        <time>2020-01-05T14:11:03Z</time>
      </trkpt>
      <trkpt lat="48.91863" lon="2.10789">
        <ele>56.03</ele>
        <time>2020-01-05T14:11:11Z</time>
      </trkpt>
      <trkpt lat="48.91849" lon="2.1078">
        <ele>57.44</ele>
        <time>2020-01-05T14:11:25Z</time>
      </trkpt>
      <trkpt lat="48.91846" lon="2.1078">
        <ele>57.21</ele>
        <time>2020-01-05T14:11:27Z</time>
      </trkpt>
      <trkpt lat="48.91839" lon="2.10782">
        <ele>58.19</ele>
        <time>2020-01-05T14:11:33Z</time>
      </trkpt>
      <trkpt lat="48.91839" lon="2.10796">
        <ele>59.15</ele>
        <time>2020-01-05T14:11:50Z</time>
      </trkpt>
      <trkpt lat="48.91835" lon="2.10801">
        <ele>59.56</ele>
        <time>2020-01-05T14:12:15Z</time>
      </trkpt>
      <trkpt lat="48.91835" lon="2.10804">
        <ele>59.17</ele>
        <time>2020-01-05T14:12:18Z</time>
      </trkpt>
      <trkpt lat="48.91834" lon="2.10808">
        <ele>59.52</ele>
        <time>2020-01-05T14:12:21Z</time>
      </trkpt>
      <trkpt lat="48.9184" lon="2.10828">
        <ele>61.48</ele>
        <time>2020-01-05T14:12:37Z</time>
      </trkpt>
      <trkpt lat="48.91844" lon="2.10847">
        <ele>61.54</ele>
        <time>2020-01-05T14:12:53Z</time>
      </trkpt>
      <trkpt lat="48.91845" lon="2.10861">
        <ele>61.53</ele>
        <time>2020-01-05T14:13:04Z</time>
      </trkpt>
      <trkpt lat="48.91842" lon="2.10891">
        <ele>62.6</ele>
        <time>2020-01-05T14:13:21Z</time>
      </trkpt>
      <trkpt lat="48.91835" lon="2.10913">
        <ele>62.85</ele>
        <time>2020-01-05T14:13:40Z</time>
      </trkpt>
      <trkpt lat="48.91824" lon="2.10918">
        <ele>62.86</ele>
        <time>2020-01-05T14:13:54Z</time>
      </trkpt>
      <trkpt lat="48.91807" lon="2.10921">
        <ele>62.11</ele>
        <time>2020-01-05T14:14:13Z</time>
      </trkpt>
      <trkpt lat="48.91799" lon="2.1092">
        <ele>62.5</ele>
        <time>2020-01-05T14:14:29Z</time>
      </trkpt>
      <trkpt lat="48.91793" lon="2.10922">
        <ele>62.64</ele>
        <time>2020-01-05T14:14:37Z</time>
      </trkpt>
      <trkpt lat="48.91788" lon="2.10923">
        <ele>62.82</ele>
        <time>2020-01-05T14:14:42Z</time>
      </trkpt>
      <trkpt lat="48.91777" lon="2.10921">
        <ele>62.92</ele>
        <time>2020-01-05T14:14:57Z</time>
      </trkpt>
      <trkpt lat="48.91767" lon="2.10916">
        <ele>63.1</ele>
        <time>2020-01-05T14:15:08Z</time>
      </trkpt>
      <trkpt lat="48.91757" lon="2.1091">
        <ele>63.37</ele>
        <time>2020-01-05T14:15:23Z</time>
      </trkpt>
      <trkpt lat="48.91755" lon="2.10912">
        <ele>63.71</ele>
        <time>2020-01-05T14:15:39Z</time>
      </trkpt>
      <trkpt lat="48.91754" lon="2.10911">
        <ele>63.24</ele>
        <time>2020-01-05T14:16:02Z</time>
      </trkpt>
      <trkpt lat="48.91753" lon="2.10911">
        <ele>63.11</ele>
        <time>2020-01-05T14:16:27Z</time>
      </trkpt>
      <trkpt lat="48.91755" lon="2.10909">
        <ele>63.22</ele>
        <time>2020-01-05T14:16:49Z</time>
      </trkpt>
      <trkpt lat="48.91755" lon="2.10909">
        <ele>63.29</ele>
        <time>2020-01-05T14:17:16Z</time>
      </trkpt>
      <trkpt lat="48.91754" lon="2.10909">
        <ele>63.53</ele>
        <time>2020-01-05T14:17:35Z</time>
      </trkpt>
      <trkpt lat="48.91754" lon="2.10907">
        <ele>63.27</ele>
        <time>2020-01-05T14:17:54Z</time>
      </trkpt>
      <trkpt lat="48.91747" lon="2.10904">
        <ele>63.55</ele>
        <time>2020-01-05T14:18:07Z</time>
      </trkpt>
      <trkpt lat="48.91744" lon="2.10903">
        <ele>62.93</ele>
        <time>2020-01-05T14:18:24Z</time>
      </trkpt>
      <trkpt lat="48.91742" lon="2.10901">
        <ele>63.06</ele>
        <time>2020-01-05T14:18:40Z</time>
      </trkpt>
      <trkpt lat="48.91735" lon="2.10898">
        <ele>63.6</ele>
        <time>2020-01-05T14:18:50Z</time>
      </trkpt>
      <trkpt lat="48.91725" lon="2.10893">
        <ele>63.5</ele>
        <time>2020-01-05T14:19:01Z</time>
      </trkpt>
      <trkpt lat="48.91707" lon="2.10886">
        <ele>63.46</ele>
        <time>2020-01-05T14:19:20Z</time>
      </trkpt>
      <trkpt lat="48.917" lon="2.10882">
        <ele>63.49</ele>
        <time>2020-01-05T14:19:29Z</time>
      </trkpt>
      <trkpt lat="48.91699" lon="2.10879">
        <ele>63.54</ele>
        <time>2020-01-05T14:19:31Z</time>
      </trkpt>
      <trkpt lat="48.91681" lon="2.10869">
        <ele>63.62</ele>
        <time>2020-01-05T14:19:50Z</time>
      </trkpt>
      <trkpt lat="48.91679" lon="2.10867">
        <ele>63.22</ele>
        <time>2020-01-05T14:20:05Z</time>
      </trkpt>
      <trkpt lat="48.91674" lon="2.10865">
        <ele>63.21</ele>
        <time>2020-01-05T14:20:10Z</time>
      </trkpt>
      <trkpt lat="48.91658" lon="2.10858">
        <ele>64.01</ele>
        <time>2020-01-05T14:20:29Z</time>
      </trkpt>
      <trkpt lat="48.91645" lon="2.10849">
        <ele>63.64</ele>
        <time>2020-01-05T14:20:46Z</time>
      </trkpt>
      <trkpt lat="48.91643" lon="2.10848">
        <ele>63.48</ele>
        <time>2020-01-05T14:20:48Z</time>
      </trkpt>
      <trkpt lat="48.9164" lon="2.10846">
        <ele>63.72</ele>
        <time>2020-01-05T14:20:51Z</time>
      </trkpt>
      <trkpt lat="48.91625" lon="2.1084">
        <ele>63.49</ele>
        <time>2020-01-05T14:21:09Z</time>
      </trkpt>
      <trkpt lat="48.9161" lon="2.10832">
        <ele>63.45</ele>
        <time>2020-01-05T14:21:25Z</time>
      </trkpt>
      <trkpt lat="48.91595" lon="2.10827">
        <ele>63.93</ele>
        <time>2020-01-05T14:21:40Z</time>
      </trkpt>
      <trkpt lat="48.91583" lon="2.10822">
        <ele>63.48</ele>
        <time>2020-01-05T14:21:52Z</time>
      </trkpt>
      <trkpt lat="48.91573" lon="2.10817">
        <ele>63.73</ele>
        <time>2020-01-05T14:22:02Z</time>
      </trkpt>
      <trkpt lat="48.91569" lon="2.10815">
        <ele>63.57</ele>
        <time>2020-01-05T14:22:07Z</time>
      </trkpt>
      <trkpt lat="48.9155" lon="2.10804">
        <ele>63.9</ele>
        <time>2020-01-05T14:22:25Z</time>
      </trkpt>
      <trkpt lat="48.91531" lon="2.10796">
        <ele>63.09</ele>
        <time>2020-01-05T14:22:44Z</time>
      </trkpt>
      <trkpt lat="48.91513" lon="2.10787">
        <ele>63.56</ele>
        <time>2020-01-05T14:23:02Z</time>
      </trkpt>
      <trkpt lat="48.91494" lon="2.10778">
        <ele>63.96</ele>
        <time>2020-01-05T14:23:21Z</time>
      </trkpt>
      <trkpt lat="48.91477" lon="2.1077">
        <ele>63.86</ele>
        <time>2020-01-05T14:23:38Z</time>
      </trkpt>
      <trkpt lat="48.91459" lon="2.10762">
        <ele>64.03</ele>
        <time>2020-01-05T14:23:55Z</time>
      </trkpt>
      <trkpt lat="48.91443" lon="2.10754">
        <ele>63.96</ele>
        <time>2020-01-05T14:24:12Z</time>
      </trkpt>
      <trkpt lat="48.91425" lon="2.10744">
        <ele>64.08</ele>
        <time>2020-01-05T14:24:30Z</time>
      </trkpt>
      <trkpt lat="48.91408" lon="2.10735">
        <ele>63.74</ele>
        <time>2020-01-05T14:24:48Z</time>
      </trkpt>
      <trkpt lat="48.91389" lon="2.10726">
        <ele>64.17</ele>
        <time>2020-01-05T14:25:07Z</time>
      </trkpt>
      <trkpt lat="48.91372" lon="2.10718">
        <ele>64.22</ele>
        <time>2020-01-05T14:25:24Z</time>
      </trkpt>
      <trkpt lat="48.91358" lon="2.10708">
        <ele>63.63</ele>
        <time>2020-01-05T14:25:41Z</time>
      </trkpt>
      <trkpt lat="48.91344" lon="2.10702">
        <ele>64.3</ele>
        <time>2020-01-05T14:25:56Z</time>
      </trkpt>
      <trkpt lat="48.91327" lon="2.10695">
        <ele>64.31</ele>
        <time>2020-01-05T14:26:13Z</time>
      </trkpt>
      <trkpt lat="48.9132" lon="2.10691">
        <ele>64.6</ele>
        <time>2020-01-05T14:26:20Z</time>
      </trkpt>
      <trkpt lat="48.91303" lon="2.10682">
        <ele>64.62</ele>
        <time>2020-01-05T14:26:38Z</time>
      </trkpt>
      <trkpt lat="48.91287" lon="2.10676">
        <ele>64.69</ele>
        <time>2020-01-05T14:26:54Z</time>
      </trkpt>
      <trkpt lat="48.91269" lon="2.10666">
        <ele>64.4</ele>
        <time>2020-01-05T14:27:13Z</time>
      </trkpt>
      <trkpt lat="48.91256" lon="2.1066">
        <ele>64.66</ele>
        <time>2020-01-05T14:27:28Z</time>
      </trkpt>
      <trkpt lat="48.91254" lon="2.10659">
        <ele>64.69</ele>
        <time>2020-01-05T14:27:30Z</time>
      </trkpt>
      <trkpt lat="48.91249" lon="2.10656">
        <ele>64.35</ele>
        <time>2020-01-05T14:27:36Z</time>
      </trkpt>
      <trkpt lat="48.91234" lon="2.10649">
        <ele>64.64</ele>
        <time>2020-01-05T14:27:52Z</time>
      </trkpt>
      <trkpt lat="48.91215" lon="2.1064">
        <ele>64.54</ele>
        <time>2020-01-05T14:28:11Z</time>
      </trkpt>
      <trkpt lat="48.91203" lon="2.10633">
        <ele>64.65</ele>
        <time>2020-01-05T14:28:25Z</time>
      </trkpt>
      <trkpt lat="48.912" lon="2.10631">
        <ele>65.37</ele>
        <time>2020-01-05T14:28:28Z</time>
      </trkpt>
      <trkpt lat="48.91185" lon="2.10623">
        <ele>65.49</ele>
        <time>2020-01-05T14:28:45Z</time>
      </trkpt>
      <trkpt lat="48.91171" lon="2.10616">
        <ele>65.15</ele>
        <time>2020-01-05T14:28:59Z</time>
      </trkpt>
      <trkpt lat="48.91155" lon="2.1061">
        <ele>65.45</ele>
        <time>2020-01-05T14:29:15Z</time>
      </trkpt>
      <trkpt lat="48.9114" lon="2.10603">
        <ele>65.35</ele>
        <time>2020-01-05T14:29:31Z</time>
      </trkpt>
      <trkpt lat="48.91123" lon="2.10595">
        <ele>65.65</ele>
        <time>2020-01-05T14:29:48Z</time>
      </trkpt>
      <trkpt lat="48.91109" lon="2.10588">
        <ele>65.27</ele>
        <time>2020-01-05T14:30:03Z</time>
      </trkpt>
      <trkpt lat="48.9109" lon="2.10579">
        <ele>65.3</ele>
        <time>2020-01-05T14:30:21Z</time>
      </trkpt>
      <trkpt lat="48.91073" lon="2.10571">
        <ele>65.58</ele>
        <time>2020-01-05T14:30:39Z</time>
      </trkpt>
      <trkpt lat="48.91056" lon="2.10562">
        <ele>65.66</ele>
        <time>2020-01-05T14:30:55Z</time>
      </trkpt>
      <trkpt lat="48.91055" lon="2.10561">
        <ele>65.57</ele>
        <time>2020-01-05T14:30:56Z</time>
      </trkpt>
      <trkpt lat="48.91053" lon="2.1056">
        <ele>65.3</ele>
        <time>2020-01-05T14:30:58Z</time>
      </trkpt>
      <trkpt lat="48.91036" lon="2.10552">
        <ele>65.21</ele>
        <time>2020-01-05T14:31:14Z</time>
      </trkpt>
      <trkpt lat="48.91021" lon="2.10544">
        <ele>65.14</ele>
        <time>2020-01-05T14:31:30Z</time>
      </trkpt>
      <trkpt lat="48.91008" lon="2.10537">
        <ele>65.58</ele>
        <time>2020-01-05T14:31:45Z</time>
      </trkpt>
      <trkpt lat="48.90994" lon="2.1053">
        <ele>65.69</ele>
        <time>2020-01-05T14:32:00Z</time>
      </trkpt>
      <trkpt lat="48.9098" lon="2.10524">
        <ele>65.63</ele>
        <time>2020-01-05T14:32:16Z</time>
      </trkpt>
      <trkpt lat="48.90962" lon="2.10514">
        <ele>66.21</ele>
        <time>2020-01-05T14:32:33Z</time>
      </trkpt>
      <trkpt lat="48.90948" lon="2.10507">
        <ele>65.66</ele>
        <time>2020-01-05T14:32:49Z</time>
      </trkpt>
      <trkpt lat="48.90931" lon="2.10501">
        <ele>65.57</ele>
        <time>2020-01-05T14:33:06Z</time>
      </trkpt>
      <trkpt lat="48.90917" lon="2.10494">
        <ele>65.71</ele>
        <time>2020-01-05T14:33:21Z</time>
      </trkpt>
      <trkpt lat="48.90903" lon="2.10488">
        <ele>65.81</ele>
        <time>2020-01-05T14:33:36Z</time>
      </trkpt>
      <trkpt lat="48.90886" lon="2.1048">
        <ele>65.93</ele>
        <time>2020-01-05T14:33:53Z</time>
      </trkpt>
      <trkpt lat="48.90869" lon="2.10472">
        <ele>65.6</ele>
        <time>2020-01-05T14:34:10Z</time>
      </trkpt>
      <trkpt lat="48.90856" lon="2.10466">
        <ele>65.81</ele>
        <time>2020-01-05T14:34:24Z</time>
      </trkpt>
      <trkpt lat="48.90838" lon="2.10457">
        <ele>65.82</ele>
        <time>2020-01-05T14:34:41Z</time>
      </trkpt>
      <trkpt lat="48.9082" lon="2.10447">
        <ele>65.92</ele>
        <time>2020-01-05T14:35:00Z</time>
      </trkpt>
      <trkpt lat="48.90816" lon="2.10446">
        <ele>65.97</ele>
        <time>2020-01-05T14:35:04Z</time>
      </trkpt>
      <trkpt lat="48.908" lon="2.10437">
        <ele>66.24</ele>
        <time>2020-01-05T14:35:21Z</time>
      </trkpt>
      <trkpt lat="48.90781" lon="2.10428">
        <ele>66.25</ele>
        <time>2020-01-05T14:35:40Z</time>
      </trkpt>
      <trkpt lat="48.90774" lon="2.10424">
        <ele>65.83</ele>
        <time>2020-01-05T14:35:48Z</time>
      </trkpt>
      <trkpt lat="48.90757" lon="2.10415">
        <ele>66.71</ele>
        <time>2020-01-05T14:36:05Z</time>
      </trkpt>
      <trkpt lat="48.90738" lon="2.10407">
        <ele>66.85</ele>
        <time>2020-01-05T14:36:24Z</time>
      </trkpt>
      <trkpt lat="48.90721" lon="2.10399">
        <ele>66.58</ele>
        <time>2020-01-05T14:36:42Z</time>
      </trkpt>
      <trkpt lat="48.90702" lon="2.10391">
        <ele>67.09</ele>
        <time>2020-01-05T14:37:00Z</time>
      </trkpt>
      <trkpt lat="48.90684" lon="2.1038">
        <ele>67.77</ele>
        <time>2020-01-05T14:37:18Z</time>
      </trkpt>
      <trkpt lat="48.90666" lon="2.10373">
        <ele>67.41</ele>
        <time>2020-01-05T14:37:36Z</time>
      </trkpt>
      <trkpt lat="48.90647" lon="2.10363">
        <ele>68.04</ele>
        <time>2020-01-05T14:37:55Z</time>
      </trkpt>
      <trkpt lat="48.90632" lon="2.10354">
        <ele>68.4</ele>
        <time>2020-01-05T14:38:10Z</time>
      </trkpt>
      <trkpt lat="48.90625" lon="2.1035">
        <ele>68.15</ele>
        <time>2020-01-05T14:38:18Z</time>
      </trkpt>
      <trkpt lat="48.90608" lon="2.10342">
        <ele>68.31</ele>
        <time>2020-01-05T14:38:35Z</time>
      </trkpt>
      <trkpt lat="48.90601" lon="2.10339">
        <ele>68.48</ele>
        <time>2020-01-05T14:38:42Z</time>
      </trkpt>
      <trkpt lat="48.9058" lon="2.10329">
        <ele>68.54</ele>
        <time>2020-01-05T14:39:03Z</time>
      </trkpt>
      <trkpt lat="48.90562" lon="2.1032">
        <ele>68.88</ele>
        <time>2020-01-05T14:39:20Z</time>
      </trkpt>
      <trkpt lat="48.90545" lon="2.10311">
        <ele>69.13</ele>
        <time>2020-01-05T14:39:37Z</time>
      </trkpt>
      <trkpt lat="48.90536" lon="2.10306">
        <ele>69.23</ele>
        <time>2020-01-05T14:39:46Z</time>
      </trkpt>
      <trkpt lat="48.90517" lon="2.10297">
        <ele>69.3</ele>
        <time>2020-01-05T14:40:06Z</time>
      </trkpt>
      <trkpt lat="48.90512" lon="2.10293">
        <ele>69.14</ele>
        <time>2020-01-05T14:40:11Z</time>
      </trkpt>
      <trkpt lat="48.90508" lon="2.10292">
        <ele>69.39</ele>
        <time>2020-01-05T14:40:15Z</time>
      </trkpt>
      <trkpt lat="48.9049" lon="2.10283">
        <ele>69.43</ele>
        <time>2020-01-05T14:40:34Z</time>
      </trkpt>
      <trkpt lat="48.90475" lon="2.10275">
        <ele>70.06</ele>
        <time>2020-01-05T14:40:50Z</time>
      </trkpt>
      <trkpt lat="48.90456" lon="2.10266">
        <ele>69.9</ele>
        <time>2020-01-05T14:41:08Z</time>
      </trkpt>
      <trkpt lat="48.9045" lon="2.10263">
        <ele>70.77</ele>
        <time>2020-01-05T14:41:14Z</time>
      </trkpt>
      <trkpt lat="48.90434" lon="2.10255">
        <ele>70.32</ele>
        <time>2020-01-05T14:41:30Z</time>
      </trkpt>
      <trkpt lat="48.90417" lon="2.10246">
        <ele>70.86</ele>
        <time>2020-01-05T14:41:46Z</time>
      </trkpt>
      <trkpt lat="48.90403" lon="2.10239">
        <ele>71.36</ele>
        <time>2020-01-05T14:42:01Z</time>
      </trkpt>
      <trkpt lat="48.9039" lon="2.10232">
        <ele>71.11</ele>
        <time>2020-01-05T14:42:15Z</time>
      </trkpt>
      <trkpt lat="48.9038" lon="2.10228">
        <ele>71.53</ele>
        <time>2020-01-05T14:42:26Z</time>
      </trkpt>
      <trkpt lat="48.90366" lon="2.10222">
        <ele>71.87</ele>
        <time>2020-01-05T14:42:42Z</time>
      </trkpt>
      <trkpt lat="48.90352" lon="2.10217">
        <ele>72.01</ele>
        <time>2020-01-05T14:42:57Z</time>
      </trkpt>
      <trkpt lat="48.90335" lon="2.10207">
        <ele>72.19</ele>
        <time>2020-01-05T14:43:14Z</time>
      </trkpt>
      <trkpt lat="48.90333" lon="2.10206">
        <ele>72.37</ele>
        <time>2020-01-05T14:43:17Z</time>
      </trkpt>
      <trkpt lat="48.90319" lon="2.10199">
        <ele>72.37</ele>
        <time>2020-01-05T14:43:31Z</time>
      </trkpt>
      <trkpt lat="48.90305" lon="2.10192">
        <ele>72.56</ele>
        <time>2020-01-05T14:43:46Z</time>
      </trkpt>
      <trkpt lat="48.90292" lon="2.10185">
        <ele>72.55</ele>
        <time>2020-01-05T14:44:00Z</time>
      </trkpt>
      <trkpt lat="48.9028" lon="2.10179">
        <ele>73.17</ele>
        <time>2020-01-05T14:44:14Z</time>
      </trkpt>
      <trkpt lat="48.90274" lon="2.10179">
        <ele>73.09</ele>
        <time>2020-01-05T14:44:29Z</time>
      </trkpt>
      <trkpt lat="48.90267" lon="2.10175">
        <ele>73.51</ele>
        <time>2020-01-05T14:44:50Z</time>
      </trkpt>
      <trkpt lat="48.90255" lon="2.10169">
        <ele>73.21</ele>
        <time>2020-01-05T14:45:09Z</time>
      </trkpt>
      <trkpt lat="48.90242" lon="2.10162">
        <ele>73.83</ele>
        <time>2020-01-05T14:45:27Z</time>
      </trkpt>
      <trkpt lat="48.90228" lon="2.10155">
        <ele>73.7</ele>
        <time>2020-01-05T14:45:45Z</time>
      </trkpt>
      <trkpt lat="48.90224" lon="2.10153">
        <ele>73.66</ele>
        <time>2020-01-05T14:45:51Z</time>
      </trkpt>
      <trkpt lat="48.90209" lon="2.10145">
        <ele>74.23</ele>
        <time>2020-01-05T14:46:09Z</time>
      </trkpt>
      <trkpt lat="48.90193" lon="2.10135">
        <ele>74.4</ele>
        <time>2020-01-05T14:46:29Z</time>
      </trkpt>
      <trkpt lat="48.90178" lon="2.10128">
        <ele>74.51</ele>
        <time>2020-01-05T14:46:47Z</time>
      </trkpt>
      <trkpt lat="48.90163" lon="2.10121">
        <ele>74.9</ele>
        <time>2020-01-05T14:47:05Z</time>
      </trkpt>
      <trkpt lat="48.90153" lon="2.10115">
        <ele>74.5</ele>
        <time>2020-01-05T14:47:27Z</time>
      </trkpt>
      <trkpt lat="48.9015" lon="2.10114">
        <ele>74.89</ele>
        <time>2020-01-05T14:47:50Z</time>
      </trkpt>
      <trkpt lat="48.9015" lon="2.10114">
        <ele>74.9</ele>
        <time>2020-01-05T14:48:21Z</time>
      </trkpt>
      <trkpt lat="48.90149" lon="2.10115">
        <ele>74.9</ele>
        <time>2020-01-05T14:48:49Z</time>
      </trkpt>
      <trkpt lat="48.90148" lon="2.10116">
        <ele>75.2</ele>
        <time>2020-01-05T14:49:12Z</time>
      </trkpt>
      <trkpt lat="48.90147" lon="2.10117">
        <ele>74.68</ele>
        <time>2020-01-05T14:49:35Z</time>
      </trkpt>
      <trkpt lat="48.90141" lon="2.10127">
        <ele>74.92</ele>
        <time>2020-01-05T14:49:50Z</time>
      </trkpt>
      <trkpt lat="48.90138" lon="2.10131">
        <ele>75.19</ele>
        <time>2020-01-05T14:49:55Z</time>
      </trkpt>
      <trkpt lat="48.90129" lon="2.10141">
        <ele>74.88</ele>
        <time>2020-01-05T14:50:11Z</time>
      </trkpt>
      <trkpt lat="48.90113" lon="2.10149">
        <ele>74.9</ele>
        <time>2020-01-05T14:50:30Z</time>
      </trkpt>
      <trkpt lat="48.90097" lon="2.10153">
        <ele>74.85</ele>
        <time>2020-01-05T14:50:49Z</time>
      </trkpt>
      <trkpt lat="48.90082" lon="2.10145">
        <ele>75.08</ele>
        <time>2020-01-05T14:51:08Z</time>
      </trkpt>
      <trkpt lat="48.90069" lon="2.10127">
        <ele>75.93</ele>
        <time>2020-01-05T14:51:30Z</time>
      </trkpt>
      <trkpt lat="48.90061" lon="2.10114">
        <ele>75.7</ele>
        <time>2020-01-05T14:51:49Z</time>
      </trkpt>
      <trkpt lat="48.90056" lon="2.101">
        <ele>75.62</ele>
        <time>2020-01-05T14:52:08Z</time>
      </trkpt>
      <trkpt lat="48.90043" lon="2.10093">
        <ele>75.87</ele>
        <time>2020-01-05T14:52:27Z</time>
      </trkpt>
      <trkpt lat="48.90027" lon="2.10095">
        <ele>75.53</ele>
        <time>2020-01-05T14:52:47Z</time>
      </trkpt>
      <trkpt lat="48.90012" lon="2.10095">
        <ele>75.31</ele>
        <time>2020-01-05T14:53:08Z</time>
      </trkpt>
      <trkpt lat="48.89997" lon="2.10095">
        <ele>75.59</ele>
        <time>2020-01-05T14:53:25Z</time>
      </trkpt>
      <trkpt lat="48.89985" lon="2.10094">
        <ele>75.85</ele>
        <time>2020-01-05T14:53:39Z</time>
      </trkpt>
      <trkpt lat="48.8996" lon="2.10092">
        <ele>76.19</ele>
        <time>2020-01-05T14:54:02Z</time>
      </trkpt>
      <trkpt lat="48.89937" lon="2.10092">
        <ele>76.15</ele>
        <time>2020-01-05T14:54:22Z</time>
      </trkpt>
      <trkpt lat="48.89921" lon="2.10092">
        <ele>75.98</ele>
        <time>2020-01-05T14:54:37Z</time>
      </trkpt>
      <trkpt lat="48.89907" lon="2.10092">
        <ele>76.11</ele>
        <time>2020-01-05T14:54:49Z</time>
      </trkpt>
      <trkpt lat="48.89905" lon="2.10093">
        <ele>76.26</ele>
        <time>2020-01-05T14:54:51Z</time>
      </trkpt>
      <trkpt lat="48.89886" lon="2.10092">
        <ele>76.38</ele>
        <time>2020-01-05T14:55:09Z</time>
      </trkpt>
      <trkpt lat="48.89872" lon="2.10085">
        <ele>76.86</ele>
        <time>2020-01-05T14:55:26Z</time>
      </trkpt>
      <trkpt lat="48.89867" lon="2.10082">
        <ele>76.56</ele>
        <time>2020-01-05T14:55:50Z</time>
      </trkpt>
      <trkpt lat="48.89867" lon="2.1008">
        <ele>76.62</ele>
        <time>2020-01-05T14:56:18Z</time>
      </trkpt>
      <trkpt lat="48.89866" lon="2.10081">
        <ele>76.71</ele>
        <time>2020-01-05T14:56:44Z</time>
      </trkpt>
      <trkpt lat="48.89867" lon="2.1008">
        <ele>76.18</ele>
        <time>2020-01-05T14:57:18Z</time>
      </trkpt>
      <trkpt lat="48.89866" lon="2.1008">
        <ele>76.41</ele>
        <time>2020-01-05T14:57:44Z</time>
      </trkpt>
      <trkpt lat="48.89867" lon="2.10082">
        <ele>76.24</ele>
        <time>2020-01-05T14:58:12Z</time>
      </trkpt>
      <trkpt lat="48.89866" lon="2.10081">
        <ele>76.21</ele>
        <time>2020-01-05T14:58:39Z</time>
      </trkpt>
      <trkpt lat="48.89868" lon="2.1008">
        <ele>76.37</ele>
        <time>2020-01-05T14:59:12Z</time>
      </trkpt>
      <trkpt lat="48.89868" lon="2.10081">
        <ele>75.79</ele>
        <time>2020-01-05T14:59:37Z</time>
      </trkpt>
      <trkpt lat="48.89867" lon="2.1008">
        <ele>77.04</ele>
        <time>2020-01-05T15:00:03Z</time>
      </trkpt>
      <trkpt lat="48.89866" lon="2.10081">
        <ele>76.53</ele>
        <time>2020-01-05T15:00:29Z</time>
      </trkpt>
      <trkpt lat="48.89864" lon="2.10079">
        <ele>76.08</ele>
        <time>2020-01-05T15:00:52Z</time>
      </trkpt>
      <trkpt lat="48.89861" lon="2.10062">
        <ele>77.05</ele>
        <time>2020-01-05T15:01:09Z</time>
      </trkpt>
      <trkpt lat="48.89859" lon="2.10042">
        <ele>77.42</ele>
        <time>2020-01-05T15:01:26Z</time>
      </trkpt>
      <trkpt lat="48.89858" lon="2.10022">
        <ele>77.13</ele>
        <time>2020-01-05T15:01:39Z</time>
      </trkpt>
      <trkpt lat="48.89855" lon="2.09998">
        <ele>77.5</ele>
        <time>2020-01-05T15:01:54Z</time>
      </trkpt>
      <trkpt lat="48.89853" lon="2.09975">
        <ele>77.58</ele>
        <time>2020-01-05T15:02:09Z</time>
      </trkpt>
      <trkpt lat="48.89852" lon="2.09949">
        <ele>77.63</ele>
        <time>2020-01-05T15:02:24Z</time>
      </trkpt>
      <trkpt lat="48.89852" lon="2.09937">
        <ele>77.18</ele>
        <time>2020-01-05T15:02:31Z</time>
      </trkpt>
      <trkpt lat="48.89853" lon="2.09925">
        <ele>77.59</ele>
        <time>2020-01-05T15:02:40Z</time>
      </trkpt>
      <trkpt lat="48.89849" lon="2.09896">
        <ele>77.54</ele>
        <time>2020-01-05T15:02:58Z</time>
      </trkpt>
      <trkpt lat="48.89849" lon="2.09867">
        <ele>77.31</ele>
        <time>2020-01-05T15:03:16Z</time>
      </trkpt>
      <trkpt lat="48.89849" lon="2.09862">
        <ele>77.11</ele>
        <time>2020-01-05T15:03:20Z</time>
      </trkpt>
      <trkpt lat="48.89854" lon="2.09842">
        <ele>77.22</ele>
        <time>2020-01-05T15:03:35Z</time>
      </trkpt>
      <trkpt lat="48.89854" lon="2.09823">
        <ele>77.63</ele>
        <time>2020-01-05T15:03:49Z</time>
      </trkpt>
      <trkpt lat="48.89856" lon="2.09802">
        <ele>77.37</ele>
        <time>2020-01-05T15:04:07Z</time>
      </trkpt>
      <trkpt lat="48.89854" lon="2.09774">
        <ele>77.82</ele>
        <time>2020-01-05T15:04:24Z</time>
      </trkpt>
      <trkpt lat="48.89852" lon="2.09752">
        <ele>77.53</ele>
        <time>2020-01-05T15:04:39Z</time>
      </trkpt>
      <trkpt lat="48.89853" lon="2.09734">
        <ele>78.72</ele>
        <time>2020-01-05T15:04:54Z</time>
      </trkpt>
      <trkpt lat="48.89848" lon="2.09709">
        <ele>79.46</ele>
        <time>2020-01-05T15:05:11Z</time>
      </trkpt>
      <trkpt lat="48.89846" lon="2.097">
        <ele>79.14</ele>
        <time>2020-01-05T15:05:29Z</time>
      </trkpt>
      <trkpt lat="48.89844" lon="2.09697">
        <ele>79</ele>
        <time>2020-01-05T15:05:53Z</time>
      </trkpt>
      <trkpt lat="48.89845" lon="2.09696">
        <ele>78.45</ele>
        <time>2020-01-05T15:06:22Z</time>
      </trkpt>
      <trkpt lat="48.89846" lon="2.09698">
        <ele>78.81</ele>
        <time>2020-01-05T15:06:48Z</time>
      </trkpt>
      <trkpt lat="48.89846" lon="2.09699">
        <ele>78.67</ele>
        <time>2020-01-05T15:07:22Z</time>
      </trkpt>
      <trkpt lat="48.89847" lon="2.09699">
        <ele>78.46</ele>
        <time>2020-01-05T15:07:53Z</time>
      </trkpt>
      <trkpt lat="48.89846" lon="2.097">
        <ele>78.4</ele>
        <time>2020-01-05T15:08:23Z</time>
      </trkpt>
      <trkpt lat="48.89847" lon="2.09699">
        <ele>78.7</ele>
        <time>2020-01-05T15:08:54Z</time>
      </trkpt>
      <trkpt lat="48.89848" lon="2.09697">
        <ele>78.83</ele>
        <time>2020-01-05T15:09:25Z</time>
      </trkpt>
      <trkpt lat="48.89848" lon="2.09697">
        <ele>78.6</ele>
        <time>2020-01-05T15:09:57Z</time>
      </trkpt>
      <trkpt lat="48.89848" lon="2.09698">
        <ele>79.04</ele>
        <time>2020-01-05T15:10:29Z</time>
      </trkpt>
      <trkpt lat="48.89847" lon="2.09696">
        <ele>78.62</ele>
        <time>2020-01-05T15:11:12Z</time>
      </trkpt>
      <trkpt lat="48.89847" lon="2.09697">
        <ele>79.17</ele>
        <time>2020-01-05T15:11:44Z</time>
      </trkpt>
      <trkpt lat="48.89849" lon="2.09698">
        <ele>78.56</ele>
        <time>2020-01-05T15:12:11Z</time>
      </trkpt>
      <trkpt lat="48.89848" lon="2.09697">
        <ele>79.08</ele>
        <time>2020-01-05T15:12:38Z</time>
      </trkpt>
      <trkpt lat="48.89846" lon="2.09698">
        <ele>78.97</ele>
        <time>2020-01-05T15:13:03Z</time>
      </trkpt>
      <trkpt lat="48.89846" lon="2.09697">
        <ele>78.79</ele>
        <time>2020-01-05T15:13:28Z</time>
      </trkpt>
      <trkpt lat="48.89847" lon="2.09699">
        <ele>78.61</ele>
        <time>2020-01-05T15:13:52Z</time>
      </trkpt>
      <trkpt lat="48.89848" lon="2.09699">
        <ele>78.79</ele>
        <time>2020-01-05T15:14:23Z</time>
      </trkpt>
      <trkpt lat="48.89848" lon="2.09699">
        <ele>78.69</ele>
        <time>2020-01-05T15:14:47Z</time>
      </trkpt>
      <trkpt lat="48.89847" lon="2.09699">
        <ele>78.73</ele>
        <time>2020-01-05T15:15:21Z</time>
      </trkpt>
      <trkpt lat="48.89848" lon="2.0969">
        <ele>79</ele>
        <time>2020-01-05T15:15:40Z</time>
      </trkpt>
      <trkpt lat="48.89845" lon="2.09665">
        <ele>79.38</ele>
        <time>2020-01-05T15:16:00Z</time>
      </trkpt>
      <trkpt lat="48.89848" lon="2.0967">
        <ele>79.32</ele>
        <time>2020-01-05T15:16:11Z</time>
      </trkpt>
      <trkpt lat="48.89848" lon="2.09665">
        <ele>79.03</ele>
        <time>2020-01-05T15:16:29Z</time>
      </trkpt>
      <trkpt lat="48.89846" lon="2.09663">
        <ele>79.36</ele>
        <time>2020-01-05T15:16:33Z</time>
      </trkpt>
      <trkpt lat="48.89842" lon="2.09659">
        <ele>79.62</ele>
        <time>2020-01-05T15:16:37Z</time>
      </trkpt>
      <trkpt lat="48.89842" lon="2.09639">
        <ele>79.06</ele>
        <time>2020-01-05T15:16:53Z</time>
      </trkpt>
      <trkpt lat="48.89841" lon="2.0964">
        <ele>78.95</ele>
        <time>2020-01-05T15:17:03Z</time>
      </trkpt>
      <trkpt lat="48.8984" lon="2.09636">
        <ele>78.6</ele>
        <time>2020-01-05T15:17:06Z</time>
      </trkpt>
      <trkpt lat="48.89834" lon="2.09609">
        <ele>78.68</ele>
        <time>2020-01-05T15:17:24Z</time>
      </trkpt>
    </trkseg>
  </trk>
</gpx>